<?xml version="1.0" encoding="UTF-8" standalone="no" ?>
<gpx xmlns="http://www.topografix.com/GPX/1/1" xmlns:xsi="http://www.w3.org/2001/XMLSchema-instance" xsi:schemaLocation="http://www.topografix.com/GPX/1/1 http://www.topografix.com/GPX/1/1/gpx.xsd" version="1.1" creator="VisuGPX - https://www.visugpx.com">
  <metadata>
    <name>LA GARDIOLE</name>
    <desc><![CDATA[LA GARDIOLE
SEPTEMBRE 2018
BOUCLE
]]></desc>
  </metadata>
  <trk>
    <name><![CDATA[TÈNEGUIA]]></name>
    <trkseg>
      <trkpt lat="44.72671" lon="6.87483">
        <ele>1860.77</ele>
        <time>2018-09-09T07:39:24Z</time>
      </trkpt>
      <trkpt lat="44.72674" lon="6.87498">
        <ele>1863.65</ele>
        <time>2018-09-09T07:39:35Z</time>
      </trkpt>
      <trkpt lat="44.72676" lon="6.87513">
        <ele>1865.58</ele>
        <time>2018-09-09T07:39:46Z</time>
      </trkpt>
      <trkpt lat="44.72676" lon="6.87514">
        <ele>1866.06</ele>
        <time>2018-09-09T07:39:48Z</time>
      </trkpt>
      <trkpt lat="44.72679" lon="6.87528">
        <ele>1868.94</ele>
        <time>2018-09-09T07:40:00Z</time>
      </trkpt>
      <trkpt lat="44.72681" lon="6.87531">
        <ele>1869.9</ele>
        <time>2018-09-09T07:40:03Z</time>
      </trkpt>
      <trkpt lat="44.72684" lon="6.87537">
        <ele>1871.82</ele>
        <time>2018-09-09T07:40:11Z</time>
      </trkpt>
      <trkpt lat="44.72693" lon="6.87547">
        <ele>1874.71</ele>
        <time>2018-09-09T07:40:23Z</time>
      </trkpt>
      <trkpt lat="44.72694" lon="6.87562">
        <ele>1877.11</ele>
        <time>2018-09-09T07:40:35Z</time>
      </trkpt>
      <trkpt lat="44.72709" lon="6.87567">
        <ele>1879.51</ele>
        <time>2018-09-09T07:40:46Z</time>
      </trkpt>
      <trkpt lat="44.72709" lon="6.87567">
        <ele>1881.92</ele>
        <time>2018-09-09T07:41:02Z</time>
      </trkpt>
      <trkpt lat="44.72711" lon="6.87567">
        <ele>1882.88</ele>
        <time>2018-09-09T07:41:16Z</time>
      </trkpt>
      <trkpt lat="44.72712" lon="6.87568">
        <ele>1884.8</ele>
        <time>2018-09-09T07:41:34Z</time>
      </trkpt>
      <trkpt lat="44.72712" lon="6.87568">
        <ele>1887.21</ele>
        <time>2018-09-09T07:42:03Z</time>
      </trkpt>
      <trkpt lat="44.72712" lon="6.87568">
        <ele>1889.13</ele>
        <time>2018-09-09T07:42:27Z</time>
      </trkpt>
      <trkpt lat="44.72718" lon="6.87571">
        <ele>1891.53</ele>
        <time>2018-09-09T07:42:47Z</time>
      </trkpt>
      <trkpt lat="44.72726" lon="6.87568">
        <ele>1894.42</ele>
        <time>2018-09-09T07:43:00Z</time>
      </trkpt>
      <trkpt lat="44.72729" lon="6.87564">
        <ele>1896.34</ele>
        <time>2018-09-09T07:43:11Z</time>
      </trkpt>
      <trkpt lat="44.72733" lon="6.87564">
        <ele>1898.74</ele>
        <time>2018-09-09T07:43:22Z</time>
      </trkpt>
      <trkpt lat="44.72734" lon="6.87561">
        <ele>1898.74</ele>
        <time>2018-09-09T07:43:25Z</time>
      </trkpt>
      <trkpt lat="44.72735" lon="6.87562">
        <ele>1900.18</ele>
        <time>2018-09-09T07:43:36Z</time>
      </trkpt>
      <trkpt lat="44.72735" lon="6.8756">
        <ele>1903.07</ele>
        <time>2018-09-09T07:44:03Z</time>
      </trkpt>
      <trkpt lat="44.72736" lon="6.8756">
        <ele>1905.95</ele>
        <time>2018-09-09T07:44:37Z</time>
      </trkpt>
      <trkpt lat="44.72737" lon="6.8756">
        <ele>1906.91</ele>
        <time>2018-09-09T07:44:55Z</time>
      </trkpt>
      <trkpt lat="44.72739" lon="6.87557">
        <ele>1908.35</ele>
        <time>2018-09-09T07:45:12Z</time>
      </trkpt>
      <trkpt lat="44.72742" lon="6.87554">
        <ele>1908.83</ele>
        <time>2018-09-09T07:45:20Z</time>
      </trkpt>
      <trkpt lat="44.72744" lon="6.8755">
        <ele>1910.28</ele>
        <time>2018-09-09T07:45:34Z</time>
      </trkpt>
      <trkpt lat="44.72746" lon="6.87546">
        <ele>1911.24</ele>
        <time>2018-09-09T07:45:43Z</time>
      </trkpt>
      <trkpt lat="44.72758" lon="6.87531">
        <ele>1913.64</ele>
        <time>2018-09-09T07:45:58Z</time>
      </trkpt>
      <trkpt lat="44.72761" lon="6.87527">
        <ele>1913.64</ele>
        <time>2018-09-09T07:46:02Z</time>
      </trkpt>
      <trkpt lat="44.72772" lon="6.87507">
        <ele>1916.04</ele>
        <time>2018-09-09T07:46:18Z</time>
      </trkpt>
      <trkpt lat="44.72785" lon="6.87489">
        <ele>1917.97</ele>
        <time>2018-09-09T07:46:35Z</time>
      </trkpt>
      <trkpt lat="44.72789" lon="6.87484">
        <ele>1918.93</ele>
        <time>2018-09-09T07:46:40Z</time>
      </trkpt>
      <trkpt lat="44.72798" lon="6.87474">
        <ele>1920.85</ele>
        <time>2018-09-09T07:46:50Z</time>
      </trkpt>
      <trkpt lat="44.72799" lon="6.87473">
        <ele>1921.81</ele>
        <time>2018-09-09T07:46:52Z</time>
      </trkpt>
      <trkpt lat="44.72812" lon="6.87463">
        <ele>1924.22</ele>
        <time>2018-09-09T07:47:05Z</time>
      </trkpt>
      <trkpt lat="44.72825" lon="6.87456">
        <ele>1927.1</ele>
        <time>2018-09-09T07:47:19Z</time>
      </trkpt>
      <trkpt lat="44.72833" lon="6.8745">
        <ele>1928.54</ele>
        <time>2018-09-09T07:47:28Z</time>
      </trkpt>
      <trkpt lat="44.72835" lon="6.87446">
        <ele>1929.5</ele>
        <time>2018-09-09T07:47:31Z</time>
      </trkpt>
      <trkpt lat="44.7284" lon="6.8743">
        <ele>1932.87</ele>
        <time>2018-09-09T07:47:44Z</time>
      </trkpt>
      <trkpt lat="44.72844" lon="6.87425">
        <ele>1934.79</ele>
        <time>2018-09-09T07:47:52Z</time>
      </trkpt>
      <trkpt lat="44.7285" lon="6.8743">
        <ele>1936.23</ele>
        <time>2018-09-09T07:47:59Z</time>
      </trkpt>
      <trkpt lat="44.72851" lon="6.87434">
        <ele>1937.19</ele>
        <time>2018-09-09T07:48:02Z</time>
      </trkpt>
      <trkpt lat="44.72853" lon="6.87438">
        <ele>1938.16</ele>
        <time>2018-09-09T07:48:07Z</time>
      </trkpt>
      <trkpt lat="44.72859" lon="6.87451">
        <ele>1941.04</ele>
        <time>2018-09-09T07:48:19Z</time>
      </trkpt>
      <trkpt lat="44.72859" lon="6.87452">
        <ele>1941.52</ele>
        <time>2018-09-09T07:48:20Z</time>
      </trkpt>
      <trkpt lat="44.72861" lon="6.87458">
        <ele>1943.44</ele>
        <time>2018-09-09T07:48:28Z</time>
      </trkpt>
      <trkpt lat="44.72866" lon="6.87472">
        <ele>1946.81</ele>
        <time>2018-09-09T07:48:41Z</time>
      </trkpt>
      <trkpt lat="44.72867" lon="6.87476">
        <ele>1948.25</ele>
        <time>2018-09-09T07:48:46Z</time>
      </trkpt>
      <trkpt lat="44.7287" lon="6.87484">
        <ele>1950.65</ele>
        <time>2018-09-09T07:48:54Z</time>
      </trkpt>
      <trkpt lat="44.72871" lon="6.87496">
        <ele>1953.54</ele>
        <time>2018-09-09T07:49:06Z</time>
      </trkpt>
      <trkpt lat="44.72871" lon="6.87497">
        <ele>1953.54</ele>
        <time>2018-09-09T07:49:07Z</time>
      </trkpt>
      <trkpt lat="44.72865" lon="6.87509">
        <ele>1956.42</ele>
        <time>2018-09-09T07:49:19Z</time>
      </trkpt>
      <trkpt lat="44.7286" lon="6.87516">
        <ele>1959.3</ele>
        <time>2018-09-09T07:49:29Z</time>
      </trkpt>
      <trkpt lat="44.72858" lon="6.87518">
        <ele>1959.78</ele>
        <time>2018-09-09T07:49:32Z</time>
      </trkpt>
      <trkpt lat="44.72857" lon="6.87532">
        <ele>1962.67</ele>
        <time>2018-09-09T07:49:44Z</time>
      </trkpt>
      <trkpt lat="44.72856" lon="6.87534">
        <ele>1964.11</ele>
        <time>2018-09-09T07:49:55Z</time>
      </trkpt>
      <trkpt lat="44.72861" lon="6.87546">
        <ele>1966.03</ele>
        <time>2018-09-09T07:50:05Z</time>
      </trkpt>
      <trkpt lat="44.72865" lon="6.87554">
        <ele>1967.48</ele>
        <time>2018-09-09T07:50:13Z</time>
      </trkpt>
      <trkpt lat="44.72867" lon="6.87557">
        <ele>1968.44</ele>
        <time>2018-09-09T07:50:16Z</time>
      </trkpt>
      <trkpt lat="44.72869" lon="6.87559">
        <ele>1968.92</ele>
        <time>2018-09-09T07:50:18Z</time>
      </trkpt>
      <trkpt lat="44.7287" lon="6.87561">
        <ele>1969.4</ele>
        <time>2018-09-09T07:50:20Z</time>
      </trkpt>
      <trkpt lat="44.72877" lon="6.87574">
        <ele>1971.8</ele>
        <time>2018-09-09T07:50:33Z</time>
      </trkpt>
      <trkpt lat="44.72886" lon="6.87586">
        <ele>1975.17</ele>
        <time>2018-09-09T07:50:45Z</time>
      </trkpt>
      <trkpt lat="44.72893" lon="6.87599">
        <ele>1978.05</ele>
        <time>2018-09-09T07:50:57Z</time>
      </trkpt>
      <trkpt lat="44.72896" lon="6.87606">
        <ele>1979.01</ele>
        <time>2018-09-09T07:51:04Z</time>
      </trkpt>
      <trkpt lat="44.72901" lon="6.87614">
        <ele>1980.45</ele>
        <time>2018-09-09T07:51:11Z</time>
      </trkpt>
      <trkpt lat="44.72904" lon="6.87618">
        <ele>1981.9</ele>
        <time>2018-09-09T07:51:16Z</time>
      </trkpt>
      <trkpt lat="44.72905" lon="6.87622">
        <ele>1982.38</ele>
        <time>2018-09-09T07:51:19Z</time>
      </trkpt>
      <trkpt lat="44.7291" lon="6.8763">
        <ele>1983.82</ele>
        <time>2018-09-09T07:51:26Z</time>
      </trkpt>
      <trkpt lat="44.72913" lon="6.87641">
        <ele>1986.7</ele>
        <time>2018-09-09T07:51:37Z</time>
      </trkpt>
      <trkpt lat="44.72915" lon="6.87652">
        <ele>1989.59</ele>
        <time>2018-09-09T07:51:47Z</time>
      </trkpt>
      <trkpt lat="44.72922" lon="6.87664">
        <ele>1992.47</ele>
        <time>2018-09-09T07:52:00Z</time>
      </trkpt>
      <trkpt lat="44.72932" lon="6.87669">
        <ele>1995.35</ele>
        <time>2018-09-09T07:52:12Z</time>
      </trkpt>
      <trkpt lat="44.72934" lon="6.87668">
        <ele>1996.32</ele>
        <time>2018-09-09T07:52:16Z</time>
      </trkpt>
      <trkpt lat="44.72936" lon="6.87665">
        <ele>1997.28</ele>
        <time>2018-09-09T07:52:19Z</time>
      </trkpt>
      <trkpt lat="44.72937" lon="6.87662">
        <ele>1997.76</ele>
        <time>2018-09-09T07:52:22Z</time>
      </trkpt>
      <trkpt lat="44.72938" lon="6.8766">
        <ele>1998.24</ele>
        <time>2018-09-09T07:52:25Z</time>
      </trkpt>
      <trkpt lat="44.72941" lon="6.87659">
        <ele>1998.72</ele>
        <time>2018-09-09T07:52:28Z</time>
      </trkpt>
      <trkpt lat="44.72947" lon="6.87652">
        <ele>2001.12</ele>
        <time>2018-09-09T07:52:37Z</time>
      </trkpt>
      <trkpt lat="44.7295" lon="6.87649">
        <ele>2002.08</ele>
        <time>2018-09-09T07:52:41Z</time>
      </trkpt>
      <trkpt lat="44.72956" lon="6.87644">
        <ele>2004.01</ele>
        <time>2018-09-09T07:52:50Z</time>
      </trkpt>
      <trkpt lat="44.72961" lon="6.87638">
        <ele>2005.93</ele>
        <time>2018-09-09T07:52:57Z</time>
      </trkpt>
      <trkpt lat="44.72966" lon="6.87629">
        <ele>2007.85</ele>
        <time>2018-09-09T07:53:08Z</time>
      </trkpt>
      <trkpt lat="44.7297" lon="6.87616">
        <ele>2010.73</ele>
        <time>2018-09-09T07:53:20Z</time>
      </trkpt>
      <trkpt lat="44.72971" lon="6.87604">
        <ele>2013.62</ele>
        <time>2018-09-09T07:53:30Z</time>
      </trkpt>
      <trkpt lat="44.72973" lon="6.87593">
        <ele>2016.02</ele>
        <time>2018-09-09T07:53:41Z</time>
      </trkpt>
      <trkpt lat="44.72974" lon="6.87581">
        <ele>2018.43</ele>
        <time>2018-09-09T07:53:52Z</time>
      </trkpt>
      <trkpt lat="44.72975" lon="6.8758">
        <ele>2019.39</ele>
        <time>2018-09-09T07:53:53Z</time>
      </trkpt>
      <trkpt lat="44.72986" lon="6.87579">
        <ele>2021.79</ele>
        <time>2018-09-09T07:54:06Z</time>
      </trkpt>
      <trkpt lat="44.72992" lon="6.87587">
        <ele>2024.67</ele>
        <time>2018-09-09T07:54:19Z</time>
      </trkpt>
      <trkpt lat="44.73" lon="6.87597">
        <ele>2027.56</ele>
        <time>2018-09-09T07:54:31Z</time>
      </trkpt>
      <trkpt lat="44.73006" lon="6.87606">
        <ele>2030.92</ele>
        <time>2018-09-09T07:54:44Z</time>
      </trkpt>
      <trkpt lat="44.73011" lon="6.87613">
        <ele>2032.84</ele>
        <time>2018-09-09T07:54:55Z</time>
      </trkpt>
      <trkpt lat="44.73012" lon="6.87613">
        <ele>2033.33</ele>
        <time>2018-09-09T07:54:56Z</time>
      </trkpt>
      <trkpt lat="44.73016" lon="6.87618">
        <ele>2034.77</ele>
        <time>2018-09-09T07:55:02Z</time>
      </trkpt>
      <trkpt lat="44.73023" lon="6.87625">
        <ele>2037.65</ele>
        <time>2018-09-09T07:55:15Z</time>
      </trkpt>
      <trkpt lat="44.7303" lon="6.87632">
        <ele>2041.02</ele>
        <time>2018-09-09T07:55:28Z</time>
      </trkpt>
      <trkpt lat="44.73035" lon="6.87639">
        <ele>2043.9</ele>
        <time>2018-09-09T07:55:40Z</time>
      </trkpt>
      <trkpt lat="44.73039" lon="6.87643">
        <ele>2044.86</ele>
        <time>2018-09-09T07:55:47Z</time>
      </trkpt>
      <trkpt lat="44.7305" lon="6.87649">
        <ele>2048.23</ele>
        <time>2018-09-09T07:56:01Z</time>
      </trkpt>
      <trkpt lat="44.7306" lon="6.87651">
        <ele>2051.59</ele>
        <time>2018-09-09T07:56:15Z</time>
      </trkpt>
      <trkpt lat="44.7307" lon="6.87655">
        <ele>2053.51</ele>
        <time>2018-09-09T07:56:27Z</time>
      </trkpt>
      <trkpt lat="44.73079" lon="6.87658">
        <ele>2055.92</ele>
        <time>2018-09-09T07:56:38Z</time>
      </trkpt>
      <trkpt lat="44.73083" lon="6.87663">
        <ele>2057.84</ele>
        <time>2018-09-09T07:56:45Z</time>
      </trkpt>
      <trkpt lat="44.73086" lon="6.87667">
        <ele>2058.8</ele>
        <time>2018-09-09T07:56:49Z</time>
      </trkpt>
      <trkpt lat="44.73088" lon="6.87676">
        <ele>2060.72</ele>
        <time>2018-09-09T07:56:57Z</time>
      </trkpt>
      <trkpt lat="44.73088" lon="6.87684">
        <ele>2062.17</ele>
        <time>2018-09-09T07:57:03Z</time>
      </trkpt>
      <trkpt lat="44.73088" lon="6.87696">
        <ele>2064.09</ele>
        <time>2018-09-09T07:57:14Z</time>
      </trkpt>
      <trkpt lat="44.73088" lon="6.87701">
        <ele>2065.05</ele>
        <time>2018-09-09T07:57:18Z</time>
      </trkpt>
      <trkpt lat="44.73087" lon="6.87706">
        <ele>2066.01</ele>
        <time>2018-09-09T07:57:22Z</time>
      </trkpt>
      <trkpt lat="44.73085" lon="6.87714">
        <ele>2068.41</ele>
        <time>2018-09-09T07:57:34Z</time>
      </trkpt>
      <trkpt lat="44.73085" lon="6.87714">
        <ele>2070.82</ele>
        <time>2018-09-09T07:57:57Z</time>
      </trkpt>
      <trkpt lat="44.73085" lon="6.87715">
        <ele>2071.78</ele>
        <time>2018-09-09T07:58:20Z</time>
      </trkpt>
      <trkpt lat="44.73084" lon="6.87714">
        <ele>2072.74</ele>
        <time>2018-09-09T07:58:39Z</time>
      </trkpt>
      <trkpt lat="44.73084" lon="6.87714">
        <ele>2073.7</ele>
        <time>2018-09-09T07:59:00Z</time>
      </trkpt>
      <trkpt lat="44.73084" lon="6.87714">
        <ele>2075.14</ele>
        <time>2018-09-09T07:59:26Z</time>
      </trkpt>
      <trkpt lat="44.73086" lon="6.87717">
        <ele>2075.62</ele>
        <time>2018-09-09T07:59:36Z</time>
      </trkpt>
      <trkpt lat="44.73093" lon="6.87729">
        <ele>2076.59</ele>
        <time>2018-09-09T07:59:49Z</time>
      </trkpt>
      <trkpt lat="44.73096" lon="6.87733">
        <ele>2077.55</ele>
        <time>2018-09-09T07:59:53Z</time>
      </trkpt>
      <trkpt lat="44.73101" lon="6.87736">
        <ele>2078.03</ele>
        <time>2018-09-09T07:59:57Z</time>
      </trkpt>
      <trkpt lat="44.73116" lon="6.87749">
        <ele>2079.47</ele>
        <time>2018-09-09T08:00:13Z</time>
      </trkpt>
      <trkpt lat="44.73126" lon="6.8776">
        <ele>2081.39</ele>
        <time>2018-09-09T08:00:25Z</time>
      </trkpt>
      <trkpt lat="44.73132" lon="6.87769">
        <ele>2081.87</ele>
        <time>2018-09-09T08:00:33Z</time>
      </trkpt>
      <trkpt lat="44.73143" lon="6.87782">
        <ele>2084.28</ele>
        <time>2018-09-09T08:00:47Z</time>
      </trkpt>
      <trkpt lat="44.73155" lon="6.87799">
        <ele>2087.16</ele>
        <time>2018-09-09T08:01:03Z</time>
      </trkpt>
      <trkpt lat="44.7316" lon="6.87807">
        <ele>2087.16</ele>
        <time>2018-09-09T08:01:10Z</time>
      </trkpt>
      <trkpt lat="44.73153" lon="6.87828">
        <ele>2088.6</ele>
        <time>2018-09-09T08:01:25Z</time>
      </trkpt>
      <trkpt lat="44.73148" lon="6.87844">
        <ele>2090.04</ele>
        <time>2018-09-09T08:01:37Z</time>
      </trkpt>
      <trkpt lat="44.73147" lon="6.87845">
        <ele>2090.04</ele>
        <time>2018-09-09T08:01:38Z</time>
      </trkpt>
      <trkpt lat="44.73144" lon="6.87848">
        <ele>2091</ele>
        <time>2018-09-09T08:01:42Z</time>
      </trkpt>
      <trkpt lat="44.73139" lon="6.87851">
        <ele>2092.45</ele>
        <time>2018-09-09T08:01:54Z</time>
      </trkpt>
      <trkpt lat="44.73137" lon="6.87855">
        <ele>2092.93</ele>
        <time>2018-09-09T08:01:57Z</time>
      </trkpt>
      <trkpt lat="44.73139" lon="6.87867">
        <ele>2093.89</ele>
        <time>2018-09-09T08:02:11Z</time>
      </trkpt>
      <trkpt lat="44.73139" lon="6.87868">
        <ele>2094.85</ele>
        <time>2018-09-09T08:02:18Z</time>
      </trkpt>
      <trkpt lat="44.73143" lon="6.87869">
        <ele>2094.85</ele>
        <time>2018-09-09T08:02:22Z</time>
      </trkpt>
      <trkpt lat="44.73144" lon="6.87868">
        <ele>2095.81</ele>
        <time>2018-09-09T08:02:24Z</time>
      </trkpt>
      <trkpt lat="44.73146" lon="6.87866">
        <ele>2095.81</ele>
        <time>2018-09-09T08:02:26Z</time>
      </trkpt>
      <trkpt lat="44.73157" lon="6.87866">
        <ele>2098.7</ele>
        <time>2018-09-09T08:02:40Z</time>
      </trkpt>
      <trkpt lat="44.73161" lon="6.87868">
        <ele>2100.14</ele>
        <time>2018-09-09T08:02:46Z</time>
      </trkpt>
      <trkpt lat="44.73166" lon="6.87876">
        <ele>2103.02</ele>
        <time>2018-09-09T08:02:57Z</time>
      </trkpt>
      <trkpt lat="44.73169" lon="6.87881">
        <ele>2103.5</ele>
        <time>2018-09-09T08:03:01Z</time>
      </trkpt>
      <trkpt lat="44.73174" lon="6.87883">
        <ele>2104.94</ele>
        <time>2018-09-09T08:03:07Z</time>
      </trkpt>
      <trkpt lat="44.73177" lon="6.8788">
        <ele>2105.91</ele>
        <time>2018-09-09T08:03:13Z</time>
      </trkpt>
      <trkpt lat="44.73183" lon="6.87865">
        <ele>2108.79</ele>
        <time>2018-09-09T08:03:26Z</time>
      </trkpt>
      <trkpt lat="44.73185" lon="6.87859">
        <ele>2110.23</ele>
        <time>2018-09-09T08:03:32Z</time>
      </trkpt>
      <trkpt lat="44.73188" lon="6.87858">
        <ele>2111.19</ele>
        <time>2018-09-09T08:03:35Z</time>
      </trkpt>
      <trkpt lat="44.7319" lon="6.87861">
        <ele>2111.67</ele>
        <time>2018-09-09T08:03:38Z</time>
      </trkpt>
      <trkpt lat="44.73193" lon="6.87866">
        <ele>2112.15</ele>
        <time>2018-09-09T08:03:41Z</time>
      </trkpt>
      <trkpt lat="44.73197" lon="6.87883">
        <ele>2115.04</ele>
        <time>2018-09-09T08:03:55Z</time>
      </trkpt>
      <trkpt lat="44.73199" lon="6.87893">
        <ele>2116.96</ele>
        <time>2018-09-09T08:04:04Z</time>
      </trkpt>
      <trkpt lat="44.73198" lon="6.87908">
        <ele>2119.36</ele>
        <time>2018-09-09T08:04:17Z</time>
      </trkpt>
      <trkpt lat="44.73198" lon="6.87915">
        <ele>2123.69</ele>
        <time>2018-09-09T08:04:22Z</time>
      </trkpt>
      <trkpt lat="44.73198" lon="6.87917">
        <ele>2123.69</ele>
        <time>2018-09-09T08:04:24Z</time>
      </trkpt>
      <trkpt lat="44.73198" lon="6.87923">
        <ele>2121.29</ele>
        <time>2018-09-09T08:04:29Z</time>
      </trkpt>
      <trkpt lat="44.73198" lon="6.87939">
        <ele>2124.17</ele>
        <time>2018-09-09T08:04:42Z</time>
      </trkpt>
      <trkpt lat="44.73202" lon="6.87952">
        <ele>2127.05</ele>
        <time>2018-09-09T08:04:55Z</time>
      </trkpt>
      <trkpt lat="44.73207" lon="6.87963">
        <ele>2129.46</ele>
        <time>2018-09-09T08:05:07Z</time>
      </trkpt>
      <trkpt lat="44.73209" lon="6.87966">
        <ele>2130.42</ele>
        <time>2018-09-09T08:05:10Z</time>
      </trkpt>
      <trkpt lat="44.73215" lon="6.8798">
        <ele>2133.3</ele>
        <time>2018-09-09T08:05:24Z</time>
      </trkpt>
      <trkpt lat="44.73218" lon="6.87984">
        <ele>2134.26</ele>
        <time>2018-09-09T08:05:29Z</time>
      </trkpt>
      <trkpt lat="44.73222" lon="6.87988">
        <ele>2135.71</ele>
        <time>2018-09-09T08:05:37Z</time>
      </trkpt>
      <trkpt lat="44.73228" lon="6.87997">
        <ele>2138.11</ele>
        <time>2018-09-09T08:05:47Z</time>
      </trkpt>
      <trkpt lat="44.73228" lon="6.88001">
        <ele>2138.59</ele>
        <time>2018-09-09T08:05:50Z</time>
      </trkpt>
      <trkpt lat="44.73233" lon="6.88007">
        <ele>2139.55</ele>
        <time>2018-09-09T08:05:57Z</time>
      </trkpt>
      <trkpt lat="44.73238" lon="6.88023">
        <ele>2142.44</ele>
        <time>2018-09-09T08:06:11Z</time>
      </trkpt>
      <trkpt lat="44.73237" lon="6.88028">
        <ele>2142.92</ele>
        <time>2018-09-09T08:06:15Z</time>
      </trkpt>
      <trkpt lat="44.73232" lon="6.88035">
        <ele>2143.88</ele>
        <time>2018-09-09T08:06:21Z</time>
      </trkpt>
      <trkpt lat="44.73224" lon="6.88041">
        <ele>2145.8</ele>
        <time>2018-09-09T08:06:31Z</time>
      </trkpt>
      <trkpt lat="44.73222" lon="6.88045">
        <ele>2146.76</ele>
        <time>2018-09-09T08:06:35Z</time>
      </trkpt>
      <trkpt lat="44.73218" lon="6.88062">
        <ele>2149.16</ele>
        <time>2018-09-09T08:06:48Z</time>
      </trkpt>
      <trkpt lat="44.73217" lon="6.88068">
        <ele>2150.61</ele>
        <time>2018-09-09T08:06:56Z</time>
      </trkpt>
      <trkpt lat="44.73215" lon="6.88081">
        <ele>2153.49</ele>
        <time>2018-09-09T08:07:09Z</time>
      </trkpt>
      <trkpt lat="44.73215" lon="6.88087">
        <ele>2154.93</ele>
        <time>2018-09-09T08:07:14Z</time>
      </trkpt>
      <trkpt lat="44.73215" lon="6.88101">
        <ele>2157.34</ele>
        <time>2018-09-09T08:07:27Z</time>
      </trkpt>
      <trkpt lat="44.73218" lon="6.88113">
        <ele>2159.74</ele>
        <time>2018-09-09T08:07:40Z</time>
      </trkpt>
      <trkpt lat="44.73224" lon="6.88124">
        <ele>2162.62</ele>
        <time>2018-09-09T08:07:52Z</time>
      </trkpt>
      <trkpt lat="44.73226" lon="6.88131">
        <ele>2164.06</ele>
        <time>2018-09-09T08:08:00Z</time>
      </trkpt>
      <trkpt lat="44.73232" lon="6.88142">
        <ele>2166.95</ele>
        <time>2018-09-09T08:08:13Z</time>
      </trkpt>
      <trkpt lat="44.73236" lon="6.88138">
        <ele>2169.35</ele>
        <time>2018-09-09T08:08:24Z</time>
      </trkpt>
      <trkpt lat="44.73238" lon="6.88122">
        <ele>2171.76</ele>
        <time>2018-09-09T08:08:36Z</time>
      </trkpt>
      <trkpt lat="44.73241" lon="6.8811">
        <ele>2173.2</ele>
        <time>2018-09-09T08:08:46Z</time>
      </trkpt>
      <trkpt lat="44.73248" lon="6.88107">
        <ele>2175.6</ele>
        <time>2018-09-09T08:08:57Z</time>
      </trkpt>
      <trkpt lat="44.73255" lon="6.88117">
        <ele>2177.52</ele>
        <time>2018-09-09T08:09:08Z</time>
      </trkpt>
      <trkpt lat="44.73262" lon="6.88132">
        <ele>2180.41</ele>
        <time>2018-09-09T08:09:20Z</time>
      </trkpt>
      <trkpt lat="44.73266" lon="6.88141">
        <ele>2181.37</ele>
        <time>2018-09-09T08:09:28Z</time>
      </trkpt>
      <trkpt lat="44.73267" lon="6.88144">
        <ele>2182.33</ele>
        <time>2018-09-09T08:09:30Z</time>
      </trkpt>
      <trkpt lat="44.73268" lon="6.88161">
        <ele>2183.77</ele>
        <time>2018-09-09T08:09:43Z</time>
      </trkpt>
      <trkpt lat="44.7327" lon="6.88176">
        <ele>2185.69</ele>
        <time>2018-09-09T08:09:55Z</time>
      </trkpt>
      <trkpt lat="44.73277" lon="6.88188">
        <ele>2188.1</ele>
        <time>2018-09-09T08:10:08Z</time>
      </trkpt>
      <trkpt lat="44.7328" lon="6.882">
        <ele>2190.02</ele>
        <time>2018-09-09T08:10:18Z</time>
      </trkpt>
      <trkpt lat="44.73283" lon="6.88221">
        <ele>2192.42</ele>
        <time>2018-09-09T08:10:33Z</time>
      </trkpt>
      <trkpt lat="44.73283" lon="6.88222">
        <ele>2192.42</ele>
        <time>2018-09-09T08:10:34Z</time>
      </trkpt>
      <trkpt lat="44.73281" lon="6.88232">
        <ele>2193.39</ele>
        <time>2018-09-09T08:10:41Z</time>
      </trkpt>
      <trkpt lat="44.73281" lon="6.88235">
        <ele>2193.87</ele>
        <time>2018-09-09T08:10:44Z</time>
      </trkpt>
      <trkpt lat="44.73279" lon="6.88245">
        <ele>2196.75</ele>
        <time>2018-09-09T08:10:55Z</time>
      </trkpt>
      <trkpt lat="44.73281" lon="6.88256">
        <ele>2199.15</ele>
        <time>2018-09-09T08:11:07Z</time>
      </trkpt>
      <trkpt lat="44.73282" lon="6.88269">
        <ele>2201.56</ele>
        <time>2018-09-09T08:11:20Z</time>
      </trkpt>
      <trkpt lat="44.7328" lon="6.88279">
        <ele>2204.44</ele>
        <time>2018-09-09T08:11:32Z</time>
      </trkpt>
      <trkpt lat="44.7328" lon="6.8828">
        <ele>2204.92</ele>
        <time>2018-09-09T08:11:33Z</time>
      </trkpt>
      <trkpt lat="44.73276" lon="6.88286">
        <ele>2206.36</ele>
        <time>2018-09-09T08:11:40Z</time>
      </trkpt>
      <trkpt lat="44.73262" lon="6.88298">
        <ele>2208.29</ele>
        <time>2018-09-09T08:11:56Z</time>
      </trkpt>
      <trkpt lat="44.73259" lon="6.88301">
        <ele>2208.77</ele>
        <time>2018-09-09T08:12:00Z</time>
      </trkpt>
      <trkpt lat="44.73253" lon="6.88313">
        <ele>2210.69</ele>
        <time>2018-09-09T08:12:12Z</time>
      </trkpt>
      <trkpt lat="44.73252" lon="6.88321">
        <ele>2211.65</ele>
        <time>2018-09-09T08:12:18Z</time>
      </trkpt>
      <trkpt lat="44.73249" lon="6.8833">
        <ele>2213.09</ele>
        <time>2018-09-09T08:12:26Z</time>
      </trkpt>
      <trkpt lat="44.73241" lon="6.88341">
        <ele>2215.5</ele>
        <time>2018-09-09T08:12:39Z</time>
      </trkpt>
      <trkpt lat="44.73238" lon="6.8835">
        <ele>2217.9</ele>
        <time>2018-09-09T08:12:48Z</time>
      </trkpt>
      <trkpt lat="44.73238" lon="6.88354">
        <ele>2218.38</ele>
        <time>2018-09-09T08:12:51Z</time>
      </trkpt>
      <trkpt lat="44.73236" lon="6.88362">
        <ele>2219.82</ele>
        <time>2018-09-09T08:12:57Z</time>
      </trkpt>
      <trkpt lat="44.73236" lon="6.88365">
        <ele>2220.3</ele>
        <time>2018-09-09T08:13:00Z</time>
      </trkpt>
      <trkpt lat="44.73236" lon="6.88377">
        <ele>2222.71</ele>
        <time>2018-09-09T08:13:11Z</time>
      </trkpt>
      <trkpt lat="44.73235" lon="6.88384">
        <ele>2224.15</ele>
        <time>2018-09-09T08:13:18Z</time>
      </trkpt>
      <trkpt lat="44.73236" lon="6.88387">
        <ele>2225.11</ele>
        <time>2018-09-09T08:13:21Z</time>
      </trkpt>
      <trkpt lat="44.73236" lon="6.88392">
        <ele>2226.07</ele>
        <time>2018-09-09T08:13:25Z</time>
      </trkpt>
      <trkpt lat="44.73237" lon="6.88396">
        <ele>2227.03</ele>
        <time>2018-09-09T08:13:29Z</time>
      </trkpt>
      <trkpt lat="44.73241" lon="6.8841">
        <ele>2229.43</ele>
        <time>2018-09-09T08:13:41Z</time>
      </trkpt>
      <trkpt lat="44.73245" lon="6.88418">
        <ele>2230.88</ele>
        <time>2018-09-09T08:13:47Z</time>
      </trkpt>
      <trkpt lat="44.73246" lon="6.88421">
        <ele>2231.36</ele>
        <time>2018-09-09T08:13:50Z</time>
      </trkpt>
      <trkpt lat="44.73251" lon="6.88434">
        <ele>2233.76</ele>
        <time>2018-09-09T08:14:04Z</time>
      </trkpt>
      <trkpt lat="44.73258" lon="6.88443">
        <ele>2236.64</ele>
        <time>2018-09-09T08:14:18Z</time>
      </trkpt>
      <trkpt lat="44.73262" lon="6.88444">
        <ele>2237.13</ele>
        <time>2018-09-09T08:14:22Z</time>
      </trkpt>
      <trkpt lat="44.73262" lon="6.88454">
        <ele>2239.53</ele>
        <time>2018-09-09T08:14:34Z</time>
      </trkpt>
      <trkpt lat="44.73261" lon="6.88456">
        <ele>2240.49</ele>
        <time>2018-09-09T08:14:37Z</time>
      </trkpt>
      <trkpt lat="44.73257" lon="6.88468">
        <ele>2243.37</ele>
        <time>2018-09-09T08:14:50Z</time>
      </trkpt>
      <trkpt lat="44.73254" lon="6.88476">
        <ele>2245.3</ele>
        <time>2018-09-09T08:15:00Z</time>
      </trkpt>
      <trkpt lat="44.73252" lon="6.88491">
        <ele>2247.7</ele>
        <time>2018-09-09T08:15:14Z</time>
      </trkpt>
      <trkpt lat="44.7325" lon="6.88489">
        <ele>2249.14</ele>
        <time>2018-09-09T08:15:33Z</time>
      </trkpt>
      <trkpt lat="44.73251" lon="6.88486">
        <ele>2249.62</ele>
        <time>2018-09-09T08:15:52Z</time>
      </trkpt>
      <trkpt lat="44.73254" lon="6.88493">
        <ele>2250.58</ele>
        <time>2018-09-09T08:16:05Z</time>
      </trkpt>
      <trkpt lat="44.73259" lon="6.88507">
        <ele>2252.99</ele>
        <time>2018-09-09T08:16:19Z</time>
      </trkpt>
      <trkpt lat="44.73264" lon="6.8852">
        <ele>2254.91</ele>
        <time>2018-09-09T08:16:32Z</time>
      </trkpt>
      <trkpt lat="44.7327" lon="6.8853">
        <ele>2257.31</ele>
        <time>2018-09-09T08:16:45Z</time>
      </trkpt>
      <trkpt lat="44.73272" lon="6.88537">
        <ele>2259.72</ele>
        <time>2018-09-09T08:16:57Z</time>
      </trkpt>
      <trkpt lat="44.73273" lon="6.88536">
        <ele>2261.16</ele>
        <time>2018-09-09T08:17:24Z</time>
      </trkpt>
      <trkpt lat="44.73278" lon="6.88542">
        <ele>2261.64</ele>
        <time>2018-09-09T08:17:32Z</time>
      </trkpt>
      <trkpt lat="44.73285" lon="6.88548">
        <ele>2262.6</ele>
        <time>2018-09-09T08:17:40Z</time>
      </trkpt>
      <trkpt lat="44.73288" lon="6.88549">
        <ele>2263.08</ele>
        <time>2018-09-09T08:17:43Z</time>
      </trkpt>
      <trkpt lat="44.73294" lon="6.8855">
        <ele>2264.04</ele>
        <time>2018-09-09T08:17:52Z</time>
      </trkpt>
      <trkpt lat="44.73297" lon="6.88551">
        <ele>2264.52</ele>
        <time>2018-09-09T08:17:54Z</time>
      </trkpt>
      <trkpt lat="44.73312" lon="6.88555">
        <ele>2266.93</ele>
        <time>2018-09-09T08:18:10Z</time>
      </trkpt>
      <trkpt lat="44.73314" lon="6.88556">
        <ele>2267.89</ele>
        <time>2018-09-09T08:18:13Z</time>
      </trkpt>
      <trkpt lat="44.73321" lon="6.88559">
        <ele>2269.33</ele>
        <time>2018-09-09T08:18:22Z</time>
      </trkpt>
      <trkpt lat="44.73323" lon="6.88559">
        <ele>2269.81</ele>
        <time>2018-09-09T08:18:24Z</time>
      </trkpt>
      <trkpt lat="44.73326" lon="6.88559">
        <ele>2270.29</ele>
        <time>2018-09-09T08:18:27Z</time>
      </trkpt>
      <trkpt lat="44.73328" lon="6.88559">
        <ele>2270.29</ele>
        <time>2018-09-09T08:18:29Z</time>
      </trkpt>
      <trkpt lat="44.73331" lon="6.8856">
        <ele>2271.25</ele>
        <time>2018-09-09T08:18:32Z</time>
      </trkpt>
      <trkpt lat="44.73334" lon="6.88561">
        <ele>2271.73</ele>
        <time>2018-09-09T08:18:36Z</time>
      </trkpt>
      <trkpt lat="44.73338" lon="6.88562">
        <ele>2272.21</ele>
        <time>2018-09-09T08:18:40Z</time>
      </trkpt>
      <trkpt lat="44.73348" lon="6.88563">
        <ele>2274.62</ele>
        <time>2018-09-09T08:18:52Z</time>
      </trkpt>
      <trkpt lat="44.73354" lon="6.88567">
        <ele>2276.06</ele>
        <time>2018-09-09T08:19:03Z</time>
      </trkpt>
      <trkpt lat="44.73362" lon="6.88573">
        <ele>2278.94</ele>
        <time>2018-09-09T08:19:14Z</time>
      </trkpt>
      <trkpt lat="44.73364" lon="6.88574">
        <ele>2280.87</ele>
        <time>2018-09-09T08:19:29Z</time>
      </trkpt>
      <trkpt lat="44.73364" lon="6.88574">
        <ele>2281.83</ele>
        <time>2018-09-09T08:19:46Z</time>
      </trkpt>
      <trkpt lat="44.73366" lon="6.88596">
        <ele>2283.27</ele>
        <time>2018-09-09T08:20:00Z</time>
      </trkpt>
      <trkpt lat="44.73366" lon="6.88614">
        <ele>2284.71</ele>
        <time>2018-09-09T08:20:13Z</time>
      </trkpt>
      <trkpt lat="44.73366" lon="6.88616">
        <ele>2284.71</ele>
        <time>2018-09-09T08:20:14Z</time>
      </trkpt>
      <trkpt lat="44.73364" lon="6.88634">
        <ele>2287.11</ele>
        <time>2018-09-09T08:20:30Z</time>
      </trkpt>
      <trkpt lat="44.7336" lon="6.88641">
        <ele>2289.04</ele>
        <time>2018-09-09T08:20:39Z</time>
      </trkpt>
      <trkpt lat="44.73359" lon="6.88643">
        <ele>2289.04</ele>
        <time>2018-09-09T08:20:41Z</time>
      </trkpt>
      <trkpt lat="44.73352" lon="6.88652">
        <ele>2292.4</ele>
        <time>2018-09-09T08:20:55Z</time>
      </trkpt>
      <trkpt lat="44.73352" lon="6.8866">
        <ele>2294.32</ele>
        <time>2018-09-09T08:21:05Z</time>
      </trkpt>
      <trkpt lat="44.73351" lon="6.8867">
        <ele>2296.73</ele>
        <time>2018-09-09T08:21:15Z</time>
      </trkpt>
      <trkpt lat="44.73356" lon="6.88686">
        <ele>2299.13</ele>
        <time>2018-09-09T08:21:28Z</time>
      </trkpt>
      <trkpt lat="44.73356" lon="6.88687">
        <ele>2299.61</ele>
        <time>2018-09-09T08:21:30Z</time>
      </trkpt>
      <trkpt lat="44.73358" lon="6.88693">
        <ele>2300.57</ele>
        <time>2018-09-09T08:21:34Z</time>
      </trkpt>
      <trkpt lat="44.7336" lon="6.88695">
        <ele>2301.05</ele>
        <time>2018-09-09T08:21:37Z</time>
      </trkpt>
      <trkpt lat="44.73362" lon="6.88698">
        <ele>2301.53</ele>
        <time>2018-09-09T08:21:40Z</time>
      </trkpt>
      <trkpt lat="44.73369" lon="6.88714">
        <ele>2304.42</ele>
        <time>2018-09-09T08:21:55Z</time>
      </trkpt>
      <trkpt lat="44.73372" lon="6.88722">
        <ele>2305.38</ele>
        <time>2018-09-09T08:22:02Z</time>
      </trkpt>
      <trkpt lat="44.73374" lon="6.88728">
        <ele>2306.34</ele>
        <time>2018-09-09T08:22:07Z</time>
      </trkpt>
      <trkpt lat="44.73376" lon="6.88734">
        <ele>2307.78</ele>
        <time>2018-09-09T08:22:14Z</time>
      </trkpt>
      <trkpt lat="44.73376" lon="6.88737">
        <ele>2307.78</ele>
        <time>2018-09-09T08:22:16Z</time>
      </trkpt>
      <trkpt lat="44.73376" lon="6.88748">
        <ele>2310.19</ele>
        <time>2018-09-09T08:22:29Z</time>
      </trkpt>
      <trkpt lat="44.73377" lon="6.88756">
        <ele>2311.63</ele>
        <time>2018-09-09T08:22:37Z</time>
      </trkpt>
      <trkpt lat="44.73378" lon="6.88765">
        <ele>2312.59</ele>
        <time>2018-09-09T08:22:43Z</time>
      </trkpt>
      <trkpt lat="44.73374" lon="6.88776">
        <ele>2314.03</ele>
        <time>2018-09-09T08:22:55Z</time>
      </trkpt>
      <trkpt lat="44.73374" lon="6.88776">
        <ele>2314.03</ele>
        <time>2018-09-09T08:22:56Z</time>
      </trkpt>
      <trkpt lat="44.73373" lon="6.88777">
        <ele>2314.51</ele>
        <time>2018-09-09T08:22:58Z</time>
      </trkpt>
      <trkpt lat="44.73364" lon="6.8878">
        <ele>2316.91</ele>
        <time>2018-09-09T08:23:11Z</time>
      </trkpt>
      <trkpt lat="44.73361" lon="6.88781">
        <ele>2317.4</ele>
        <time>2018-09-09T08:23:15Z</time>
      </trkpt>
      <trkpt lat="44.73358" lon="6.88779">
        <ele>2317.88</ele>
        <time>2018-09-09T08:23:18Z</time>
      </trkpt>
      <trkpt lat="44.73355" lon="6.88781">
        <ele>2318.84</ele>
        <time>2018-09-09T08:23:22Z</time>
      </trkpt>
      <trkpt lat="44.73345" lon="6.88785">
        <ele>2321.72</ele>
        <time>2018-09-09T08:23:34Z</time>
      </trkpt>
      <trkpt lat="44.73339" lon="6.8879">
        <ele>2323.64</ele>
        <time>2018-09-09T08:23:45Z</time>
      </trkpt>
      <trkpt lat="44.73332" lon="6.88798">
        <ele>2326.05</ele>
        <time>2018-09-09T08:23:56Z</time>
      </trkpt>
      <trkpt lat="44.73335" lon="6.88804">
        <ele>2328.45</ele>
        <time>2018-09-09T08:24:07Z</time>
      </trkpt>
      <trkpt lat="44.73339" lon="6.88813">
        <ele>2330.85</ele>
        <time>2018-09-09T08:24:18Z</time>
      </trkpt>
      <trkpt lat="44.73345" lon="6.88821">
        <ele>2333.74</ele>
        <time>2018-09-09T08:24:30Z</time>
      </trkpt>
      <trkpt lat="44.73346" lon="6.88825">
        <ele>2334.22</ele>
        <time>2018-09-09T08:24:34Z</time>
      </trkpt>
      <trkpt lat="44.73349" lon="6.88832">
        <ele>2337.1</ele>
        <time>2018-09-09T08:24:45Z</time>
      </trkpt>
      <trkpt lat="44.73351" lon="6.88832">
        <ele>2337.1</ele>
        <time>2018-09-09T08:24:47Z</time>
      </trkpt>
      <trkpt lat="44.73356" lon="6.88837">
        <ele>2338.06</ele>
        <time>2018-09-09T08:24:53Z</time>
      </trkpt>
      <trkpt lat="44.73359" lon="6.88846">
        <ele>2339.99</ele>
        <time>2018-09-09T08:25:03Z</time>
      </trkpt>
      <trkpt lat="44.73362" lon="6.88849">
        <ele>2340.47</ele>
        <time>2018-09-09T08:25:07Z</time>
      </trkpt>
      <trkpt lat="44.73366" lon="6.88859">
        <ele>2342.87</ele>
        <time>2018-09-09T08:25:18Z</time>
      </trkpt>
      <trkpt lat="44.73367" lon="6.88866">
        <ele>2344.79</ele>
        <time>2018-09-09T08:25:27Z</time>
      </trkpt>
      <trkpt lat="44.73373" lon="6.88872">
        <ele>2346.72</ele>
        <time>2018-09-09T08:25:35Z</time>
      </trkpt>
      <trkpt lat="44.73378" lon="6.88883">
        <ele>2348.64</ele>
        <time>2018-09-09T08:25:47Z</time>
      </trkpt>
      <trkpt lat="44.73383" lon="6.88892">
        <ele>2350.56</ele>
        <time>2018-09-09T08:25:56Z</time>
      </trkpt>
      <trkpt lat="44.73387" lon="6.88897">
        <ele>2352.96</ele>
        <time>2018-09-09T08:26:08Z</time>
      </trkpt>
      <trkpt lat="44.73384" lon="6.88905">
        <ele>2355.37</ele>
        <time>2018-09-09T08:26:19Z</time>
      </trkpt>
      <trkpt lat="44.73382" lon="6.88906">
        <ele>2356.33</ele>
        <time>2018-09-09T08:26:21Z</time>
      </trkpt>
      <trkpt lat="44.73374" lon="6.88913">
        <ele>2358.25</ele>
        <time>2018-09-09T08:26:32Z</time>
      </trkpt>
      <trkpt lat="44.73365" lon="6.8892">
        <ele>2360.65</ele>
        <time>2018-09-09T08:26:46Z</time>
      </trkpt>
      <trkpt lat="44.73354" lon="6.88925">
        <ele>2363.06</ele>
        <time>2018-09-09T08:26:58Z</time>
      </trkpt>
      <trkpt lat="44.73352" lon="6.88925">
        <ele>2364.02</ele>
        <time>2018-09-09T08:27:01Z</time>
      </trkpt>
      <trkpt lat="44.73349" lon="6.88925">
        <ele>2364.5</ele>
        <time>2018-09-09T08:27:04Z</time>
      </trkpt>
      <trkpt lat="44.73337" lon="6.8893">
        <ele>2366.42</ele>
        <time>2018-09-09T08:27:17Z</time>
      </trkpt>
      <trkpt lat="44.73336" lon="6.88931">
        <ele>2366.9</ele>
        <time>2018-09-09T08:27:19Z</time>
      </trkpt>
      <trkpt lat="44.7334" lon="6.88935">
        <ele>2368.83</ele>
        <time>2018-09-09T08:27:30Z</time>
      </trkpt>
      <trkpt lat="44.73341" lon="6.88935">
        <ele>2369.79</ele>
        <time>2018-09-09T08:27:42Z</time>
      </trkpt>
      <trkpt lat="44.73343" lon="6.88937">
        <ele>2370.27</ele>
        <time>2018-09-09T08:27:45Z</time>
      </trkpt>
      <trkpt lat="44.73352" lon="6.88945">
        <ele>2371.71</ele>
        <time>2018-09-09T08:27:57Z</time>
      </trkpt>
      <trkpt lat="44.73359" lon="6.88954">
        <ele>2374.11</ele>
        <time>2018-09-09T08:28:08Z</time>
      </trkpt>
      <trkpt lat="44.73367" lon="6.88965">
        <ele>2376.04</ele>
        <time>2018-09-09T08:28:20Z</time>
      </trkpt>
      <trkpt lat="44.73367" lon="6.88966">
        <ele>2376.04</ele>
        <time>2018-09-09T08:28:21Z</time>
      </trkpt>
      <trkpt lat="44.73373" lon="6.88969">
        <ele>2377.96</ele>
        <time>2018-09-09T08:28:30Z</time>
      </trkpt>
      <trkpt lat="44.73379" lon="6.88973">
        <ele>2380.36</ele>
        <time>2018-09-09T08:28:42Z</time>
      </trkpt>
      <trkpt lat="44.73386" lon="6.88982">
        <ele>2382.28</ele>
        <time>2018-09-09T08:28:55Z</time>
      </trkpt>
      <trkpt lat="44.73393" lon="6.88986">
        <ele>2382.76</ele>
        <time>2018-09-09T08:29:02Z</time>
      </trkpt>
      <trkpt lat="44.73403" lon="6.88993">
        <ele>2384.21</ele>
        <time>2018-09-09T08:29:12Z</time>
      </trkpt>
      <trkpt lat="44.73407" lon="6.88998">
        <ele>2384.69</ele>
        <time>2018-09-09T08:29:18Z</time>
      </trkpt>
      <trkpt lat="44.73409" lon="6.89">
        <ele>2385.65</ele>
        <time>2018-09-09T08:29:21Z</time>
      </trkpt>
      <trkpt lat="44.73418" lon="6.89005">
        <ele>2386.13</ele>
        <time>2018-09-09T08:29:29Z</time>
      </trkpt>
      <trkpt lat="44.73423" lon="6.89008">
        <ele>2386.61</ele>
        <time>2018-09-09T08:29:33Z</time>
      </trkpt>
      <trkpt lat="44.73435" lon="6.89011">
        <ele>2387.57</ele>
        <time>2018-09-09T08:29:45Z</time>
      </trkpt>
      <trkpt lat="44.73452" lon="6.89014">
        <ele>2388.05</ele>
        <time>2018-09-09T08:29:59Z</time>
      </trkpt>
      <trkpt lat="44.73456" lon="6.89016">
        <ele>2388.53</ele>
        <time>2018-09-09T08:30:03Z</time>
      </trkpt>
      <trkpt lat="44.73468" lon="6.89026">
        <ele>2389.97</ele>
        <time>2018-09-09T08:30:17Z</time>
      </trkpt>
      <trkpt lat="44.73469" lon="6.89027">
        <ele>2389.97</ele>
        <time>2018-09-09T08:30:18Z</time>
      </trkpt>
      <trkpt lat="44.73476" lon="6.89038">
        <ele>2392.38</ele>
        <time>2018-09-09T08:30:31Z</time>
      </trkpt>
      <trkpt lat="44.73479" lon="6.89042">
        <ele>2394.78</ele>
        <time>2018-09-09T08:30:42Z</time>
      </trkpt>
      <trkpt lat="44.73483" lon="6.89047">
        <ele>2397.18</ele>
        <time>2018-09-09T08:30:54Z</time>
      </trkpt>
      <trkpt lat="44.7349" lon="6.89054">
        <ele>2400.55</ele>
        <time>2018-09-09T08:31:07Z</time>
      </trkpt>
      <trkpt lat="44.73497" lon="6.89059">
        <ele>2401.99</ele>
        <time>2018-09-09T08:31:19Z</time>
      </trkpt>
      <trkpt lat="44.73502" lon="6.89058">
        <ele>2403.91</ele>
        <time>2018-09-09T08:31:26Z</time>
      </trkpt>
      <trkpt lat="44.73505" lon="6.89058">
        <ele>2404.88</ele>
        <time>2018-09-09T08:31:31Z</time>
      </trkpt>
      <trkpt lat="44.73515" lon="6.89056">
        <ele>2407.28</ele>
        <time>2018-09-09T08:31:45Z</time>
      </trkpt>
      <trkpt lat="44.73518" lon="6.89056">
        <ele>2408.24</ele>
        <time>2018-09-09T08:31:48Z</time>
      </trkpt>
      <trkpt lat="44.73527" lon="6.89055">
        <ele>2409.2</ele>
        <time>2018-09-09T08:31:57Z</time>
      </trkpt>
      <trkpt lat="44.73534" lon="6.89057">
        <ele>2410.16</ele>
        <time>2018-09-09T08:32:02Z</time>
      </trkpt>
      <trkpt lat="44.73545" lon="6.89054">
        <ele>2411.6</ele>
        <time>2018-09-09T08:32:14Z</time>
      </trkpt>
      <trkpt lat="44.73558" lon="6.89051">
        <ele>2413.53</ele>
        <time>2018-09-09T08:32:27Z</time>
      </trkpt>
      <trkpt lat="44.73562" lon="6.89046">
        <ele>2414.49</ele>
        <time>2018-09-09T08:32:35Z</time>
      </trkpt>
      <trkpt lat="44.73571" lon="6.8904">
        <ele>2415.93</ele>
        <time>2018-09-09T08:32:45Z</time>
      </trkpt>
      <trkpt lat="44.73576" lon="6.89037">
        <ele>2416.89</ele>
        <time>2018-09-09T08:32:52Z</time>
      </trkpt>
      <trkpt lat="44.73585" lon="6.89028">
        <ele>2419.78</ele>
        <time>2018-09-09T08:33:08Z</time>
      </trkpt>
      <trkpt lat="44.73592" lon="6.89021">
        <ele>2422.18</ele>
        <time>2018-09-09T08:33:20Z</time>
      </trkpt>
      <trkpt lat="44.73598" lon="6.89014">
        <ele>2425.06</ele>
        <time>2018-09-09T08:33:32Z</time>
      </trkpt>
      <trkpt lat="44.73603" lon="6.89009">
        <ele>2426.02</ele>
        <time>2018-09-09T08:33:39Z</time>
      </trkpt>
      <trkpt lat="44.73606" lon="6.89004">
        <ele>2426.99</ele>
        <time>2018-09-09T08:33:44Z</time>
      </trkpt>
      <trkpt lat="44.73614" lon="6.88999">
        <ele>2428.43</ele>
        <time>2018-09-09T08:33:55Z</time>
      </trkpt>
      <trkpt lat="44.7362" lon="6.88993">
        <ele>2429.87</ele>
        <time>2018-09-09T08:34:03Z</time>
      </trkpt>
      <trkpt lat="44.73624" lon="6.88985">
        <ele>2431.31</ele>
        <time>2018-09-09T08:34:10Z</time>
      </trkpt>
      <trkpt lat="44.73627" lon="6.8898">
        <ele>2431.79</ele>
        <time>2018-09-09T08:34:14Z</time>
      </trkpt>
      <trkpt lat="44.7363" lon="6.88974">
        <ele>2432.75</ele>
        <time>2018-09-09T08:34:20Z</time>
      </trkpt>
      <trkpt lat="44.73638" lon="6.88971">
        <ele>2434.2</ele>
        <time>2018-09-09T08:34:30Z</time>
      </trkpt>
      <trkpt lat="44.73641" lon="6.88971">
        <ele>2435.16</ele>
        <time>2018-09-09T08:34:33Z</time>
      </trkpt>
      <trkpt lat="44.73645" lon="6.88968">
        <ele>2436.12</ele>
        <time>2018-09-09T08:34:39Z</time>
      </trkpt>
      <trkpt lat="44.73658" lon="6.88968">
        <ele>2438.52</ele>
        <time>2018-09-09T08:34:52Z</time>
      </trkpt>
      <trkpt lat="44.73668" lon="6.88967">
        <ele>2439.48</ele>
        <time>2018-09-09T08:35:02Z</time>
      </trkpt>
      <trkpt lat="44.73675" lon="6.88968">
        <ele>2441.41</ele>
        <time>2018-09-09T08:35:11Z</time>
      </trkpt>
      <trkpt lat="44.73677" lon="6.88968">
        <ele>2442.85</ele>
        <time>2018-09-09T08:35:23Z</time>
      </trkpt>
      <trkpt lat="44.73685" lon="6.8897">
        <ele>2443.33</ele>
        <time>2018-09-09T08:35:30Z</time>
      </trkpt>
      <trkpt lat="44.73698" lon="6.88971">
        <ele>2444.77</ele>
        <time>2018-09-09T08:35:43Z</time>
      </trkpt>
      <trkpt lat="44.73699" lon="6.88971">
        <ele>2445.25</ele>
        <time>2018-09-09T08:35:44Z</time>
      </trkpt>
      <trkpt lat="44.73702" lon="6.88973">
        <ele>2445.25</ele>
        <time>2018-09-09T08:35:47Z</time>
      </trkpt>
      <trkpt lat="44.73708" lon="6.88977">
        <ele>2446.69</ele>
        <time>2018-09-09T08:35:52Z</time>
      </trkpt>
      <trkpt lat="44.73719" lon="6.88979">
        <ele>2449.1</ele>
        <time>2018-09-09T08:36:05Z</time>
      </trkpt>
      <trkpt lat="44.73727" lon="6.88977">
        <ele>2451.02</ele>
        <time>2018-09-09T08:36:17Z</time>
      </trkpt>
      <trkpt lat="44.73728" lon="6.88979">
        <ele>2451.5</ele>
        <time>2018-09-09T08:36:19Z</time>
      </trkpt>
      <trkpt lat="44.73731" lon="6.88978">
        <ele>2451.98</ele>
        <time>2018-09-09T08:36:24Z</time>
      </trkpt>
      <trkpt lat="44.73734" lon="6.88981">
        <ele>2452.94</ele>
        <time>2018-09-09T08:36:27Z</time>
      </trkpt>
      <trkpt lat="44.73738" lon="6.88979">
        <ele>2453.42</ele>
        <time>2018-09-09T08:36:31Z</time>
      </trkpt>
      <trkpt lat="44.73741" lon="6.88978">
        <ele>2454.38</ele>
        <time>2018-09-09T08:36:34Z</time>
      </trkpt>
      <trkpt lat="44.73746" lon="6.88974">
        <ele>2454.86</ele>
        <time>2018-09-09T08:36:40Z</time>
      </trkpt>
      <trkpt lat="44.73751" lon="6.88972">
        <ele>2456.31</ele>
        <time>2018-09-09T08:36:46Z</time>
      </trkpt>
      <trkpt lat="44.73761" lon="6.8897">
        <ele>2458.23</ele>
        <time>2018-09-09T08:36:58Z</time>
      </trkpt>
      <trkpt lat="44.73762" lon="6.8897">
        <ele>2458.71</ele>
        <time>2018-09-09T08:37:01Z</time>
      </trkpt>
      <trkpt lat="44.73764" lon="6.88973">
        <ele>2458.71</ele>
        <time>2018-09-09T08:37:02Z</time>
      </trkpt>
      <trkpt lat="44.73773" lon="6.88976">
        <ele>2459.67</ele>
        <time>2018-09-09T08:37:10Z</time>
      </trkpt>
      <trkpt lat="44.73776" lon="6.88977">
        <ele>2460.15</ele>
        <time>2018-09-09T08:37:13Z</time>
      </trkpt>
      <trkpt lat="44.73786" lon="6.88978">
        <ele>2462.55</ele>
        <time>2018-09-09T08:37:25Z</time>
      </trkpt>
      <trkpt lat="44.73789" lon="6.88979">
        <ele>2463.04</ele>
        <time>2018-09-09T08:37:28Z</time>
      </trkpt>
      <trkpt lat="44.73795" lon="6.88985">
        <ele>2465.92</ele>
        <time>2018-09-09T08:37:40Z</time>
      </trkpt>
      <trkpt lat="44.73801" lon="6.88988">
        <ele>2467.36</ele>
        <time>2018-09-09T08:37:50Z</time>
      </trkpt>
      <trkpt lat="44.73805" lon="6.88987">
        <ele>2468.8</ele>
        <time>2018-09-09T08:37:55Z</time>
      </trkpt>
      <trkpt lat="44.73813" lon="6.88986">
        <ele>2471.21</ele>
        <time>2018-09-09T08:38:09Z</time>
      </trkpt>
      <trkpt lat="44.73818" lon="6.88993">
        <ele>2472.65</ele>
        <time>2018-09-09T08:38:16Z</time>
      </trkpt>
      <trkpt lat="44.73822" lon="6.88997">
        <ele>2473.61</ele>
        <time>2018-09-09T08:38:21Z</time>
      </trkpt>
      <trkpt lat="44.73827" lon="6.89003">
        <ele>2475.05</ele>
        <time>2018-09-09T08:38:31Z</time>
      </trkpt>
      <trkpt lat="44.73831" lon="6.89008">
        <ele>2476.97</ele>
        <time>2018-09-09T08:38:40Z</time>
      </trkpt>
      <trkpt lat="44.7384" lon="6.8901">
        <ele>2479.86</ele>
        <time>2018-09-09T08:38:55Z</time>
      </trkpt>
      <trkpt lat="44.73846" lon="6.89014">
        <ele>2482.26</ele>
        <time>2018-09-09T08:39:07Z</time>
      </trkpt>
      <trkpt lat="44.73849" lon="6.89013">
        <ele>2483.22</ele>
        <time>2018-09-09T08:39:13Z</time>
      </trkpt>
      <trkpt lat="44.73858" lon="6.89022">
        <ele>2486.11</ele>
        <time>2018-09-09T08:39:27Z</time>
      </trkpt>
      <trkpt lat="44.7386" lon="6.89024">
        <ele>2487.07</ele>
        <time>2018-09-09T08:39:31Z</time>
      </trkpt>
      <trkpt lat="44.73866" lon="6.89034">
        <ele>2489.47</ele>
        <time>2018-09-09T08:39:44Z</time>
      </trkpt>
      <trkpt lat="44.73868" lon="6.89037">
        <ele>2489.95</ele>
        <time>2018-09-09T08:39:47Z</time>
      </trkpt>
      <trkpt lat="44.73874" lon="6.89042">
        <ele>2491.39</ele>
        <time>2018-09-09T08:39:54Z</time>
      </trkpt>
      <trkpt lat="44.73879" lon="6.89045">
        <ele>2493.8</ele>
        <time>2018-09-09T08:40:06Z</time>
      </trkpt>
      <trkpt lat="44.73888" lon="6.89036">
        <ele>2497.16</ele>
        <time>2018-09-09T08:40:21Z</time>
      </trkpt>
      <trkpt lat="44.73899" lon="6.89036">
        <ele>2499.57</ele>
        <time>2018-09-09T08:40:35Z</time>
      </trkpt>
      <trkpt lat="44.73905" lon="6.8903">
        <ele>2501.97</ele>
        <time>2018-09-09T08:40:48Z</time>
      </trkpt>
      <trkpt lat="44.7391" lon="6.89025">
        <ele>2503.41</ele>
        <time>2018-09-09T08:40:56Z</time>
      </trkpt>
      <trkpt lat="44.73916" lon="6.89014">
        <ele>2506.29</ele>
        <time>2018-09-09T08:41:12Z</time>
      </trkpt>
      <trkpt lat="44.73927" lon="6.89019">
        <ele>2508.7</ele>
        <time>2018-09-09T08:41:26Z</time>
      </trkpt>
      <trkpt lat="44.73933" lon="6.89023">
        <ele>2510.62</ele>
        <time>2018-09-09T08:41:37Z</time>
      </trkpt>
      <trkpt lat="44.73933" lon="6.8903">
        <ele>2512.54</ele>
        <time>2018-09-09T08:41:45Z</time>
      </trkpt>
      <trkpt lat="44.73934" lon="6.89047">
        <ele>2514.95</ele>
        <time>2018-09-09T08:41:59Z</time>
      </trkpt>
      <trkpt lat="44.73934" lon="6.89058">
        <ele>2516.87</ele>
        <time>2018-09-09T08:42:08Z</time>
      </trkpt>
      <trkpt lat="44.73936" lon="6.89068">
        <ele>2519.27</ele>
        <time>2018-09-09T08:42:19Z</time>
      </trkpt>
      <trkpt lat="44.73939" lon="6.89076">
        <ele>2521.19</ele>
        <time>2018-09-09T08:42:31Z</time>
      </trkpt>
      <trkpt lat="44.73939" lon="6.89075">
        <ele>2521.68</ele>
        <time>2018-09-09T08:42:33Z</time>
      </trkpt>
      <trkpt lat="44.73944" lon="6.89064">
        <ele>2523.6</ele>
        <time>2018-09-09T08:42:46Z</time>
      </trkpt>
      <trkpt lat="44.73952" lon="6.89057">
        <ele>2526.96</ele>
        <time>2018-09-09T08:43:00Z</time>
      </trkpt>
      <trkpt lat="44.73959" lon="6.8906">
        <ele>2528.4</ele>
        <time>2018-09-09T08:43:10Z</time>
      </trkpt>
      <trkpt lat="44.73959" lon="6.89063">
        <ele>2528.89</ele>
        <time>2018-09-09T08:43:13Z</time>
      </trkpt>
      <trkpt lat="44.73961" lon="6.89078">
        <ele>2531.77</ele>
        <time>2018-09-09T08:43:27Z</time>
      </trkpt>
      <trkpt lat="44.73959" lon="6.89089">
        <ele>2533.69</ele>
        <time>2018-09-09T08:43:39Z</time>
      </trkpt>
      <trkpt lat="44.73957" lon="6.89097">
        <ele>2535.13</ele>
        <time>2018-09-09T08:43:46Z</time>
      </trkpt>
      <trkpt lat="44.7396" lon="6.89097">
        <ele>2537.54</ele>
        <time>2018-09-09T08:43:58Z</time>
      </trkpt>
      <trkpt lat="44.73966" lon="6.89088">
        <ele>2539.46</ele>
        <time>2018-09-09T08:44:10Z</time>
      </trkpt>
      <trkpt lat="44.73966" lon="6.89087">
        <ele>2539.94</ele>
        <time>2018-09-09T08:44:11Z</time>
      </trkpt>
      <trkpt lat="44.73971" lon="6.89074">
        <ele>2541.86</ele>
        <time>2018-09-09T08:44:24Z</time>
      </trkpt>
      <trkpt lat="44.73977" lon="6.89067">
        <ele>2545.23</ele>
        <time>2018-09-09T08:44:38Z</time>
      </trkpt>
      <trkpt lat="44.73978" lon="6.89067">
        <ele>2545.23</ele>
        <time>2018-09-09T08:44:39Z</time>
      </trkpt>
      <trkpt lat="44.73981" lon="6.89074">
        <ele>2546.19</ele>
        <time>2018-09-09T08:44:45Z</time>
      </trkpt>
      <trkpt lat="44.73981" lon="6.89087">
        <ele>2548.11</ele>
        <time>2018-09-09T08:44:56Z</time>
      </trkpt>
      <trkpt lat="44.73982" lon="6.89095">
        <ele>2549.55</ele>
        <time>2018-09-09T08:45:03Z</time>
      </trkpt>
      <trkpt lat="44.73982" lon="6.891">
        <ele>2551</ele>
        <time>2018-09-09T08:45:09Z</time>
      </trkpt>
      <trkpt lat="44.73981" lon="6.8911">
        <ele>2553.4</ele>
        <time>2018-09-09T08:45:20Z</time>
      </trkpt>
      <trkpt lat="44.73986" lon="6.89104">
        <ele>2555.32</ele>
        <time>2018-09-09T08:45:32Z</time>
      </trkpt>
      <trkpt lat="44.73988" lon="6.89103">
        <ele>2556.28</ele>
        <time>2018-09-09T08:45:35Z</time>
      </trkpt>
      <trkpt lat="44.73996" lon="6.89095">
        <ele>2559.17</ele>
        <time>2018-09-09T08:45:50Z</time>
      </trkpt>
      <trkpt lat="44.74003" lon="6.89087">
        <ele>2561.57</ele>
        <time>2018-09-09T08:46:03Z</time>
      </trkpt>
      <trkpt lat="44.74009" lon="6.89078">
        <ele>2563.97</ele>
        <time>2018-09-09T08:46:16Z</time>
      </trkpt>
      <trkpt lat="44.74014" lon="6.89074">
        <ele>2565.9</ele>
        <time>2018-09-09T08:46:28Z</time>
      </trkpt>
      <trkpt lat="44.74013" lon="6.89073">
        <ele>2566.38</ele>
        <time>2018-09-09T08:46:29Z</time>
      </trkpt>
      <trkpt lat="44.74017" lon="6.8906">
        <ele>2568.3</ele>
        <time>2018-09-09T08:46:41Z</time>
      </trkpt>
      <trkpt lat="44.7402" lon="6.89054">
        <ele>2569.74</ele>
        <time>2018-09-09T08:46:49Z</time>
      </trkpt>
      <trkpt lat="44.74023" lon="6.89059">
        <ele>2570.7</ele>
        <time>2018-09-09T08:46:55Z</time>
      </trkpt>
      <trkpt lat="44.74028" lon="6.89062">
        <ele>2573.11</ele>
        <time>2018-09-09T08:47:07Z</time>
      </trkpt>
      <trkpt lat="44.74031" lon="6.89053">
        <ele>2575.99</ele>
        <time>2018-09-09T08:47:21Z</time>
      </trkpt>
      <trkpt lat="44.74036" lon="6.89065">
        <ele>2578.39</ele>
        <time>2018-09-09T08:47:34Z</time>
      </trkpt>
      <trkpt lat="44.74038" lon="6.89073">
        <ele>2580.32</ele>
        <time>2018-09-09T08:47:43Z</time>
      </trkpt>
      <trkpt lat="44.7404" lon="6.89083">
        <ele>2583.2</ele>
        <time>2018-09-09T08:47:56Z</time>
      </trkpt>
      <trkpt lat="44.74044" lon="6.89072">
        <ele>2585.6</ele>
        <time>2018-09-09T08:48:09Z</time>
      </trkpt>
      <trkpt lat="44.74048" lon="6.89079">
        <ele>2587.53</ele>
        <time>2018-09-09T08:48:18Z</time>
      </trkpt>
      <trkpt lat="44.7405" lon="6.89088">
        <ele>2588.97</ele>
        <time>2018-09-09T08:48:28Z</time>
      </trkpt>
      <trkpt lat="44.74052" lon="6.89092">
        <ele>2590.89</ele>
        <time>2018-09-09T08:48:37Z</time>
      </trkpt>
      <trkpt lat="44.74055" lon="6.89083">
        <ele>2592.81</ele>
        <time>2018-09-09T08:48:47Z</time>
      </trkpt>
      <trkpt lat="44.74057" lon="6.89096">
        <ele>2594.25</ele>
        <time>2018-09-09T08:48:58Z</time>
      </trkpt>
      <trkpt lat="44.74059" lon="6.89107">
        <ele>2597.14</ele>
        <time>2018-09-09T08:49:10Z</time>
      </trkpt>
      <trkpt lat="44.74061" lon="6.89117">
        <ele>2599.06</ele>
        <time>2018-09-09T08:49:22Z</time>
      </trkpt>
      <trkpt lat="44.74061" lon="6.89131">
        <ele>2601.95</ele>
        <time>2018-09-09T08:49:37Z</time>
      </trkpt>
      <trkpt lat="44.74064" lon="6.8913">
        <ele>2603.87</ele>
        <time>2018-09-09T08:49:49Z</time>
      </trkpt>
      <trkpt lat="44.74071" lon="6.89123">
        <ele>2606.27</ele>
        <time>2018-09-09T08:50:01Z</time>
      </trkpt>
      <trkpt lat="44.74075" lon="6.89131">
        <ele>2608.67</ele>
        <time>2018-09-09T08:50:14Z</time>
      </trkpt>
      <trkpt lat="44.74074" lon="6.89142">
        <ele>2610.6</ele>
        <time>2018-09-09T08:50:26Z</time>
      </trkpt>
      <trkpt lat="44.74081" lon="6.89137">
        <ele>2613</ele>
        <time>2018-09-09T08:50:38Z</time>
      </trkpt>
      <trkpt lat="44.74084" lon="6.89135">
        <ele>2614.44</ele>
        <time>2018-09-09T08:50:45Z</time>
      </trkpt>
      <trkpt lat="44.74091" lon="6.89128">
        <ele>2617.33</ele>
        <time>2018-09-09T08:50:59Z</time>
      </trkpt>
      <trkpt lat="44.74092" lon="6.89125">
        <ele>2617.81</ele>
        <time>2018-09-09T08:51:03Z</time>
      </trkpt>
      <trkpt lat="44.74096" lon="6.89125">
        <ele>2619.73</ele>
        <time>2018-09-09T08:51:14Z</time>
      </trkpt>
      <trkpt lat="44.74101" lon="6.89127">
        <ele>2622.61</ele>
        <time>2018-09-09T08:51:27Z</time>
      </trkpt>
      <trkpt lat="44.74105" lon="6.89119">
        <ele>2624.54</ele>
        <time>2018-09-09T08:51:41Z</time>
      </trkpt>
      <trkpt lat="44.74106" lon="6.89113">
        <ele>2625.98</ele>
        <time>2018-09-09T08:51:48Z</time>
      </trkpt>
      <trkpt lat="44.7411" lon="6.89101">
        <ele>2628.38</ele>
        <time>2018-09-09T08:52:01Z</time>
      </trkpt>
      <trkpt lat="44.74114" lon="6.89104">
        <ele>2629.34</ele>
        <time>2018-09-09T08:52:08Z</time>
      </trkpt>
      <trkpt lat="44.74122" lon="6.89117">
        <ele>2631.27</ele>
        <time>2018-09-09T08:52:21Z</time>
      </trkpt>
      <trkpt lat="44.74126" lon="6.89126">
        <ele>2633.67</ele>
        <time>2018-09-09T08:52:31Z</time>
      </trkpt>
      <trkpt lat="44.7413" lon="6.89138">
        <ele>2636.07</ele>
        <time>2018-09-09T08:52:44Z</time>
      </trkpt>
      <trkpt lat="44.74135" lon="6.89143">
        <ele>2638.96</ele>
        <time>2018-09-09T08:52:57Z</time>
      </trkpt>
      <trkpt lat="44.74133" lon="6.89143">
        <ele>2639.44</ele>
        <time>2018-09-09T08:53:13Z</time>
      </trkpt>
      <trkpt lat="44.74133" lon="6.89144">
        <ele>2640.4</ele>
        <time>2018-09-09T08:53:41Z</time>
      </trkpt>
      <trkpt lat="44.74133" lon="6.8914">
        <ele>2640.4</ele>
        <time>2018-09-09T08:53:55Z</time>
      </trkpt>
      <trkpt lat="44.74134" lon="6.8914">
        <ele>2640.88</ele>
        <time>2018-09-09T08:54:22Z</time>
      </trkpt>
      <trkpt lat="44.74133" lon="6.89139">
        <ele>2640.88</ele>
        <time>2018-09-09T08:54:39Z</time>
      </trkpt>
      <trkpt lat="44.74132" lon="6.89138">
        <ele>2641.36</ele>
        <time>2018-09-09T08:54:53Z</time>
      </trkpt>
      <trkpt lat="44.74133" lon="6.89138">
        <ele>2641.36</ele>
        <time>2018-09-09T08:55:13Z</time>
      </trkpt>
      <trkpt lat="44.74133" lon="6.89139">
        <ele>2641.84</ele>
        <time>2018-09-09T08:55:39Z</time>
      </trkpt>
      <trkpt lat="44.74133" lon="6.89138">
        <ele>2641.84</ele>
        <time>2018-09-09T08:55:57Z</time>
      </trkpt>
      <trkpt lat="44.74134" lon="6.89138">
        <ele>2641.84</ele>
        <time>2018-09-09T08:56:21Z</time>
      </trkpt>
      <trkpt lat="44.74134" lon="6.89136">
        <ele>2642.32</ele>
        <time>2018-09-09T08:56:31Z</time>
      </trkpt>
      <trkpt lat="44.74133" lon="6.89114">
        <ele>2642.32</ele>
        <time>2018-09-09T08:56:46Z</time>
      </trkpt>
      <trkpt lat="44.74133" lon="6.89093">
        <ele>2641.36</ele>
        <time>2018-09-09T08:57:01Z</time>
      </trkpt>
      <trkpt lat="44.74132" lon="6.8909">
        <ele>2641.36</ele>
        <time>2018-09-09T08:57:04Z</time>
      </trkpt>
      <trkpt lat="44.74131" lon="6.89087">
        <ele>2641.36</ele>
        <time>2018-09-09T08:57:07Z</time>
      </trkpt>
      <trkpt lat="44.74127" lon="6.89072">
        <ele>2643.28</ele>
        <time>2018-09-09T08:57:20Z</time>
      </trkpt>
      <trkpt lat="44.74127" lon="6.89072">
        <ele>2643.28</ele>
        <time>2018-09-09T08:57:21Z</time>
      </trkpt>
      <trkpt lat="44.74126" lon="6.89063">
        <ele>2645.69</ele>
        <time>2018-09-09T08:57:33Z</time>
      </trkpt>
      <trkpt lat="44.74126" lon="6.89053">
        <ele>2647.61</ele>
        <time>2018-09-09T08:57:46Z</time>
      </trkpt>
      <trkpt lat="44.74127" lon="6.8905">
        <ele>2648.57</ele>
        <time>2018-09-09T08:57:52Z</time>
      </trkpt>
      <trkpt lat="44.74136" lon="6.8905">
        <ele>2650.97</ele>
        <time>2018-09-09T08:58:05Z</time>
      </trkpt>
      <trkpt lat="44.74138" lon="6.89042">
        <ele>2653.38</ele>
        <time>2018-09-09T08:58:16Z</time>
      </trkpt>
      <trkpt lat="44.74141" lon="6.89035">
        <ele>2654.82</ele>
        <time>2018-09-09T08:58:28Z</time>
      </trkpt>
      <trkpt lat="44.74142" lon="6.89029">
        <ele>2656.74</ele>
        <time>2018-09-09T08:58:38Z</time>
      </trkpt>
      <trkpt lat="44.74145" lon="6.8902">
        <ele>2658.66</ele>
        <time>2018-09-09T08:58:51Z</time>
      </trkpt>
      <trkpt lat="44.74147" lon="6.8901">
        <ele>2661.07</ele>
        <time>2018-09-09T08:59:06Z</time>
      </trkpt>
      <trkpt lat="44.74149" lon="6.89002">
        <ele>2663.47</ele>
        <time>2018-09-09T08:59:21Z</time>
      </trkpt>
      <trkpt lat="44.74149" lon="6.88996">
        <ele>2666.35</ele>
        <time>2018-09-09T08:59:37Z</time>
      </trkpt>
      <trkpt lat="44.74151" lon="6.88987">
        <ele>2668.28</ele>
        <time>2018-09-09T08:59:50Z</time>
      </trkpt>
      <trkpt lat="44.74153" lon="6.88981">
        <ele>2670.68</ele>
        <time>2018-09-09T09:00:06Z</time>
      </trkpt>
      <trkpt lat="44.74155" lon="6.88974">
        <ele>2673.08</ele>
        <time>2018-09-09T09:00:20Z</time>
      </trkpt>
      <trkpt lat="44.74156" lon="6.88966">
        <ele>2675.01</ele>
        <time>2018-09-09T09:00:33Z</time>
      </trkpt>
      <trkpt lat="44.74157" lon="6.88957">
        <ele>2677.89</ele>
        <time>2018-09-09T09:00:48Z</time>
      </trkpt>
      <trkpt lat="44.74158" lon="6.88952">
        <ele>2679.81</ele>
        <time>2018-09-09T09:01:00Z</time>
      </trkpt>
      <trkpt lat="44.74158" lon="6.88944">
        <ele>2682.22</ele>
        <time>2018-09-09T09:01:13Z</time>
      </trkpt>
      <trkpt lat="44.74163" lon="6.88943">
        <ele>2683.66</ele>
        <time>2018-09-09T09:01:25Z</time>
      </trkpt>
      <trkpt lat="44.74163" lon="6.88932">
        <ele>2686.06</ele>
        <time>2018-09-09T09:01:40Z</time>
      </trkpt>
      <trkpt lat="44.74166" lon="6.88921">
        <ele>2688.46</ele>
        <time>2018-09-09T09:01:55Z</time>
      </trkpt>
      <trkpt lat="44.74167" lon="6.88915">
        <ele>2691.35</ele>
        <time>2018-09-09T09:02:09Z</time>
      </trkpt>
      <trkpt lat="44.74174" lon="6.88909">
        <ele>2693.27</ele>
        <time>2018-09-09T09:02:23Z</time>
      </trkpt>
      <trkpt lat="44.74175" lon="6.88901">
        <ele>2696.15</ele>
        <time>2018-09-09T09:02:37Z</time>
      </trkpt>
      <trkpt lat="44.74175" lon="6.88899">
        <ele>2696.64</ele>
        <time>2018-09-09T09:02:40Z</time>
      </trkpt>
      <trkpt lat="44.74177" lon="6.88896">
        <ele>2697.6</ele>
        <time>2018-09-09T09:02:44Z</time>
      </trkpt>
      <trkpt lat="44.74178" lon="6.88887">
        <ele>2699.52</ele>
        <time>2018-09-09T09:02:57Z</time>
      </trkpt>
      <trkpt lat="44.7418" lon="6.88883">
        <ele>2700.96</ele>
        <time>2018-09-09T09:03:05Z</time>
      </trkpt>
      <trkpt lat="44.74182" lon="6.88877">
        <ele>2702.88</ele>
        <time>2018-09-09T09:03:17Z</time>
      </trkpt>
      <trkpt lat="44.74183" lon="6.88874">
        <ele>2703.36</ele>
        <time>2018-09-09T09:03:21Z</time>
      </trkpt>
      <trkpt lat="44.74187" lon="6.88869">
        <ele>2705.29</ele>
        <time>2018-09-09T09:03:34Z</time>
      </trkpt>
      <trkpt lat="44.74185" lon="6.88859">
        <ele>2708.65</ele>
        <time>2018-09-09T09:03:49Z</time>
      </trkpt>
      <trkpt lat="44.74186" lon="6.88847">
        <ele>2710.57</ele>
        <time>2018-09-09T09:04:03Z</time>
      </trkpt>
      <trkpt lat="44.74186" lon="6.88843">
        <ele>2712.02</ele>
        <time>2018-09-09T09:04:15Z</time>
      </trkpt>
      <trkpt lat="44.74186" lon="6.88843">
        <ele>2712.5</ele>
        <time>2018-09-09T09:04:33Z</time>
      </trkpt>
      <trkpt lat="44.74186" lon="6.88843">
        <ele>2712.98</ele>
        <time>2018-09-09T09:04:49Z</time>
      </trkpt>
      <trkpt lat="44.74187" lon="6.88843">
        <ele>2712.98</ele>
        <time>2018-09-09T09:05:05Z</time>
      </trkpt>
      <trkpt lat="44.74186" lon="6.88843">
        <ele>2713.46</ele>
        <time>2018-09-09T09:05:22Z</time>
      </trkpt>
      <trkpt lat="44.74187" lon="6.88841">
        <ele>2713.94</ele>
        <time>2018-09-09T09:05:43Z</time>
      </trkpt>
      <trkpt lat="44.74187" lon="6.88837">
        <ele>2713.94</ele>
        <time>2018-09-09T09:06:00Z</time>
      </trkpt>
      <trkpt lat="44.74185" lon="6.88821">
        <ele>2711.54</ele>
        <time>2018-09-09T09:06:15Z</time>
      </trkpt>
      <trkpt lat="44.74181" lon="6.88801">
        <ele>2706.73</ele>
        <time>2018-09-09T09:06:30Z</time>
      </trkpt>
      <trkpt lat="44.74182" lon="6.88797">
        <ele>2703.85</ele>
        <time>2018-09-09T09:06:34Z</time>
      </trkpt>
      <trkpt lat="44.74177" lon="6.88773">
        <ele>2701.92</ele>
        <time>2018-09-09T09:06:50Z</time>
      </trkpt>
      <trkpt lat="44.74168" lon="6.88741">
        <ele>2698.56</ele>
        <time>2018-09-09T09:07:09Z</time>
      </trkpt>
      <trkpt lat="44.74159" lon="6.88712">
        <ele>2695.67</ele>
        <time>2018-09-09T09:07:27Z</time>
      </trkpt>
      <trkpt lat="44.74151" lon="6.88688">
        <ele>2694.23</ele>
        <time>2018-09-09T09:07:42Z</time>
      </trkpt>
      <trkpt lat="44.74143" lon="6.88663">
        <ele>2692.79</ele>
        <time>2018-09-09T09:07:57Z</time>
      </trkpt>
      <trkpt lat="44.74135" lon="6.88647">
        <ele>2692.31</ele>
        <time>2018-09-09T09:08:08Z</time>
      </trkpt>
      <trkpt lat="44.74131" lon="6.88632">
        <ele>2693.75</ele>
        <time>2018-09-09T09:08:21Z</time>
      </trkpt>
      <trkpt lat="44.74129" lon="6.88627">
        <ele>2694.71</ele>
        <time>2018-09-09T09:08:26Z</time>
      </trkpt>
      <trkpt lat="44.74128" lon="6.8862">
        <ele>2695.67</ele>
        <time>2018-09-09T09:08:32Z</time>
      </trkpt>
      <trkpt lat="44.74126" lon="6.88612">
        <ele>2698.56</ele>
        <time>2018-09-09T09:08:46Z</time>
      </trkpt>
      <trkpt lat="44.74126" lon="6.88608">
        <ele>2701.44</ele>
        <time>2018-09-09T09:08:53Z</time>
      </trkpt>
      <trkpt lat="44.74126" lon="6.88604">
        <ele>2704.81</ele>
        <time>2018-09-09T09:08:59Z</time>
      </trkpt>
      <trkpt lat="44.74125" lon="6.88599">
        <ele>2704.33</ele>
        <time>2018-09-09T09:09:05Z</time>
      </trkpt>
      <trkpt lat="44.7412" lon="6.88589">
        <ele>2704.81</ele>
        <time>2018-09-09T09:09:19Z</time>
      </trkpt>
      <trkpt lat="44.74117" lon="6.88583">
        <ele>2706.73</ele>
        <time>2018-09-09T09:09:31Z</time>
      </trkpt>
      <trkpt lat="44.74115" lon="6.88572">
        <ele>2709.13</ele>
        <time>2018-09-09T09:09:43Z</time>
      </trkpt>
      <trkpt lat="44.74115" lon="6.8857">
        <ele>2709.61</ele>
        <time>2018-09-09T09:09:47Z</time>
      </trkpt>
      <trkpt lat="44.74114" lon="6.88567">
        <ele>2710.09</ele>
        <time>2018-09-09T09:09:51Z</time>
      </trkpt>
      <trkpt lat="44.74109" lon="6.88548">
        <ele>2712.98</ele>
        <time>2018-09-09T09:10:08Z</time>
      </trkpt>
      <trkpt lat="44.74104" lon="6.88537">
        <ele>2714.9</ele>
        <time>2018-09-09T09:10:23Z</time>
      </trkpt>
      <trkpt lat="44.74101" lon="6.88531">
        <ele>2716.82</ele>
        <time>2018-09-09T09:10:33Z</time>
      </trkpt>
      <trkpt lat="44.74098" lon="6.88518">
        <ele>2718.75</ele>
        <time>2018-09-09T09:10:47Z</time>
      </trkpt>
      <trkpt lat="44.74093" lon="6.88505">
        <ele>2721.15</ele>
        <time>2018-09-09T09:11:02Z</time>
      </trkpt>
      <trkpt lat="44.74088" lon="6.88492">
        <ele>2723.07</ele>
        <time>2018-09-09T09:11:15Z</time>
      </trkpt>
      <trkpt lat="44.74087" lon="6.88484">
        <ele>2724.99</ele>
        <time>2018-09-09T09:11:28Z</time>
      </trkpt>
      <trkpt lat="44.74085" lon="6.88475">
        <ele>2727.4</ele>
        <time>2018-09-09T09:11:42Z</time>
      </trkpt>
      <trkpt lat="44.74079" lon="6.8846">
        <ele>2728.84</ele>
        <time>2018-09-09T09:11:56Z</time>
      </trkpt>
      <trkpt lat="44.74076" lon="6.8845">
        <ele>2729.8</ele>
        <time>2018-09-09T09:12:06Z</time>
      </trkpt>
      <trkpt lat="44.74072" lon="6.88423">
        <ele>2730.76</ele>
        <time>2018-09-09T09:12:23Z</time>
      </trkpt>
      <trkpt lat="44.74068" lon="6.88401">
        <ele>2730.76</ele>
        <time>2018-09-09T09:12:37Z</time>
      </trkpt>
      <trkpt lat="44.74058" lon="6.8838">
        <ele>2727.4</ele>
        <time>2018-09-09T09:12:51Z</time>
      </trkpt>
      <trkpt lat="44.74048" lon="6.88353">
        <ele>2725.48</ele>
        <time>2018-09-09T09:13:09Z</time>
      </trkpt>
      <trkpt lat="44.74047" lon="6.88346">
        <ele>2725.96</ele>
        <time>2018-09-09T09:13:14Z</time>
      </trkpt>
      <trkpt lat="44.74041" lon="6.88323">
        <ele>2725.96</ele>
        <time>2018-09-09T09:13:31Z</time>
      </trkpt>
      <trkpt lat="44.74039" lon="6.88318">
        <ele>2726.92</ele>
        <time>2018-09-09T09:13:42Z</time>
      </trkpt>
      <trkpt lat="44.74037" lon="6.88311">
        <ele>2727.4</ele>
        <time>2018-09-09T09:13:56Z</time>
      </trkpt>
      <trkpt lat="44.74037" lon="6.88311">
        <ele>2727.88</ele>
        <time>2018-09-09T09:14:15Z</time>
      </trkpt>
      <trkpt lat="44.74037" lon="6.88308">
        <ele>2727.88</ele>
        <time>2018-09-09T09:14:27Z</time>
      </trkpt>
      <trkpt lat="44.74033" lon="6.88291">
        <ele>2725.96</ele>
        <time>2018-09-09T09:14:42Z</time>
      </trkpt>
      <trkpt lat="44.74036" lon="6.88269">
        <ele>2724.51</ele>
        <time>2018-09-09T09:14:57Z</time>
      </trkpt>
      <trkpt lat="44.7404" lon="6.88258">
        <ele>2724.51</ele>
        <time>2018-09-09T09:15:08Z</time>
      </trkpt>
      <trkpt lat="44.74047" lon="6.88248">
        <ele>2726.92</ele>
        <time>2018-09-09T09:15:20Z</time>
      </trkpt>
      <trkpt lat="44.7405" lon="6.88233">
        <ele>2729.8</ele>
        <time>2018-09-09T09:15:34Z</time>
      </trkpt>
      <trkpt lat="44.7405" lon="6.8823">
        <ele>2730.28</ele>
        <time>2018-09-09T09:15:37Z</time>
      </trkpt>
      <trkpt lat="44.74053" lon="6.88218">
        <ele>2731.72</ele>
        <time>2018-09-09T09:15:48Z</time>
      </trkpt>
      <trkpt lat="44.74053" lon="6.88211">
        <ele>2733.17</ele>
        <time>2018-09-09T09:15:53Z</time>
      </trkpt>
      <trkpt lat="44.74056" lon="6.88197">
        <ele>2736.05</ele>
        <time>2018-09-09T09:16:08Z</time>
      </trkpt>
      <trkpt lat="44.74057" lon="6.88194">
        <ele>2736.05</ele>
        <time>2018-09-09T09:16:11Z</time>
      </trkpt>
      <trkpt lat="44.74059" lon="6.88177">
        <ele>2738.45</ele>
        <time>2018-09-09T09:16:26Z</time>
      </trkpt>
      <trkpt lat="44.74062" lon="6.88162">
        <ele>2740.86</ele>
        <time>2018-09-09T09:16:41Z</time>
      </trkpt>
      <trkpt lat="44.74064" lon="6.88158">
        <ele>2741.82</ele>
        <time>2018-09-09T09:16:46Z</time>
      </trkpt>
      <trkpt lat="44.74068" lon="6.88156">
        <ele>2743.74</ele>
        <time>2018-09-09T09:16:56Z</time>
      </trkpt>
      <trkpt lat="44.74074" lon="6.88153">
        <ele>2746.14</ele>
        <time>2018-09-09T09:17:11Z</time>
      </trkpt>
      <trkpt lat="44.74075" lon="6.88152">
        <ele>2746.62</ele>
        <time>2018-09-09T09:17:13Z</time>
      </trkpt>
      <trkpt lat="44.74078" lon="6.88144">
        <ele>2749.51</ele>
        <time>2018-09-09T09:17:28Z</time>
      </trkpt>
      <trkpt lat="44.74083" lon="6.88137">
        <ele>2752.39</ele>
        <time>2018-09-09T09:17:43Z</time>
      </trkpt>
      <trkpt lat="44.74087" lon="6.88136">
        <ele>2753.35</ele>
        <time>2018-09-09T09:17:54Z</time>
      </trkpt>
      <trkpt lat="44.74089" lon="6.88131">
        <ele>2755.76</ele>
        <time>2018-09-09T09:18:05Z</time>
      </trkpt>
      <trkpt lat="44.74094" lon="6.88121">
        <ele>2757.2</ele>
        <time>2018-09-09T09:18:17Z</time>
      </trkpt>
      <trkpt lat="44.741" lon="6.88111">
        <ele>2759.12</ele>
        <time>2018-09-09T09:18:30Z</time>
      </trkpt>
      <trkpt lat="44.74106" lon="6.88106">
        <ele>2761.04</ele>
        <time>2018-09-09T09:18:43Z</time>
      </trkpt>
      <trkpt lat="44.74114" lon="6.88097">
        <ele>2763.93</ele>
        <time>2018-09-09T09:18:59Z</time>
      </trkpt>
      <trkpt lat="44.74119" lon="6.88089">
        <ele>2766.33</ele>
        <time>2018-09-09T09:19:16Z</time>
      </trkpt>
      <trkpt lat="44.74125" lon="6.88085">
        <ele>2768.73</ele>
        <time>2018-09-09T09:19:31Z</time>
      </trkpt>
      <trkpt lat="44.74128" lon="6.88078">
        <ele>2770.66</ele>
        <time>2018-09-09T09:19:40Z</time>
      </trkpt>
      <trkpt lat="44.74134" lon="6.8807">
        <ele>2773.06</ele>
        <time>2018-09-09T09:19:53Z</time>
      </trkpt>
      <trkpt lat="44.74138" lon="6.88062">
        <ele>2774.98</ele>
        <time>2018-09-09T09:20:05Z</time>
      </trkpt>
      <trkpt lat="44.74143" lon="6.88055">
        <ele>2776.91</ele>
        <time>2018-09-09T09:20:17Z</time>
      </trkpt>
      <trkpt lat="44.74148" lon="6.88048">
        <ele>2778.83</ele>
        <time>2018-09-09T09:20:28Z</time>
      </trkpt>
      <trkpt lat="44.74156" lon="6.88041">
        <ele>2781.23</ele>
        <time>2018-09-09T09:20:41Z</time>
      </trkpt>
      <trkpt lat="44.74165" lon="6.88023">
        <ele>2781.71</ele>
        <time>2018-09-09T09:20:57Z</time>
      </trkpt>
      <trkpt lat="44.74174" lon="6.88002">
        <ele>2781.71</ele>
        <time>2018-09-09T09:21:12Z</time>
      </trkpt>
      <trkpt lat="44.74179" lon="6.87994">
        <ele>2781.71</ele>
        <time>2018-09-09T09:21:20Z</time>
      </trkpt>
      <trkpt lat="44.74186" lon="6.8799">
        <ele>2782.67</ele>
        <time>2018-09-09T09:21:33Z</time>
      </trkpt>
      <trkpt lat="44.74187" lon="6.87982">
        <ele>2783.63</ele>
        <time>2018-09-09T09:21:46Z</time>
      </trkpt>
      <trkpt lat="44.74186" lon="6.8798">
        <ele>2783.63</ele>
        <time>2018-09-09T09:21:47Z</time>
      </trkpt>
      <trkpt lat="44.74184" lon="6.87966">
        <ele>2783.63</ele>
        <time>2018-09-09T09:22:01Z</time>
      </trkpt>
      <trkpt lat="44.74186" lon="6.87965">
        <ele>2782.67</ele>
        <time>2018-09-09T09:22:13Z</time>
      </trkpt>
      <trkpt lat="44.74186" lon="6.87965">
        <ele>2782.67</ele>
        <time>2018-09-09T09:22:27Z</time>
      </trkpt>
      <trkpt lat="44.74189" lon="6.87962">
        <ele>2784.6</ele>
        <time>2018-09-09T09:22:38Z</time>
      </trkpt>
      <trkpt lat="44.74195" lon="6.87956">
        <ele>2786.04</ele>
        <time>2018-09-09T09:22:52Z</time>
      </trkpt>
      <trkpt lat="44.74196" lon="6.87954">
        <ele>2787.48</ele>
        <time>2018-09-09T09:23:01Z</time>
      </trkpt>
      <trkpt lat="44.74199" lon="6.87948">
        <ele>2789.4</ele>
        <time>2018-09-09T09:23:14Z</time>
      </trkpt>
      <trkpt lat="44.742" lon="6.87946">
        <ele>2790.36</ele>
        <time>2018-09-09T09:23:28Z</time>
      </trkpt>
      <trkpt lat="44.742" lon="6.87944">
        <ele>2790.84</ele>
        <time>2018-09-09T09:23:44Z</time>
      </trkpt>
      <trkpt lat="44.74203" lon="6.87937">
        <ele>2790.84</ele>
        <time>2018-09-09T09:23:51Z</time>
      </trkpt>
      <trkpt lat="44.74206" lon="6.8793">
        <ele>2790.84</ele>
        <time>2018-09-09T09:24:05Z</time>
      </trkpt>
      <trkpt lat="44.7421" lon="6.87926">
        <ele>2791.33</ele>
        <time>2018-09-09T09:24:19Z</time>
      </trkpt>
      <trkpt lat="44.74213" lon="6.87923">
        <ele>2793.73</ele>
        <time>2018-09-09T09:24:32Z</time>
      </trkpt>
      <trkpt lat="44.74218" lon="6.8792">
        <ele>2794.69</ele>
        <time>2018-09-09T09:24:49Z</time>
      </trkpt>
      <trkpt lat="44.74221" lon="6.87917">
        <ele>2794.69</ele>
        <time>2018-09-09T09:24:53Z</time>
      </trkpt>
      <trkpt lat="44.74226" lon="6.87907">
        <ele>2794.69</ele>
        <time>2018-09-09T09:25:04Z</time>
      </trkpt>
      <trkpt lat="44.74233" lon="6.87894">
        <ele>2792.29</ele>
        <time>2018-09-09T09:25:18Z</time>
      </trkpt>
      <trkpt lat="44.74241" lon="6.87884">
        <ele>2789.4</ele>
        <time>2018-09-09T09:25:31Z</time>
      </trkpt>
      <trkpt lat="44.74243" lon="6.87883">
        <ele>2786.04</ele>
        <time>2018-09-09T09:25:35Z</time>
      </trkpt>
      <trkpt lat="44.74247" lon="6.87881">
        <ele>2782.67</ele>
        <time>2018-09-09T09:25:41Z</time>
      </trkpt>
      <trkpt lat="44.74249" lon="6.87866">
        <ele>2782.67</ele>
        <time>2018-09-09T09:25:54Z</time>
      </trkpt>
      <trkpt lat="44.74249" lon="6.87863">
        <ele>2781.71</ele>
        <time>2018-09-09T09:25:58Z</time>
      </trkpt>
      <trkpt lat="44.74261" lon="6.8785">
        <ele>2779.31</ele>
        <time>2018-09-09T09:26:12Z</time>
      </trkpt>
      <trkpt lat="44.74269" lon="6.87842">
        <ele>2778.35</ele>
        <time>2018-09-09T09:26:20Z</time>
      </trkpt>
      <trkpt lat="44.74281" lon="6.87831">
        <ele>2777.39</ele>
        <time>2018-09-09T09:26:31Z</time>
      </trkpt>
      <trkpt lat="44.74284" lon="6.87828">
        <ele>2776.91</ele>
        <time>2018-09-09T09:26:34Z</time>
      </trkpt>
      <trkpt lat="44.74292" lon="6.8782">
        <ele>2776.91</ele>
        <time>2018-09-09T09:26:42Z</time>
      </trkpt>
      <trkpt lat="44.74297" lon="6.87815">
        <ele>2776.91</ele>
        <time>2018-09-09T09:26:47Z</time>
      </trkpt>
      <trkpt lat="44.74308" lon="6.87802">
        <ele>2776.91</ele>
        <time>2018-09-09T09:26:59Z</time>
      </trkpt>
      <trkpt lat="44.74312" lon="6.87792">
        <ele>2778.35</ele>
        <time>2018-09-09T09:27:06Z</time>
      </trkpt>
      <trkpt lat="44.74321" lon="6.87771">
        <ele>2779.31</ele>
        <time>2018-09-09T09:27:20Z</time>
      </trkpt>
      <trkpt lat="44.74332" lon="6.87755">
        <ele>2779.31</ele>
        <time>2018-09-09T09:27:33Z</time>
      </trkpt>
      <trkpt lat="44.74337" lon="6.8775">
        <ele>2779.31</ele>
        <time>2018-09-09T09:27:38Z</time>
      </trkpt>
      <trkpt lat="44.74351" lon="6.87732">
        <ele>2779.79</ele>
        <time>2018-09-09T09:27:53Z</time>
      </trkpt>
      <trkpt lat="44.74353" lon="6.8773">
        <ele>2779.79</ele>
        <time>2018-09-09T09:27:55Z</time>
      </trkpt>
      <trkpt lat="44.74362" lon="6.87719">
        <ele>2778.83</ele>
        <time>2018-09-09T09:28:04Z</time>
      </trkpt>
      <trkpt lat="44.74372" lon="6.87706">
        <ele>2778.35</ele>
        <time>2018-09-09T09:28:16Z</time>
      </trkpt>
      <trkpt lat="44.74385" lon="6.87692">
        <ele>2780.75</ele>
        <time>2018-09-09T09:28:30Z</time>
      </trkpt>
      <trkpt lat="44.74395" lon="6.87682">
        <ele>2781.23</ele>
        <time>2018-09-09T09:28:41Z</time>
      </trkpt>
      <trkpt lat="44.74402" lon="6.87678">
        <ele>2781.23</ele>
        <time>2018-09-09T09:28:47Z</time>
      </trkpt>
      <trkpt lat="44.74405" lon="6.87676">
        <ele>2781.23</ele>
        <time>2018-09-09T09:28:50Z</time>
      </trkpt>
      <trkpt lat="44.74407" lon="6.87672">
        <ele>2779.31</ele>
        <time>2018-09-09T09:28:53Z</time>
      </trkpt>
      <trkpt lat="44.74408" lon="6.87668">
        <ele>2778.83</ele>
        <time>2018-09-09T09:28:56Z</time>
      </trkpt>
      <trkpt lat="44.74423" lon="6.87653">
        <ele>2776.42</ele>
        <time>2018-09-09T09:29:11Z</time>
      </trkpt>
      <trkpt lat="44.74425" lon="6.87651">
        <ele>2776.42</ele>
        <time>2018-09-09T09:29:13Z</time>
      </trkpt>
      <trkpt lat="44.7443" lon="6.87636">
        <ele>2775.46</ele>
        <time>2018-09-09T09:29:23Z</time>
      </trkpt>
      <trkpt lat="44.74431" lon="6.87624">
        <ele>2774.98</ele>
        <time>2018-09-09T09:29:30Z</time>
      </trkpt>
      <trkpt lat="44.74436" lon="6.87611">
        <ele>2774.5</ele>
        <time>2018-09-09T09:29:45Z</time>
      </trkpt>
      <trkpt lat="44.74437" lon="6.87607">
        <ele>2774.5</ele>
        <time>2018-09-09T09:29:54Z</time>
      </trkpt>
      <trkpt lat="44.74449" lon="6.87589">
        <ele>2771.62</ele>
        <time>2018-09-09T09:30:10Z</time>
      </trkpt>
      <trkpt lat="44.7446" lon="6.87569">
        <ele>2769.7</ele>
        <time>2018-09-09T09:30:25Z</time>
      </trkpt>
      <trkpt lat="44.74468" lon="6.87542">
        <ele>2767.29</ele>
        <time>2018-09-09T09:30:43Z</time>
      </trkpt>
      <trkpt lat="44.74472" lon="6.87539">
        <ele>2766.81</ele>
        <time>2018-09-09T09:30:46Z</time>
      </trkpt>
      <trkpt lat="44.74485" lon="6.87518">
        <ele>2765.37</ele>
        <time>2018-09-09T09:31:02Z</time>
      </trkpt>
      <trkpt lat="44.74496" lon="6.87493">
        <ele>2763.93</ele>
        <time>2018-09-09T09:31:18Z</time>
      </trkpt>
      <trkpt lat="44.74501" lon="6.87485">
        <ele>2763.93</ele>
        <time>2018-09-09T09:31:24Z</time>
      </trkpt>
      <trkpt lat="44.74509" lon="6.87469">
        <ele>2763.45</ele>
        <time>2018-09-09T09:31:36Z</time>
      </trkpt>
      <trkpt lat="44.74519" lon="6.87454">
        <ele>2763.45</ele>
        <time>2018-09-09T09:31:51Z</time>
      </trkpt>
      <trkpt lat="44.74524" lon="6.87449">
        <ele>2765.85</ele>
        <time>2018-09-09T09:32:00Z</time>
      </trkpt>
      <trkpt lat="44.74528" lon="6.87442">
        <ele>2768.25</ele>
        <time>2018-09-09T09:32:12Z</time>
      </trkpt>
      <trkpt lat="44.74533" lon="6.87432">
        <ele>2770.66</ele>
        <time>2018-09-09T09:32:25Z</time>
      </trkpt>
      <trkpt lat="44.74537" lon="6.87433">
        <ele>2772.1</ele>
        <time>2018-09-09T09:32:36Z</time>
      </trkpt>
      <trkpt lat="44.74539" lon="6.87427">
        <ele>2774.5</ele>
        <time>2018-09-09T09:32:48Z</time>
      </trkpt>
      <trkpt lat="44.7454" lon="6.87427">
        <ele>2775.94</ele>
        <time>2018-09-09T09:33:02Z</time>
      </trkpt>
      <trkpt lat="44.74544" lon="6.87426">
        <ele>2778.35</ele>
        <time>2018-09-09T09:33:15Z</time>
      </trkpt>
      <trkpt lat="44.74545" lon="6.87427">
        <ele>2778.83</ele>
        <time>2018-09-09T09:33:35Z</time>
      </trkpt>
      <trkpt lat="44.74545" lon="6.87427">
        <ele>2779.31</ele>
        <time>2018-09-09T09:34:06Z</time>
      </trkpt>
      <trkpt lat="44.74546" lon="6.87427">
        <ele>2779.31</ele>
        <time>2018-09-09T09:34:28Z</time>
      </trkpt>
      <trkpt lat="44.74546" lon="6.87426">
        <ele>2779.31</ele>
        <time>2018-09-09T09:34:42Z</time>
      </trkpt>
      <trkpt lat="44.74545" lon="6.87426">
        <ele>2779.31</ele>
        <time>2018-09-09T09:35:01Z</time>
      </trkpt>
      <trkpt lat="44.74545" lon="6.87425">
        <ele>2779.79</ele>
        <time>2018-09-09T09:35:32Z</time>
      </trkpt>
      <trkpt lat="44.74545" lon="6.87425">
        <ele>2779.79</ele>
        <time>2018-09-09T09:36:00Z</time>
      </trkpt>
      <trkpt lat="44.74545" lon="6.87425">
        <ele>2779.79</ele>
        <time>2018-09-09T09:36:38Z</time>
      </trkpt>
      <trkpt lat="44.74544" lon="6.87425">
        <ele>2779.79</ele>
        <time>2018-09-09T09:37:08Z</time>
      </trkpt>
      <trkpt lat="44.74544" lon="6.87425">
        <ele>2779.79</ele>
        <time>2018-09-09T09:37:35Z</time>
      </trkpt>
      <trkpt lat="44.74544" lon="6.87425">
        <ele>2780.27</ele>
        <time>2018-09-09T09:38:02Z</time>
      </trkpt>
      <trkpt lat="44.74545" lon="6.87424">
        <ele>2780.27</ele>
        <time>2018-09-09T09:38:29Z</time>
      </trkpt>
      <trkpt lat="44.74545" lon="6.87424">
        <ele>2780.27</ele>
        <time>2018-09-09T09:38:57Z</time>
      </trkpt>
      <trkpt lat="44.74544" lon="6.87425">
        <ele>2780.27</ele>
        <time>2018-09-09T09:39:30Z</time>
      </trkpt>
      <trkpt lat="44.74544" lon="6.87425">
        <ele>2780.27</ele>
        <time>2018-09-09T09:39:53Z</time>
      </trkpt>
      <trkpt lat="44.74545" lon="6.87425">
        <ele>2780.75</ele>
        <time>2018-09-09T09:40:27Z</time>
      </trkpt>
      <trkpt lat="44.74545" lon="6.87425">
        <ele>2780.75</ele>
        <time>2018-09-09T09:40:47Z</time>
      </trkpt>
      <trkpt lat="44.74544" lon="6.87425">
        <ele>2780.75</ele>
        <time>2018-09-09T09:41:13Z</time>
      </trkpt>
      <trkpt lat="44.74544" lon="6.87425">
        <ele>2780.75</ele>
        <time>2018-09-09T09:41:40Z</time>
      </trkpt>
      <trkpt lat="44.74543" lon="6.87426">
        <ele>2780.75</ele>
        <time>2018-09-09T09:41:58Z</time>
      </trkpt>
      <trkpt lat="44.74543" lon="6.87425">
        <ele>2781.23</ele>
        <time>2018-09-09T09:42:21Z</time>
      </trkpt>
      <trkpt lat="44.74543" lon="6.87425">
        <ele>2781.23</ele>
        <time>2018-09-09T09:42:41Z</time>
      </trkpt>
      <trkpt lat="44.74544" lon="6.87426">
        <ele>2781.23</ele>
        <time>2018-09-09T09:42:59Z</time>
      </trkpt>
      <trkpt lat="44.74544" lon="6.87427">
        <ele>2781.23</ele>
        <time>2018-09-09T09:43:07Z</time>
      </trkpt>
      <trkpt lat="44.7454" lon="6.87424">
        <ele>2780.27</ele>
        <time>2018-09-09T09:43:23Z</time>
      </trkpt>
      <trkpt lat="44.74541" lon="6.87424">
        <ele>2779.79</ele>
        <time>2018-09-09T09:43:37Z</time>
      </trkpt>
      <trkpt lat="44.74541" lon="6.87423">
        <ele>2779.31</ele>
        <time>2018-09-09T09:44:07Z</time>
      </trkpt>
      <trkpt lat="44.74541" lon="6.87423">
        <ele>2779.31</ele>
        <time>2018-09-09T09:44:34Z</time>
      </trkpt>
      <trkpt lat="44.74541" lon="6.87423">
        <ele>2779.31</ele>
        <time>2018-09-09T09:45:03Z</time>
      </trkpt>
      <trkpt lat="44.74541" lon="6.87423">
        <ele>2779.31</ele>
        <time>2018-09-09T09:45:33Z</time>
      </trkpt>
      <trkpt lat="44.74541" lon="6.87423">
        <ele>2779.31</ele>
        <time>2018-09-09T09:46:10Z</time>
      </trkpt>
      <trkpt lat="44.74541" lon="6.87423">
        <ele>2779.79</ele>
        <time>2018-09-09T09:46:39Z</time>
      </trkpt>
      <trkpt lat="44.74541" lon="6.87423">
        <ele>2779.79</ele>
        <time>2018-09-09T09:47:10Z</time>
      </trkpt>
      <trkpt lat="44.74541" lon="6.87423">
        <ele>2779.79</ele>
        <time>2018-09-09T09:47:48Z</time>
      </trkpt>
      <trkpt lat="44.74541" lon="6.87423">
        <ele>2780.27</ele>
        <time>2018-09-09T09:48:18Z</time>
      </trkpt>
      <trkpt lat="44.74541" lon="6.87424">
        <ele>2780.27</ele>
        <time>2018-09-09T09:48:54Z</time>
      </trkpt>
      <trkpt lat="44.74541" lon="6.87424">
        <ele>2780.27</ele>
        <time>2018-09-09T09:49:30Z</time>
      </trkpt>
      <trkpt lat="44.74542" lon="6.87424">
        <ele>2780.27</ele>
        <time>2018-09-09T09:50:03Z</time>
      </trkpt>
      <trkpt lat="44.74542" lon="6.87424">
        <ele>2780.75</ele>
        <time>2018-09-09T09:50:45Z</time>
      </trkpt>
      <trkpt lat="44.74542" lon="6.87424">
        <ele>2780.75</ele>
        <time>2018-09-09T09:51:12Z</time>
      </trkpt>
      <trkpt lat="44.74542" lon="6.87424">
        <ele>2780.75</ele>
        <time>2018-09-09T09:51:52Z</time>
      </trkpt>
      <trkpt lat="44.74542" lon="6.87424">
        <ele>2780.27</ele>
        <time>2018-09-09T09:52:31Z</time>
      </trkpt>
      <trkpt lat="44.74542" lon="6.87424">
        <ele>2780.27</ele>
        <time>2018-09-09T09:53:09Z</time>
      </trkpt>
      <trkpt lat="44.74541" lon="6.87424">
        <ele>2780.75</ele>
        <time>2018-09-09T09:53:50Z</time>
      </trkpt>
      <trkpt lat="44.74541" lon="6.87424">
        <ele>2780.75</ele>
        <time>2018-09-09T09:54:17Z</time>
      </trkpt>
      <trkpt lat="44.74541" lon="6.87424">
        <ele>2780.75</ele>
        <time>2018-09-09T09:55:02Z</time>
      </trkpt>
      <trkpt lat="44.74542" lon="6.87424">
        <ele>2781.23</ele>
        <time>2018-09-09T09:55:49Z</time>
      </trkpt>
      <trkpt lat="44.74542" lon="6.87424">
        <ele>2781.23</ele>
        <time>2018-09-09T09:56:30Z</time>
      </trkpt>
      <trkpt lat="44.74541" lon="6.87424">
        <ele>2781.23</ele>
        <time>2018-09-09T09:57:11Z</time>
      </trkpt>
      <trkpt lat="44.74541" lon="6.87424">
        <ele>2781.23</ele>
        <time>2018-09-09T09:57:50Z</time>
      </trkpt>
      <trkpt lat="44.74541" lon="6.87424">
        <ele>2781.23</ele>
        <time>2018-09-09T09:58:25Z</time>
      </trkpt>
      <trkpt lat="44.74541" lon="6.87424">
        <ele>2781.71</ele>
        <time>2018-09-09T09:59:06Z</time>
      </trkpt>
      <trkpt lat="44.74542" lon="6.87423">
        <ele>2781.71</ele>
        <time>2018-09-09T09:59:45Z</time>
      </trkpt>
      <trkpt lat="44.74542" lon="6.87423">
        <ele>2781.71</ele>
        <time>2018-09-09T10:00:25Z</time>
      </trkpt>
      <trkpt lat="44.74542" lon="6.87423">
        <ele>2781.71</ele>
        <time>2018-09-09T10:01:06Z</time>
      </trkpt>
      <trkpt lat="44.74542" lon="6.87423">
        <ele>2782.19</ele>
        <time>2018-09-09T10:01:43Z</time>
      </trkpt>
      <trkpt lat="44.74542" lon="6.87423">
        <ele>2781.71</ele>
        <time>2018-09-09T10:02:15Z</time>
      </trkpt>
      <trkpt lat="44.74542" lon="6.87423">
        <ele>2781.71</ele>
        <time>2018-09-09T10:02:57Z</time>
      </trkpt>
      <trkpt lat="44.74542" lon="6.87423">
        <ele>2781.71</ele>
        <time>2018-09-09T10:03:27Z</time>
      </trkpt>
      <trkpt lat="44.74542" lon="6.87423">
        <ele>2781.71</ele>
        <time>2018-09-09T10:03:59Z</time>
      </trkpt>
      <trkpt lat="44.74541" lon="6.87423">
        <ele>2781.71</ele>
        <time>2018-09-09T10:04:20Z</time>
      </trkpt>
      <trkpt lat="44.74541" lon="6.87422">
        <ele>2782.19</ele>
        <time>2018-09-09T10:04:33Z</time>
      </trkpt>
      <trkpt lat="44.74541" lon="6.87422">
        <ele>2782.19</ele>
        <time>2018-09-09T10:04:53Z</time>
      </trkpt>
      <trkpt lat="44.74541" lon="6.87422">
        <ele>2782.19</ele>
        <time>2018-09-09T10:05:19Z</time>
      </trkpt>
      <trkpt lat="44.74541" lon="6.87423">
        <ele>2782.19</ele>
        <time>2018-09-09T10:05:54Z</time>
      </trkpt>
      <trkpt lat="44.74541" lon="6.87423">
        <ele>2782.19</ele>
        <time>2018-09-09T10:06:14Z</time>
      </trkpt>
      <trkpt lat="44.74542" lon="6.87423">
        <ele>2782.19</ele>
        <time>2018-09-09T10:06:38Z</time>
      </trkpt>
      <trkpt lat="44.74542" lon="6.87423">
        <ele>2782.19</ele>
        <time>2018-09-09T10:07:01Z</time>
      </trkpt>
      <trkpt lat="44.74542" lon="6.87419">
        <ele>2781.71</ele>
        <time>2018-09-09T10:07:17Z</time>
      </trkpt>
      <trkpt lat="44.74535" lon="6.87407">
        <ele>2779.31</ele>
        <time>2018-09-09T10:07:34Z</time>
      </trkpt>
      <trkpt lat="44.74534" lon="6.87402">
        <ele>2777.39</ele>
        <time>2018-09-09T10:07:48Z</time>
      </trkpt>
      <trkpt lat="44.74532" lon="6.87398">
        <ele>2776.91</ele>
        <time>2018-09-09T10:07:52Z</time>
      </trkpt>
      <trkpt lat="44.74531" lon="6.87389">
        <ele>2775.94</ele>
        <time>2018-09-09T10:07:59Z</time>
      </trkpt>
      <trkpt lat="44.74528" lon="6.87378">
        <ele>2773.54</ele>
        <time>2018-09-09T10:08:12Z</time>
      </trkpt>
      <trkpt lat="44.74522" lon="6.87368">
        <ele>2771.62</ele>
        <time>2018-09-09T10:08:25Z</time>
      </trkpt>
      <trkpt lat="44.7452" lon="6.87359">
        <ele>2769.21</ele>
        <time>2018-09-09T10:08:35Z</time>
      </trkpt>
      <trkpt lat="44.74515" lon="6.87353">
        <ele>2765.85</ele>
        <time>2018-09-09T10:08:44Z</time>
      </trkpt>
      <trkpt lat="44.74514" lon="6.8735">
        <ele>2763.93</ele>
        <time>2018-09-09T10:08:47Z</time>
      </trkpt>
      <trkpt lat="44.74511" lon="6.87346">
        <ele>2760.56</ele>
        <time>2018-09-09T10:08:53Z</time>
      </trkpt>
      <trkpt lat="44.74506" lon="6.87334">
        <ele>2759.6</ele>
        <time>2018-09-09T10:09:07Z</time>
      </trkpt>
      <trkpt lat="44.74503" lon="6.87323">
        <ele>2757.2</ele>
        <time>2018-09-09T10:09:26Z</time>
      </trkpt>
      <trkpt lat="44.745" lon="6.87316">
        <ele>2755.28</ele>
        <time>2018-09-09T10:09:33Z</time>
      </trkpt>
      <trkpt lat="44.745" lon="6.8731">
        <ele>2751.91</ele>
        <time>2018-09-09T10:09:39Z</time>
      </trkpt>
      <trkpt lat="44.74497" lon="6.87307">
        <ele>2749.51</ele>
        <time>2018-09-09T10:09:43Z</time>
      </trkpt>
      <trkpt lat="44.74496" lon="6.87294">
        <ele>2747.59</ele>
        <time>2018-09-09T10:09:55Z</time>
      </trkpt>
      <trkpt lat="44.74492" lon="6.87279">
        <ele>2744.22</ele>
        <time>2018-09-09T10:10:11Z</time>
      </trkpt>
      <trkpt lat="44.74493" lon="6.87276">
        <ele>2741.34</ele>
        <time>2018-09-09T10:10:15Z</time>
      </trkpt>
      <trkpt lat="44.74492" lon="6.87271">
        <ele>2738.93</ele>
        <time>2018-09-09T10:10:22Z</time>
      </trkpt>
      <trkpt lat="44.74491" lon="6.87265">
        <ele>2738.93</ele>
        <time>2018-09-09T10:10:28Z</time>
      </trkpt>
      <trkpt lat="44.74487" lon="6.87254">
        <ele>2737.01</ele>
        <time>2018-09-09T10:10:40Z</time>
      </trkpt>
      <trkpt lat="44.74487" lon="6.87252">
        <ele>2736.53</ele>
        <time>2018-09-09T10:10:43Z</time>
      </trkpt>
      <trkpt lat="44.74485" lon="6.87249">
        <ele>2733.17</ele>
        <time>2018-09-09T10:10:49Z</time>
      </trkpt>
      <trkpt lat="44.74484" lon="6.87247">
        <ele>2729.8</ele>
        <time>2018-09-09T10:10:55Z</time>
      </trkpt>
      <trkpt lat="44.74483" lon="6.87236">
        <ele>2729.8</ele>
        <time>2018-09-09T10:11:08Z</time>
      </trkpt>
      <trkpt lat="44.74482" lon="6.87231">
        <ele>2727.4</ele>
        <time>2018-09-09T10:11:18Z</time>
      </trkpt>
      <trkpt lat="44.74483" lon="6.87223">
        <ele>2725.48</ele>
        <time>2018-09-09T10:11:31Z</time>
      </trkpt>
      <trkpt lat="44.74482" lon="6.87218">
        <ele>2723.07</ele>
        <time>2018-09-09T10:11:42Z</time>
      </trkpt>
      <trkpt lat="44.7448" lon="6.87217">
        <ele>2722.11</ele>
        <time>2018-09-09T10:11:45Z</time>
      </trkpt>
      <trkpt lat="44.7448" lon="6.8721">
        <ele>2717.78</ele>
        <time>2018-09-09T10:11:52Z</time>
      </trkpt>
      <trkpt lat="44.74479" lon="6.87209">
        <ele>2714.9</ele>
        <time>2018-09-09T10:11:57Z</time>
      </trkpt>
      <trkpt lat="44.74476" lon="6.87202">
        <ele>2715.38</ele>
        <time>2018-09-09T10:12:08Z</time>
      </trkpt>
      <trkpt lat="44.74471" lon="6.87194">
        <ele>2712.98</ele>
        <time>2018-09-09T10:12:22Z</time>
      </trkpt>
      <trkpt lat="44.74468" lon="6.8719">
        <ele>2711.06</ele>
        <time>2018-09-09T10:12:32Z</time>
      </trkpt>
      <trkpt lat="44.74467" lon="6.87184">
        <ele>2707.21</ele>
        <time>2018-09-09T10:12:39Z</time>
      </trkpt>
      <trkpt lat="44.74464" lon="6.87181">
        <ele>2704.33</ele>
        <time>2018-09-09T10:12:47Z</time>
      </trkpt>
      <trkpt lat="44.74461" lon="6.87179">
        <ele>2704.33</ele>
        <time>2018-09-09T10:12:51Z</time>
      </trkpt>
      <trkpt lat="44.74452" lon="6.87169">
        <ele>2701.92</ele>
        <time>2018-09-09T10:13:07Z</time>
      </trkpt>
      <trkpt lat="44.74453" lon="6.87165">
        <ele>2699.04</ele>
        <time>2018-09-09T10:13:12Z</time>
      </trkpt>
      <trkpt lat="44.74454" lon="6.87163">
        <ele>2695.67</ele>
        <time>2018-09-09T10:13:17Z</time>
      </trkpt>
      <trkpt lat="44.7445" lon="6.87155">
        <ele>2695.19</ele>
        <time>2018-09-09T10:13:32Z</time>
      </trkpt>
      <trkpt lat="44.74446" lon="6.87148">
        <ele>2692.79</ele>
        <time>2018-09-09T10:13:48Z</time>
      </trkpt>
      <trkpt lat="44.74445" lon="6.87144">
        <ele>2689.43</ele>
        <time>2018-09-09T10:13:57Z</time>
      </trkpt>
      <trkpt lat="44.74443" lon="6.87142">
        <ele>2686.06</ele>
        <time>2018-09-09T10:14:02Z</time>
      </trkpt>
      <trkpt lat="44.74439" lon="6.87141">
        <ele>2685.58</ele>
        <time>2018-09-09T10:14:08Z</time>
      </trkpt>
      <trkpt lat="44.74441" lon="6.87132">
        <ele>2685.58</ele>
        <time>2018-09-09T10:14:19Z</time>
      </trkpt>
      <trkpt lat="44.74435" lon="6.87126">
        <ele>2682.7</ele>
        <time>2018-09-09T10:14:33Z</time>
      </trkpt>
      <trkpt lat="44.74429" lon="6.87121">
        <ele>2680.77</ele>
        <time>2018-09-09T10:14:45Z</time>
      </trkpt>
      <trkpt lat="44.74429" lon="6.87117">
        <ele>2676.93</ele>
        <time>2018-09-09T10:14:51Z</time>
      </trkpt>
      <trkpt lat="44.74429" lon="6.87114">
        <ele>2674.04</ele>
        <time>2018-09-09T10:14:55Z</time>
      </trkpt>
      <trkpt lat="44.74424" lon="6.87106">
        <ele>2673.08</ele>
        <time>2018-09-09T10:15:08Z</time>
      </trkpt>
      <trkpt lat="44.74421" lon="6.87104">
        <ele>2672.6</ele>
        <time>2018-09-09T10:15:15Z</time>
      </trkpt>
      <trkpt lat="44.74415" lon="6.87096">
        <ele>2669.72</ele>
        <time>2018-09-09T10:15:28Z</time>
      </trkpt>
      <trkpt lat="44.74414" lon="6.8709">
        <ele>2666.83</ele>
        <time>2018-09-09T10:15:34Z</time>
      </trkpt>
      <trkpt lat="44.74413" lon="6.87086">
        <ele>2664.43</ele>
        <time>2018-09-09T10:15:38Z</time>
      </trkpt>
      <trkpt lat="44.74407" lon="6.87081">
        <ele>2662.51</ele>
        <time>2018-09-09T10:15:50Z</time>
      </trkpt>
      <trkpt lat="44.74404" lon="6.8708">
        <ele>2662.03</ele>
        <time>2018-09-09T10:15:53Z</time>
      </trkpt>
      <trkpt lat="44.74401" lon="6.87072">
        <ele>2660.59</ele>
        <time>2018-09-09T10:16:04Z</time>
      </trkpt>
      <trkpt lat="44.74398" lon="6.87071">
        <ele>2659.62</ele>
        <time>2018-09-09T10:16:07Z</time>
      </trkpt>
      <trkpt lat="44.74391" lon="6.87063">
        <ele>2657.22</ele>
        <time>2018-09-09T10:16:19Z</time>
      </trkpt>
      <trkpt lat="44.74393" lon="6.87058">
        <ele>2652.9</ele>
        <time>2018-09-09T10:16:24Z</time>
      </trkpt>
      <trkpt lat="44.74388" lon="6.8705">
        <ele>2651.45</ele>
        <time>2018-09-09T10:16:36Z</time>
      </trkpt>
      <trkpt lat="44.74387" lon="6.87048">
        <ele>2650.97</ele>
        <time>2018-09-09T10:16:41Z</time>
      </trkpt>
      <trkpt lat="44.74379" lon="6.87041">
        <ele>2647.61</ele>
        <time>2018-09-09T10:16:54Z</time>
      </trkpt>
      <trkpt lat="44.74376" lon="6.87038">
        <ele>2644.24</ele>
        <time>2018-09-09T10:17:00Z</time>
      </trkpt>
      <trkpt lat="44.74374" lon="6.87035">
        <ele>2640.88</ele>
        <time>2018-09-09T10:17:06Z</time>
      </trkpt>
      <trkpt lat="44.74372" lon="6.8703">
        <ele>2640.88</ele>
        <time>2018-09-09T10:17:13Z</time>
      </trkpt>
      <trkpt lat="44.74369" lon="6.87021">
        <ele>2639.44</ele>
        <time>2018-09-09T10:17:27Z</time>
      </trkpt>
      <trkpt lat="44.74367" lon="6.8701">
        <ele>2636.55</ele>
        <time>2018-09-09T10:17:39Z</time>
      </trkpt>
      <trkpt lat="44.74365" lon="6.87002">
        <ele>2634.15</ele>
        <time>2018-09-09T10:17:51Z</time>
      </trkpt>
      <trkpt lat="44.74363" lon="6.86994">
        <ele>2631.27</ele>
        <time>2018-09-09T10:18:02Z</time>
      </trkpt>
      <trkpt lat="44.74359" lon="6.86987">
        <ele>2628.86</ele>
        <time>2018-09-09T10:18:14Z</time>
      </trkpt>
      <trkpt lat="44.74358" lon="6.86986">
        <ele>2625.98</ele>
        <time>2018-09-09T10:18:17Z</time>
      </trkpt>
      <trkpt lat="44.74355" lon="6.86983">
        <ele>2622.61</ele>
        <time>2018-09-09T10:18:24Z</time>
      </trkpt>
      <trkpt lat="44.7435" lon="6.86978">
        <ele>2622.61</ele>
        <time>2018-09-09T10:18:35Z</time>
      </trkpt>
      <trkpt lat="44.74347" lon="6.86971">
        <ele>2620.69</ele>
        <time>2018-09-09T10:18:44Z</time>
      </trkpt>
      <trkpt lat="44.74343" lon="6.86963">
        <ele>2618.29</ele>
        <time>2018-09-09T10:18:57Z</time>
      </trkpt>
      <trkpt lat="44.74336" lon="6.86956">
        <ele>2614.92</ele>
        <time>2018-09-09T10:19:08Z</time>
      </trkpt>
      <trkpt lat="44.74335" lon="6.86953">
        <ele>2612.04</ele>
        <time>2018-09-09T10:19:11Z</time>
      </trkpt>
      <trkpt lat="44.74333" lon="6.86948">
        <ele>2609.16</ele>
        <time>2018-09-09T10:19:15Z</time>
      </trkpt>
      <trkpt lat="44.74323" lon="6.86936">
        <ele>2607.71</ele>
        <time>2018-09-09T10:19:32Z</time>
      </trkpt>
      <trkpt lat="44.74322" lon="6.86932">
        <ele>2606.27</ele>
        <time>2018-09-09T10:19:36Z</time>
      </trkpt>
      <trkpt lat="44.74319" lon="6.86921">
        <ele>2602.91</ele>
        <time>2018-09-09T10:19:48Z</time>
      </trkpt>
      <trkpt lat="44.74317" lon="6.86919">
        <ele>2599.54</ele>
        <time>2018-09-09T10:19:52Z</time>
      </trkpt>
      <trkpt lat="44.74316" lon="6.86914">
        <ele>2597.14</ele>
        <time>2018-09-09T10:19:57Z</time>
      </trkpt>
      <trkpt lat="44.7431" lon="6.86902">
        <ele>2596.66</ele>
        <time>2018-09-09T10:20:13Z</time>
      </trkpt>
      <trkpt lat="44.7431" lon="6.86902">
        <ele>2596.18</ele>
        <time>2018-09-09T10:20:14Z</time>
      </trkpt>
      <trkpt lat="44.74302" lon="6.86906">
        <ele>2594.25</ele>
        <time>2018-09-09T10:20:23Z</time>
      </trkpt>
      <trkpt lat="44.74298" lon="6.869">
        <ele>2592.33</ele>
        <time>2018-09-09T10:20:31Z</time>
      </trkpt>
      <trkpt lat="44.74294" lon="6.86893">
        <ele>2589.45</ele>
        <time>2018-09-09T10:20:40Z</time>
      </trkpt>
      <trkpt lat="44.74291" lon="6.8689">
        <ele>2586.08</ele>
        <time>2018-09-09T10:20:44Z</time>
      </trkpt>
      <trkpt lat="44.7429" lon="6.86889">
        <ele>2585.6</ele>
        <time>2018-09-09T10:20:45Z</time>
      </trkpt>
      <trkpt lat="44.74288" lon="6.86873">
        <ele>2584.16</ele>
        <time>2018-09-09T10:21:01Z</time>
      </trkpt>
      <trkpt lat="44.74286" lon="6.86862">
        <ele>2581.28</ele>
        <time>2018-09-09T10:21:15Z</time>
      </trkpt>
      <trkpt lat="44.74284" lon="6.86861">
        <ele>2579.84</ele>
        <time>2018-09-09T10:21:18Z</time>
      </trkpt>
      <trkpt lat="44.74282" lon="6.86857">
        <ele>2577.43</ele>
        <time>2018-09-09T10:21:23Z</time>
      </trkpt>
      <trkpt lat="44.74283" lon="6.86852">
        <ele>2574.07</ele>
        <time>2018-09-09T10:21:28Z</time>
      </trkpt>
      <trkpt lat="44.74278" lon="6.86843">
        <ele>2572.14</ele>
        <time>2018-09-09T10:21:42Z</time>
      </trkpt>
      <trkpt lat="44.74272" lon="6.86835">
        <ele>2569.74</ele>
        <time>2018-09-09T10:21:55Z</time>
      </trkpt>
      <trkpt lat="44.74266" lon="6.86832">
        <ele>2565.9</ele>
        <time>2018-09-09T10:22:03Z</time>
      </trkpt>
      <trkpt lat="44.74263" lon="6.86829">
        <ele>2563.01</ele>
        <time>2018-09-09T10:22:07Z</time>
      </trkpt>
      <trkpt lat="44.74263" lon="6.86828">
        <ele>2562.53</ele>
        <time>2018-09-09T10:22:08Z</time>
      </trkpt>
      <trkpt lat="44.74257" lon="6.86822">
        <ele>2561.57</ele>
        <time>2018-09-09T10:22:17Z</time>
      </trkpt>
      <trkpt lat="44.74257" lon="6.86819">
        <ele>2561.57</ele>
        <time>2018-09-09T10:22:19Z</time>
      </trkpt>
      <trkpt lat="44.74265" lon="6.86807">
        <ele>2559.17</ele>
        <time>2018-09-09T10:22:34Z</time>
      </trkpt>
      <trkpt lat="44.74265" lon="6.86796">
        <ele>2556.28</ele>
        <time>2018-09-09T10:22:47Z</time>
      </trkpt>
      <trkpt lat="44.74267" lon="6.8679">
        <ele>2552.92</ele>
        <time>2018-09-09T10:22:51Z</time>
      </trkpt>
      <trkpt lat="44.74271" lon="6.86785">
        <ele>2549.55</ele>
        <time>2018-09-09T10:22:57Z</time>
      </trkpt>
      <trkpt lat="44.74272" lon="6.86779">
        <ele>2549.55</ele>
        <time>2018-09-09T10:23:01Z</time>
      </trkpt>
      <trkpt lat="44.74277" lon="6.86766">
        <ele>2549.55</ele>
        <time>2018-09-09T10:23:11Z</time>
      </trkpt>
      <trkpt lat="44.74281" lon="6.86742">
        <ele>2547.63</ele>
        <time>2018-09-09T10:23:27Z</time>
      </trkpt>
      <trkpt lat="44.74278" lon="6.86741">
        <ele>2546.19</ele>
        <time>2018-09-09T10:23:33Z</time>
      </trkpt>
      <trkpt lat="44.7427" lon="6.86746">
        <ele>2543.79</ele>
        <time>2018-09-09T10:23:48Z</time>
      </trkpt>
      <trkpt lat="44.74253" lon="6.86751">
        <ele>2541.38</ele>
        <time>2018-09-09T10:24:03Z</time>
      </trkpt>
      <trkpt lat="44.7425" lon="6.86752">
        <ele>2540.42</ele>
        <time>2018-09-09T10:24:14Z</time>
      </trkpt>
      <trkpt lat="44.74242" lon="6.86756">
        <ele>2539.94</ele>
        <time>2018-09-09T10:24:25Z</time>
      </trkpt>
      <trkpt lat="44.7423" lon="6.86762">
        <ele>2538.02</ele>
        <time>2018-09-09T10:24:39Z</time>
      </trkpt>
      <trkpt lat="44.74227" lon="6.86761">
        <ele>2537.54</ele>
        <time>2018-09-09T10:24:43Z</time>
      </trkpt>
      <trkpt lat="44.74225" lon="6.86761">
        <ele>2537.06</ele>
        <time>2018-09-09T10:24:46Z</time>
      </trkpt>
      <trkpt lat="44.74211" lon="6.86768">
        <ele>2533.69</ele>
        <time>2018-09-09T10:25:00Z</time>
      </trkpt>
      <trkpt lat="44.74205" lon="6.86774">
        <ele>2530.81</ele>
        <time>2018-09-09T10:25:13Z</time>
      </trkpt>
      <trkpt lat="44.742" lon="6.86777">
        <ele>2529.85</ele>
        <time>2018-09-09T10:25:18Z</time>
      </trkpt>
      <trkpt lat="44.74184" lon="6.86769">
        <ele>2526.96</ele>
        <time>2018-09-09T10:25:33Z</time>
      </trkpt>
      <trkpt lat="44.74184" lon="6.86768">
        <ele>2526.48</ele>
        <time>2018-09-09T10:25:34Z</time>
      </trkpt>
      <trkpt lat="44.74172" lon="6.86764">
        <ele>2523.6</ele>
        <time>2018-09-09T10:25:46Z</time>
      </trkpt>
      <trkpt lat="44.74168" lon="6.86763">
        <ele>2520.23</ele>
        <time>2018-09-09T10:25:50Z</time>
      </trkpt>
      <trkpt lat="44.74165" lon="6.86762">
        <ele>2517.83</ele>
        <time>2018-09-09T10:25:53Z</time>
      </trkpt>
      <trkpt lat="44.74163" lon="6.86761">
        <ele>2516.87</ele>
        <time>2018-09-09T10:26:06Z</time>
      </trkpt>
      <trkpt lat="44.74162" lon="6.86761">
        <ele>2516.87</ele>
        <time>2018-09-09T10:26:07Z</time>
      </trkpt>
      <trkpt lat="44.74159" lon="6.86757">
        <ele>2516.87</ele>
        <time>2018-09-09T10:26:11Z</time>
      </trkpt>
      <trkpt lat="44.74159" lon="6.86754">
        <ele>2516.87</ele>
        <time>2018-09-09T10:26:13Z</time>
      </trkpt>
      <trkpt lat="44.74168" lon="6.86733">
        <ele>2515.43</ele>
        <time>2018-09-09T10:26:28Z</time>
      </trkpt>
      <trkpt lat="44.74168" lon="6.86725">
        <ele>2512.06</ele>
        <time>2018-09-09T10:26:37Z</time>
      </trkpt>
      <trkpt lat="44.74169" lon="6.86723">
        <ele>2510.14</ele>
        <time>2018-09-09T10:26:39Z</time>
      </trkpt>
      <trkpt lat="44.7417" lon="6.8672">
        <ele>2507.26</ele>
        <time>2018-09-09T10:26:42Z</time>
      </trkpt>
      <trkpt lat="44.74175" lon="6.8671">
        <ele>2504.37</ele>
        <time>2018-09-09T10:26:50Z</time>
      </trkpt>
      <trkpt lat="44.74182" lon="6.86694">
        <ele>2505.33</ele>
        <time>2018-09-09T10:27:03Z</time>
      </trkpt>
      <trkpt lat="44.74191" lon="6.86692">
        <ele>2505.33</ele>
        <time>2018-09-09T10:27:11Z</time>
      </trkpt>
      <trkpt lat="44.74193" lon="6.86689">
        <ele>2503.89</ele>
        <time>2018-09-09T10:27:14Z</time>
      </trkpt>
      <trkpt lat="44.74204" lon="6.86677">
        <ele>2503.41</ele>
        <time>2018-09-09T10:27:27Z</time>
      </trkpt>
      <trkpt lat="44.74216" lon="6.86661">
        <ele>2502.93</ele>
        <time>2018-09-09T10:27:41Z</time>
      </trkpt>
      <trkpt lat="44.74224" lon="6.86639">
        <ele>2501.01</ele>
        <time>2018-09-09T10:27:57Z</time>
      </trkpt>
      <trkpt lat="44.74235" lon="6.86618">
        <ele>2498.12</ele>
        <time>2018-09-09T10:28:13Z</time>
      </trkpt>
      <trkpt lat="44.74244" lon="6.86598">
        <ele>2497.16</ele>
        <time>2018-09-09T10:28:27Z</time>
      </trkpt>
      <trkpt lat="44.74249" lon="6.86594">
        <ele>2496.68</ele>
        <time>2018-09-09T10:28:32Z</time>
      </trkpt>
      <trkpt lat="44.74263" lon="6.86572">
        <ele>2494.76</ele>
        <time>2018-09-09T10:28:51Z</time>
      </trkpt>
      <trkpt lat="44.74264" lon="6.86569">
        <ele>2494.28</ele>
        <time>2018-09-09T10:28:53Z</time>
      </trkpt>
      <trkpt lat="44.74269" lon="6.86564">
        <ele>2492.84</ele>
        <time>2018-09-09T10:28:58Z</time>
      </trkpt>
      <trkpt lat="44.74276" lon="6.86561">
        <ele>2491.87</ele>
        <time>2018-09-09T10:29:05Z</time>
      </trkpt>
      <trkpt lat="44.74292" lon="6.86558">
        <ele>2491.39</ele>
        <time>2018-09-09T10:29:19Z</time>
      </trkpt>
      <trkpt lat="44.74296" lon="6.86558">
        <ele>2491.39</ele>
        <time>2018-09-09T10:29:23Z</time>
      </trkpt>
      <trkpt lat="44.74298" lon="6.86558">
        <ele>2491.39</ele>
        <time>2018-09-09T10:29:25Z</time>
      </trkpt>
      <trkpt lat="44.74304" lon="6.86557">
        <ele>2491.39</ele>
        <time>2018-09-09T10:29:31Z</time>
      </trkpt>
      <trkpt lat="44.74308" lon="6.86557">
        <ele>2490.91</ele>
        <time>2018-09-09T10:29:35Z</time>
      </trkpt>
      <trkpt lat="44.74324" lon="6.86556">
        <ele>2490.91</ele>
        <time>2018-09-09T10:29:50Z</time>
      </trkpt>
      <trkpt lat="44.74334" lon="6.86556">
        <ele>2490.91</ele>
        <time>2018-09-09T10:30:01Z</time>
      </trkpt>
      <trkpt lat="44.74349" lon="6.86556">
        <ele>2490.91</ele>
        <time>2018-09-09T10:30:15Z</time>
      </trkpt>
      <trkpt lat="44.74354" lon="6.86558">
        <ele>2490.91</ele>
        <time>2018-09-09T10:30:20Z</time>
      </trkpt>
      <trkpt lat="44.74361" lon="6.86559">
        <ele>2489.95</ele>
        <time>2018-09-09T10:30:26Z</time>
      </trkpt>
      <trkpt lat="44.74375" lon="6.86556">
        <ele>2489.95</ele>
        <time>2018-09-09T10:30:40Z</time>
      </trkpt>
      <trkpt lat="44.74384" lon="6.8656">
        <ele>2488.99</ele>
        <time>2018-09-09T10:30:48Z</time>
      </trkpt>
      <trkpt lat="44.74393" lon="6.86558">
        <ele>2488.03</ele>
        <time>2018-09-09T10:31:02Z</time>
      </trkpt>
      <trkpt lat="44.74393" lon="6.86558">
        <ele>2487.55</ele>
        <time>2018-09-09T10:31:15Z</time>
      </trkpt>
      <trkpt lat="44.74394" lon="6.86558">
        <ele>2487.07</ele>
        <time>2018-09-09T10:31:35Z</time>
      </trkpt>
      <trkpt lat="44.74396" lon="6.86558">
        <ele>2486.59</ele>
        <time>2018-09-09T10:31:46Z</time>
      </trkpt>
      <trkpt lat="44.744" lon="6.86544">
        <ele>2486.59</ele>
        <time>2018-09-09T10:32:00Z</time>
      </trkpt>
      <trkpt lat="44.74399" lon="6.86544">
        <ele>2486.11</ele>
        <time>2018-09-09T10:32:02Z</time>
      </trkpt>
      <trkpt lat="44.74396" lon="6.86538">
        <ele>2484.18</ele>
        <time>2018-09-09T10:32:13Z</time>
      </trkpt>
      <trkpt lat="44.74393" lon="6.86531">
        <ele>2480.82</ele>
        <time>2018-09-09T10:32:21Z</time>
      </trkpt>
      <trkpt lat="44.74391" lon="6.8653">
        <ele>2477.45</ele>
        <time>2018-09-09T10:32:26Z</time>
      </trkpt>
      <trkpt lat="44.74385" lon="6.86528">
        <ele>2476.97</ele>
        <time>2018-09-09T10:32:35Z</time>
      </trkpt>
      <trkpt lat="44.7438" lon="6.86526">
        <ele>2476.97</ele>
        <time>2018-09-09T10:32:39Z</time>
      </trkpt>
      <trkpt lat="44.74367" lon="6.86523">
        <ele>2475.53</ele>
        <time>2018-09-09T10:32:51Z</time>
      </trkpt>
      <trkpt lat="44.74365" lon="6.86521">
        <ele>2475.53</ele>
        <time>2018-09-09T10:32:53Z</time>
      </trkpt>
      <trkpt lat="44.74363" lon="6.86517">
        <ele>2475.05</ele>
        <time>2018-09-09T10:32:58Z</time>
      </trkpt>
      <trkpt lat="44.74357" lon="6.86513">
        <ele>2472.65</ele>
        <time>2018-09-09T10:33:07Z</time>
      </trkpt>
      <trkpt lat="44.74353" lon="6.86505">
        <ele>2471.21</ele>
        <time>2018-09-09T10:33:14Z</time>
      </trkpt>
      <trkpt lat="44.7435" lon="6.86492">
        <ele>2468.32</ele>
        <time>2018-09-09T10:33:26Z</time>
      </trkpt>
      <trkpt lat="44.74349" lon="6.86487">
        <ele>2464.96</ele>
        <time>2018-09-09T10:33:30Z</time>
      </trkpt>
      <trkpt lat="44.74348" lon="6.86485">
        <ele>2461.59</ele>
        <time>2018-09-09T10:33:36Z</time>
      </trkpt>
      <trkpt lat="44.74347" lon="6.86485">
        <ele>2462.55</ele>
        <time>2018-09-09T10:33:54Z</time>
      </trkpt>
      <trkpt lat="44.74347" lon="6.86487">
        <ele>2462.55</ele>
        <time>2018-09-09T10:34:19Z</time>
      </trkpt>
      <trkpt lat="44.74345" lon="6.86485">
        <ele>2462.55</ele>
        <time>2018-09-09T10:34:22Z</time>
      </trkpt>
      <trkpt lat="44.7434" lon="6.86482">
        <ele>2462.55</ele>
        <time>2018-09-09T10:34:27Z</time>
      </trkpt>
      <trkpt lat="44.7434" lon="6.86478">
        <ele>2462.55</ele>
        <time>2018-09-09T10:34:31Z</time>
      </trkpt>
      <trkpt lat="44.7433" lon="6.86469">
        <ele>2457.75</ele>
        <time>2018-09-09T10:34:42Z</time>
      </trkpt>
      <trkpt lat="44.74327" lon="6.86468">
        <ele>2454.86</ele>
        <time>2018-09-09T10:34:45Z</time>
      </trkpt>
      <trkpt lat="44.74326" lon="6.86467">
        <ele>2453.9</ele>
        <time>2018-09-09T10:34:47Z</time>
      </trkpt>
      <trkpt lat="44.74324" lon="6.86458">
        <ele>2451.98</ele>
        <time>2018-09-09T10:34:54Z</time>
      </trkpt>
      <trkpt lat="44.74323" lon="6.86454">
        <ele>2451.98</ele>
        <time>2018-09-09T10:34:57Z</time>
      </trkpt>
      <trkpt lat="44.7431" lon="6.86441">
        <ele>2448.62</ele>
        <time>2018-09-09T10:35:13Z</time>
      </trkpt>
      <trkpt lat="44.74308" lon="6.86439">
        <ele>2446.21</ele>
        <time>2018-09-09T10:35:16Z</time>
      </trkpt>
      <trkpt lat="44.7431" lon="6.86434">
        <ele>2442.37</ele>
        <time>2018-09-09T10:35:21Z</time>
      </trkpt>
      <trkpt lat="44.7431" lon="6.86433">
        <ele>2441.89</ele>
        <time>2018-09-09T10:35:22Z</time>
      </trkpt>
      <trkpt lat="44.74308" lon="6.86418">
        <ele>2441.41</ele>
        <time>2018-09-09T10:35:32Z</time>
      </trkpt>
      <trkpt lat="44.74302" lon="6.86403">
        <ele>2438.04</ele>
        <time>2018-09-09T10:35:46Z</time>
      </trkpt>
      <trkpt lat="44.743" lon="6.86402">
        <ele>2437.56</ele>
        <time>2018-09-09T10:35:48Z</time>
      </trkpt>
      <trkpt lat="44.74297" lon="6.86398">
        <ele>2432.75</ele>
        <time>2018-09-09T10:35:53Z</time>
      </trkpt>
      <trkpt lat="44.74292" lon="6.86395">
        <ele>2429.87</ele>
        <time>2018-09-09T10:35:59Z</time>
      </trkpt>
      <trkpt lat="44.74279" lon="6.86381">
        <ele>2428.91</ele>
        <time>2018-09-09T10:36:15Z</time>
      </trkpt>
      <trkpt lat="44.74271" lon="6.86373">
        <ele>2425.06</ele>
        <time>2018-09-09T10:36:28Z</time>
      </trkpt>
      <trkpt lat="44.74268" lon="6.8637">
        <ele>2422.18</ele>
        <time>2018-09-09T10:36:32Z</time>
      </trkpt>
      <trkpt lat="44.74265" lon="6.86365">
        <ele>2418.81</ele>
        <time>2018-09-09T10:36:38Z</time>
      </trkpt>
      <trkpt lat="44.74256" lon="6.86354">
        <ele>2418.33</ele>
        <time>2018-09-09T10:36:51Z</time>
      </trkpt>
      <trkpt lat="44.74256" lon="6.86353">
        <ele>2418.33</ele>
        <time>2018-09-09T10:36:52Z</time>
      </trkpt>
      <trkpt lat="44.74244" lon="6.86344">
        <ele>2414.01</ele>
        <time>2018-09-09T10:37:08Z</time>
      </trkpt>
      <trkpt lat="44.74241" lon="6.86342">
        <ele>2412.57</ele>
        <time>2018-09-09T10:37:11Z</time>
      </trkpt>
      <trkpt lat="44.74236" lon="6.8634">
        <ele>2408.72</ele>
        <time>2018-09-09T10:37:16Z</time>
      </trkpt>
      <trkpt lat="44.7422" lon="6.86331">
        <ele>2407.76</ele>
        <time>2018-09-09T10:37:31Z</time>
      </trkpt>
      <trkpt lat="44.74215" lon="6.86328">
        <ele>2407.76</ele>
        <time>2018-09-09T10:37:36Z</time>
      </trkpt>
      <trkpt lat="44.74212" lon="6.86321">
        <ele>2407.28</ele>
        <time>2018-09-09T10:37:42Z</time>
      </trkpt>
      <trkpt lat="44.74209" lon="6.86311">
        <ele>2405.84</ele>
        <time>2018-09-09T10:37:48Z</time>
      </trkpt>
      <trkpt lat="44.74203" lon="6.86303">
        <ele>2404.39</ele>
        <time>2018-09-09T10:37:57Z</time>
      </trkpt>
      <trkpt lat="44.74202" lon="6.86297">
        <ele>2403.43</ele>
        <time>2018-09-09T10:38:01Z</time>
      </trkpt>
      <trkpt lat="44.74205" lon="6.86282">
        <ele>2401.99</ele>
        <time>2018-09-09T10:38:10Z</time>
      </trkpt>
      <trkpt lat="44.74216" lon="6.86264">
        <ele>2398.15</ele>
        <time>2018-09-09T10:38:25Z</time>
      </trkpt>
      <trkpt lat="44.74225" lon="6.86243">
        <ele>2395.74</ele>
        <time>2018-09-09T10:38:39Z</time>
      </trkpt>
      <trkpt lat="44.74228" lon="6.86237">
        <ele>2394.3</ele>
        <time>2018-09-09T10:38:44Z</time>
      </trkpt>
      <trkpt lat="44.74226" lon="6.86226">
        <ele>2392.38</ele>
        <time>2018-09-09T10:38:52Z</time>
      </trkpt>
      <trkpt lat="44.74213" lon="6.8622">
        <ele>2389.49</ele>
        <time>2018-09-09T10:39:05Z</time>
      </trkpt>
      <trkpt lat="44.742" lon="6.86214">
        <ele>2386.13</ele>
        <time>2018-09-09T10:39:20Z</time>
      </trkpt>
      <trkpt lat="44.74195" lon="6.86212">
        <ele>2383.25</ele>
        <time>2018-09-09T10:39:26Z</time>
      </trkpt>
      <trkpt lat="44.74195" lon="6.86212">
        <ele>2382.28</ele>
        <time>2018-09-09T10:39:27Z</time>
      </trkpt>
      <trkpt lat="44.74188" lon="6.86212">
        <ele>2377.96</ele>
        <time>2018-09-09T10:39:34Z</time>
      </trkpt>
      <trkpt lat="44.74184" lon="6.86207">
        <ele>2377.96</ele>
        <time>2018-09-09T10:39:46Z</time>
      </trkpt>
      <trkpt lat="44.74183" lon="6.86206">
        <ele>2377.96</ele>
        <time>2018-09-09T10:39:47Z</time>
      </trkpt>
      <trkpt lat="44.74177" lon="6.86203">
        <ele>2377</ele>
        <time>2018-09-09T10:39:52Z</time>
      </trkpt>
      <trkpt lat="44.74169" lon="6.86199">
        <ele>2376.04</ele>
        <time>2018-09-09T10:40:00Z</time>
      </trkpt>
      <trkpt lat="44.74166" lon="6.86196">
        <ele>2374.11</ele>
        <time>2018-09-09T10:40:04Z</time>
      </trkpt>
      <trkpt lat="44.74159" lon="6.86188">
        <ele>2370.75</ele>
        <time>2018-09-09T10:40:12Z</time>
      </trkpt>
      <trkpt lat="44.74157" lon="6.86183">
        <ele>2367.38</ele>
        <time>2018-09-09T10:40:16Z</time>
      </trkpt>
      <trkpt lat="44.74143" lon="6.86167">
        <ele>2366.42</ele>
        <time>2018-09-09T10:40:32Z</time>
      </trkpt>
      <trkpt lat="44.7413" lon="6.86149">
        <ele>2363.06</ele>
        <time>2018-09-09T10:40:48Z</time>
      </trkpt>
      <trkpt lat="44.74124" lon="6.86145">
        <ele>2361.14</ele>
        <time>2018-09-09T10:40:55Z</time>
      </trkpt>
      <trkpt lat="44.74119" lon="6.86139">
        <ele>2358.73</ele>
        <time>2018-09-09T10:41:01Z</time>
      </trkpt>
      <trkpt lat="44.74115" lon="6.86135">
        <ele>2355.37</ele>
        <time>2018-09-09T10:41:05Z</time>
      </trkpt>
      <trkpt lat="44.74114" lon="6.86133">
        <ele>2353.93</ele>
        <time>2018-09-09T10:41:07Z</time>
      </trkpt>
      <trkpt lat="44.74111" lon="6.86121">
        <ele>2352.96</ele>
        <time>2018-09-09T10:41:16Z</time>
      </trkpt>
      <trkpt lat="44.74109" lon="6.86113">
        <ele>2352.48</ele>
        <time>2018-09-09T10:41:21Z</time>
      </trkpt>
      <trkpt lat="44.74102" lon="6.86088">
        <ele>2348.64</ele>
        <time>2018-09-09T10:41:36Z</time>
      </trkpt>
      <trkpt lat="44.74099" lon="6.86079">
        <ele>2345.27</ele>
        <time>2018-09-09T10:41:41Z</time>
      </trkpt>
      <trkpt lat="44.74097" lon="6.86073">
        <ele>2344.31</ele>
        <time>2018-09-09T10:41:45Z</time>
      </trkpt>
      <trkpt lat="44.74091" lon="6.86047">
        <ele>2345.27</ele>
        <time>2018-09-09T10:42:01Z</time>
      </trkpt>
      <trkpt lat="44.74088" lon="6.86022">
        <ele>2345.27</ele>
        <time>2018-09-09T10:42:16Z</time>
      </trkpt>
      <trkpt lat="44.74094" lon="6.86001">
        <ele>2344.31</ele>
        <time>2018-09-09T10:42:31Z</time>
      </trkpt>
      <trkpt lat="44.7409" lon="6.85994">
        <ele>2341.91</ele>
        <time>2018-09-09T10:42:39Z</time>
      </trkpt>
      <trkpt lat="44.74087" lon="6.85988">
        <ele>2338.54</ele>
        <time>2018-09-09T10:42:46Z</time>
      </trkpt>
      <trkpt lat="44.74084" lon="6.85983">
        <ele>2335.18</ele>
        <time>2018-09-09T10:42:51Z</time>
      </trkpt>
      <trkpt lat="44.74078" lon="6.85966">
        <ele>2333.26</ele>
        <time>2018-09-09T10:43:06Z</time>
      </trkpt>
      <trkpt lat="44.74077" lon="6.85964">
        <ele>2333.26</ele>
        <time>2018-09-09T10:43:08Z</time>
      </trkpt>
      <trkpt lat="44.74074" lon="6.85955">
        <ele>2331.33</ele>
        <time>2018-09-09T10:43:16Z</time>
      </trkpt>
      <trkpt lat="44.74069" lon="6.85942">
        <ele>2327.97</ele>
        <time>2018-09-09T10:43:26Z</time>
      </trkpt>
      <trkpt lat="44.74068" lon="6.85937">
        <ele>2324.12</ele>
        <time>2018-09-09T10:43:30Z</time>
      </trkpt>
      <trkpt lat="44.74059" lon="6.85921">
        <ele>2321.72</ele>
        <time>2018-09-09T10:43:45Z</time>
      </trkpt>
      <trkpt lat="44.74047" lon="6.85903">
        <ele>2318.36</ele>
        <time>2018-09-09T10:44:01Z</time>
      </trkpt>
      <trkpt lat="44.74035" lon="6.8589">
        <ele>2314.99</ele>
        <time>2018-09-09T10:44:15Z</time>
      </trkpt>
      <trkpt lat="44.74032" lon="6.85885">
        <ele>2311.15</ele>
        <time>2018-09-09T10:44:20Z</time>
      </trkpt>
      <trkpt lat="44.74028" lon="6.85881">
        <ele>2308.26</ele>
        <time>2018-09-09T10:44:24Z</time>
      </trkpt>
      <trkpt lat="44.74024" lon="6.85877">
        <ele>2307.3</ele>
        <time>2018-09-09T10:44:38Z</time>
      </trkpt>
      <trkpt lat="44.74024" lon="6.85876">
        <ele>2307.3</ele>
        <time>2018-09-09T10:45:06Z</time>
      </trkpt>
      <trkpt lat="44.74024" lon="6.85876">
        <ele>2307.3</ele>
        <time>2018-09-09T10:45:24Z</time>
      </trkpt>
      <trkpt lat="44.74024" lon="6.8587">
        <ele>2307.3</ele>
        <time>2018-09-09T10:45:29Z</time>
      </trkpt>
      <trkpt lat="44.74028" lon="6.85846">
        <ele>2304.42</ele>
        <time>2018-09-09T10:45:44Z</time>
      </trkpt>
      <trkpt lat="44.74043" lon="6.85824">
        <ele>2301.53</ele>
        <time>2018-09-09T10:46:02Z</time>
      </trkpt>
      <trkpt lat="44.74057" lon="6.85811">
        <ele>2300.09</ele>
        <time>2018-09-09T10:46:18Z</time>
      </trkpt>
      <trkpt lat="44.74063" lon="6.85806">
        <ele>2299.13</ele>
        <time>2018-09-09T10:46:30Z</time>
      </trkpt>
      <trkpt lat="44.74075" lon="6.85787">
        <ele>2296.25</ele>
        <time>2018-09-09T10:46:46Z</time>
      </trkpt>
      <trkpt lat="44.74083" lon="6.85779">
        <ele>2292.88</ele>
        <time>2018-09-09T10:46:55Z</time>
      </trkpt>
      <trkpt lat="44.74086" lon="6.85772">
        <ele>2288.56</ele>
        <time>2018-09-09T10:47:00Z</time>
      </trkpt>
      <trkpt lat="44.74088" lon="6.85747">
        <ele>2285.67</ele>
        <time>2018-09-09T10:47:17Z</time>
      </trkpt>
      <trkpt lat="44.74089" lon="6.85728">
        <ele>2283.27</ele>
        <time>2018-09-09T10:47:31Z</time>
      </trkpt>
      <trkpt lat="44.74088" lon="6.8572">
        <ele>2279.9</ele>
        <time>2018-09-09T10:47:37Z</time>
      </trkpt>
      <trkpt lat="44.7409" lon="6.85716">
        <ele>2276.54</ele>
        <time>2018-09-09T10:47:41Z</time>
      </trkpt>
      <trkpt lat="44.74085" lon="6.85704">
        <ele>2274.62</ele>
        <time>2018-09-09T10:47:55Z</time>
      </trkpt>
      <trkpt lat="44.74078" lon="6.85691">
        <ele>2271.25</ele>
        <time>2018-09-09T10:48:10Z</time>
      </trkpt>
      <trkpt lat="44.74077" lon="6.85687">
        <ele>2269.81</ele>
        <time>2018-09-09T10:48:14Z</time>
      </trkpt>
      <trkpt lat="44.74076" lon="6.8568">
        <ele>2265</ele>
        <time>2018-09-09T10:48:19Z</time>
      </trkpt>
      <trkpt lat="44.74073" lon="6.85666">
        <ele>2262.12</ele>
        <time>2018-09-09T10:48:32Z</time>
      </trkpt>
      <trkpt lat="44.74072" lon="6.85664">
        <ele>2262.12</ele>
        <time>2018-09-09T10:48:34Z</time>
      </trkpt>
      <trkpt lat="44.74066" lon="6.85648">
        <ele>2258.75</ele>
        <time>2018-09-09T10:48:46Z</time>
      </trkpt>
      <trkpt lat="44.74065" lon="6.85644">
        <ele>2255.39</ele>
        <time>2018-09-09T10:48:50Z</time>
      </trkpt>
      <trkpt lat="44.74062" lon="6.85633">
        <ele>2252.51</ele>
        <time>2018-09-09T10:49:05Z</time>
      </trkpt>
      <trkpt lat="44.7406" lon="6.85629">
        <ele>2252.51</ele>
        <time>2018-09-09T10:49:16Z</time>
      </trkpt>
      <trkpt lat="44.74054" lon="6.85613">
        <ele>2249.14</ele>
        <time>2018-09-09T10:49:33Z</time>
      </trkpt>
      <trkpt lat="44.74054" lon="6.85612">
        <ele>2249.62</ele>
        <time>2018-09-09T10:49:34Z</time>
      </trkpt>
      <trkpt lat="44.74053" lon="6.85607">
        <ele>2244.33</ele>
        <time>2018-09-09T10:49:39Z</time>
      </trkpt>
      <trkpt lat="44.74049" lon="6.85596">
        <ele>2241.93</ele>
        <time>2018-09-09T10:49:53Z</time>
      </trkpt>
      <trkpt lat="44.74047" lon="6.85585">
        <ele>2239.53</ele>
        <time>2018-09-09T10:50:06Z</time>
      </trkpt>
      <trkpt lat="44.74044" lon="6.85582">
        <ele>2236.16</ele>
        <time>2018-09-09T10:50:11Z</time>
      </trkpt>
      <trkpt lat="44.74042" lon="6.85579">
        <ele>2232.8</ele>
        <time>2018-09-09T10:50:15Z</time>
      </trkpt>
      <trkpt lat="44.74043" lon="6.85569">
        <ele>2231.84</ele>
        <time>2018-09-09T10:50:26Z</time>
      </trkpt>
      <trkpt lat="44.74041" lon="6.85567">
        <ele>2231.36</ele>
        <time>2018-09-09T10:50:29Z</time>
      </trkpt>
      <trkpt lat="44.74043" lon="6.8556">
        <ele>2230.88</ele>
        <time>2018-09-09T10:50:34Z</time>
      </trkpt>
      <trkpt lat="44.74036" lon="6.8554">
        <ele>2226.55</ele>
        <time>2018-09-09T10:50:48Z</time>
      </trkpt>
      <trkpt lat="44.74034" lon="6.85539">
        <ele>2224.15</ele>
        <time>2018-09-09T10:50:51Z</time>
      </trkpt>
      <trkpt lat="44.74029" lon="6.85526">
        <ele>2221.26</ele>
        <time>2018-09-09T10:51:06Z</time>
      </trkpt>
      <trkpt lat="44.74025" lon="6.85514">
        <ele>2217.9</ele>
        <time>2018-09-09T10:51:20Z</time>
      </trkpt>
      <trkpt lat="44.74026" lon="6.85506">
        <ele>2214.53</ele>
        <time>2018-09-09T10:51:27Z</time>
      </trkpt>
      <trkpt lat="44.74027" lon="6.85502">
        <ele>2211.17</ele>
        <time>2018-09-09T10:51:31Z</time>
      </trkpt>
      <trkpt lat="44.74026" lon="6.85493">
        <ele>2210.21</ele>
        <time>2018-09-09T10:51:42Z</time>
      </trkpt>
      <trkpt lat="44.74024" lon="6.85484">
        <ele>2207.81</ele>
        <time>2018-09-09T10:51:57Z</time>
      </trkpt>
      <trkpt lat="44.74023" lon="6.85482">
        <ele>2207.81</ele>
        <time>2018-09-09T10:51:59Z</time>
      </trkpt>
      <trkpt lat="44.74021" lon="6.8548">
        <ele>2206.36</ele>
        <time>2018-09-09T10:52:03Z</time>
      </trkpt>
      <trkpt lat="44.74014" lon="6.85467">
        <ele>2203.96</ele>
        <time>2018-09-09T10:52:15Z</time>
      </trkpt>
      <trkpt lat="44.74002" lon="6.85456">
        <ele>2200.59</ele>
        <time>2018-09-09T10:52:30Z</time>
      </trkpt>
      <trkpt lat="44.74001" lon="6.85455">
        <ele>2200.59</ele>
        <time>2018-09-09T10:52:31Z</time>
      </trkpt>
      <trkpt lat="44.73993" lon="6.85447">
        <ele>2196.27</ele>
        <time>2018-09-09T10:52:42Z</time>
      </trkpt>
      <trkpt lat="44.73992" lon="6.85446">
        <ele>2195.31</ele>
        <time>2018-09-09T10:52:43Z</time>
      </trkpt>
      <trkpt lat="44.73989" lon="6.85444">
        <ele>2192.9</ele>
        <time>2018-09-09T10:52:46Z</time>
      </trkpt>
      <trkpt lat="44.73977" lon="6.8543">
        <ele>2189.54</ele>
        <time>2018-09-09T10:53:03Z</time>
      </trkpt>
      <trkpt lat="44.73976" lon="6.85424">
        <ele>2187.62</ele>
        <time>2018-09-09T10:53:15Z</time>
      </trkpt>
      <trkpt lat="44.73976" lon="6.85425">
        <ele>2186.18</ele>
        <time>2018-09-09T10:53:39Z</time>
      </trkpt>
      <trkpt lat="44.73974" lon="6.85422">
        <ele>2186.18</ele>
        <time>2018-09-09T10:53:58Z</time>
      </trkpt>
      <trkpt lat="44.73974" lon="6.85412">
        <ele>2184.73</ele>
        <time>2018-09-09T10:54:05Z</time>
      </trkpt>
      <trkpt lat="44.73965" lon="6.85388">
        <ele>2182.33</ele>
        <time>2018-09-09T10:54:21Z</time>
      </trkpt>
      <trkpt lat="44.73965" lon="6.85364">
        <ele>2180.41</ele>
        <time>2018-09-09T10:54:36Z</time>
      </trkpt>
      <trkpt lat="44.73966" lon="6.85354">
        <ele>2179.45</ele>
        <time>2018-09-09T10:54:43Z</time>
      </trkpt>
      <trkpt lat="44.73964" lon="6.85343">
        <ele>2175.12</ele>
        <time>2018-09-09T10:54:51Z</time>
      </trkpt>
      <trkpt lat="44.73963" lon="6.85339">
        <ele>2172.24</ele>
        <time>2018-09-09T10:54:54Z</time>
      </trkpt>
      <trkpt lat="44.73962" lon="6.85331">
        <ele>2169.35</ele>
        <time>2018-09-09T10:54:59Z</time>
      </trkpt>
      <trkpt lat="44.73958" lon="6.85319">
        <ele>2168.87</ele>
        <time>2018-09-09T10:55:10Z</time>
      </trkpt>
      <trkpt lat="44.73957" lon="6.85317">
        <ele>2168.87</ele>
        <time>2018-09-09T10:55:12Z</time>
      </trkpt>
      <trkpt lat="44.73957" lon="6.85304">
        <ele>2164.55</ele>
        <time>2018-09-09T10:55:21Z</time>
      </trkpt>
      <trkpt lat="44.73958" lon="6.85297">
        <ele>2161.18</ele>
        <time>2018-09-09T10:55:25Z</time>
      </trkpt>
      <trkpt lat="44.73955" lon="6.85286">
        <ele>2160.22</ele>
        <time>2018-09-09T10:55:32Z</time>
      </trkpt>
      <trkpt lat="44.73953" lon="6.85282">
        <ele>2160.22</ele>
        <time>2018-09-09T10:55:35Z</time>
      </trkpt>
      <trkpt lat="44.73952" lon="6.85275">
        <ele>2159.74</ele>
        <time>2018-09-09T10:55:40Z</time>
      </trkpt>
      <trkpt lat="44.73952" lon="6.8527">
        <ele>2159.74</ele>
        <time>2018-09-09T10:55:43Z</time>
      </trkpt>
      <trkpt lat="44.73947" lon="6.85257">
        <ele>2157.82</ele>
        <time>2018-09-09T10:55:52Z</time>
      </trkpt>
      <trkpt lat="44.73938" lon="6.85236">
        <ele>2153.97</ele>
        <time>2018-09-09T10:56:07Z</time>
      </trkpt>
      <trkpt lat="44.73934" lon="6.85221">
        <ele>2150.61</ele>
        <time>2018-09-09T10:56:16Z</time>
      </trkpt>
      <trkpt lat="44.73932" lon="6.85216">
        <ele>2146.76</ele>
        <time>2018-09-09T10:56:20Z</time>
      </trkpt>
      <trkpt lat="44.73924" lon="6.85188">
        <ele>2144.84</ele>
        <time>2018-09-09T10:56:38Z</time>
      </trkpt>
      <trkpt lat="44.73918" lon="6.85162">
        <ele>2141.95</ele>
        <time>2018-09-09T10:56:53Z</time>
      </trkpt>
      <trkpt lat="44.7391" lon="6.85141">
        <ele>2140.03</ele>
        <time>2018-09-09T10:57:06Z</time>
      </trkpt>
      <trkpt lat="44.73901" lon="6.85122">
        <ele>2136.19</ele>
        <time>2018-09-09T10:57:21Z</time>
      </trkpt>
      <trkpt lat="44.73897" lon="6.85116">
        <ele>2132.82</ele>
        <time>2018-09-09T10:57:26Z</time>
      </trkpt>
      <trkpt lat="44.73892" lon="6.85112">
        <ele>2129.46</ele>
        <time>2018-09-09T10:57:31Z</time>
      </trkpt>
      <trkpt lat="44.73891" lon="6.85111">
        <ele>2129.94</ele>
        <time>2018-09-09T10:57:32Z</time>
      </trkpt>
      <trkpt lat="44.73888" lon="6.85108">
        <ele>2129.46</ele>
        <time>2018-09-09T10:57:35Z</time>
      </trkpt>
      <trkpt lat="44.73874" lon="6.85092">
        <ele>2128.02</ele>
        <time>2018-09-09T10:57:51Z</time>
      </trkpt>
      <trkpt lat="44.73868" lon="6.85082">
        <ele>2124.17</ele>
        <time>2018-09-09T10:58:02Z</time>
      </trkpt>
      <trkpt lat="44.73866" lon="6.85075">
        <ele>2120.32</ele>
        <time>2018-09-09T10:58:07Z</time>
      </trkpt>
      <trkpt lat="44.7386" lon="6.85061">
        <ele>2118.4</ele>
        <time>2018-09-09T10:58:21Z</time>
      </trkpt>
      <trkpt lat="44.73854" lon="6.85052">
        <ele>2116</ele>
        <time>2018-09-09T10:58:34Z</time>
      </trkpt>
      <trkpt lat="44.7385" lon="6.85044">
        <ele>2112.63</ele>
        <time>2018-09-09T10:58:44Z</time>
      </trkpt>
      <trkpt lat="44.73848" lon="6.85045">
        <ele>2109.75</ele>
        <time>2018-09-09T10:58:48Z</time>
      </trkpt>
      <trkpt lat="44.73845" lon="6.85043">
        <ele>2105.91</ele>
        <time>2018-09-09T10:58:54Z</time>
      </trkpt>
      <trkpt lat="44.73844" lon="6.85042">
        <ele>2106.39</ele>
        <time>2018-09-09T10:59:01Z</time>
      </trkpt>
      <trkpt lat="44.7384" lon="6.85037">
        <ele>2105.91</ele>
        <time>2018-09-09T10:59:12Z</time>
      </trkpt>
      <trkpt lat="44.73826" lon="6.8505">
        <ele>2103.98</ele>
        <time>2018-09-09T10:59:26Z</time>
      </trkpt>
      <trkpt lat="44.7382" lon="6.85048">
        <ele>2101.58</ele>
        <time>2018-09-09T10:59:40Z</time>
      </trkpt>
      <trkpt lat="44.73817" lon="6.85048">
        <ele>2101.1</ele>
        <time>2018-09-09T11:00:04Z</time>
      </trkpt>
      <trkpt lat="44.73797" lon="6.85048">
        <ele>2100.14</ele>
        <time>2018-09-09T11:00:21Z</time>
      </trkpt>
      <trkpt lat="44.7378" lon="6.85054">
        <ele>2098.21</ele>
        <time>2018-09-09T11:00:35Z</time>
      </trkpt>
      <trkpt lat="44.7376" lon="6.85061">
        <ele>2095.33</ele>
        <time>2018-09-09T11:00:51Z</time>
      </trkpt>
      <trkpt lat="44.7374" lon="6.85058">
        <ele>2092.93</ele>
        <time>2018-09-09T11:01:07Z</time>
      </trkpt>
      <trkpt lat="44.73728" lon="6.85056">
        <ele>2091</ele>
        <time>2018-09-09T11:01:18Z</time>
      </trkpt>
      <trkpt lat="44.73722" lon="6.85054">
        <ele>2088.6</ele>
        <time>2018-09-09T11:01:30Z</time>
      </trkpt>
      <trkpt lat="44.73722" lon="6.85054">
        <ele>2088.12</ele>
        <time>2018-09-09T11:01:53Z</time>
      </trkpt>
      <trkpt lat="44.73705" lon="6.85045">
        <ele>2086.68</ele>
        <time>2018-09-09T11:02:08Z</time>
      </trkpt>
      <trkpt lat="44.73702" lon="6.85044">
        <ele>2086.2</ele>
        <time>2018-09-09T11:02:10Z</time>
      </trkpt>
      <trkpt lat="44.73695" lon="6.85044">
        <ele>2084.76</ele>
        <time>2018-09-09T11:02:16Z</time>
      </trkpt>
      <trkpt lat="44.7368" lon="6.85041">
        <ele>2082.35</ele>
        <time>2018-09-09T11:02:28Z</time>
      </trkpt>
      <trkpt lat="44.73672" lon="6.8504">
        <ele>2081.39</ele>
        <time>2018-09-09T11:02:34Z</time>
      </trkpt>
      <trkpt lat="44.73667" lon="6.85049">
        <ele>2079.95</ele>
        <time>2018-09-09T11:02:42Z</time>
      </trkpt>
      <trkpt lat="44.73665" lon="6.85058">
        <ele>2078.51</ele>
        <time>2018-09-09T11:02:48Z</time>
      </trkpt>
      <trkpt lat="44.73663" lon="6.85064">
        <ele>2078.03</ele>
        <time>2018-09-09T11:02:52Z</time>
      </trkpt>
      <trkpt lat="44.73654" lon="6.85067">
        <ele>2077.07</ele>
        <time>2018-09-09T11:03:01Z</time>
      </trkpt>
      <trkpt lat="44.73636" lon="6.85059">
        <ele>2075.14</ele>
        <time>2018-09-09T11:03:15Z</time>
      </trkpt>
      <trkpt lat="44.73627" lon="6.85056">
        <ele>2075.14</ele>
        <time>2018-09-09T11:03:22Z</time>
      </trkpt>
      <trkpt lat="44.73624" lon="6.85056">
        <ele>2075.14</ele>
        <time>2018-09-09T11:03:36Z</time>
      </trkpt>
      <trkpt lat="44.73602" lon="6.85067">
        <ele>2073.22</ele>
        <time>2018-09-09T11:03:56Z</time>
      </trkpt>
      <trkpt lat="44.73588" lon="6.85091">
        <ele>2071.3</ele>
        <time>2018-09-09T11:04:14Z</time>
      </trkpt>
      <trkpt lat="44.73579" lon="6.85118">
        <ele>2069.38</ele>
        <time>2018-09-09T11:04:29Z</time>
      </trkpt>
      <trkpt lat="44.7357" lon="6.85145">
        <ele>2066.97</ele>
        <time>2018-09-09T11:04:45Z</time>
      </trkpt>
      <trkpt lat="44.73564" lon="6.8516">
        <ele>2065.05</ele>
        <time>2018-09-09T11:04:59Z</time>
      </trkpt>
      <trkpt lat="44.73564" lon="6.8516">
        <ele>2065.05</ele>
        <time>2018-09-09T11:05:01Z</time>
      </trkpt>
      <trkpt lat="44.73557" lon="6.85188">
        <ele>2064.57</ele>
        <time>2018-09-09T11:05:19Z</time>
      </trkpt>
      <trkpt lat="44.73558" lon="6.85218">
        <ele>2062.65</ele>
        <time>2018-09-09T11:05:36Z</time>
      </trkpt>
      <trkpt lat="44.73553" lon="6.85252">
        <ele>2061.68</ele>
        <time>2018-09-09T11:05:54Z</time>
      </trkpt>
      <trkpt lat="44.7355" lon="6.85283">
        <ele>2060.72</ele>
        <time>2018-09-09T11:06:11Z</time>
      </trkpt>
      <trkpt lat="44.73542" lon="6.85302">
        <ele>2058.8</ele>
        <time>2018-09-09T11:06:25Z</time>
      </trkpt>
      <trkpt lat="44.73542" lon="6.85301">
        <ele>2058.8</ele>
        <time>2018-09-09T11:06:28Z</time>
      </trkpt>
      <trkpt lat="44.7354" lon="6.85323">
        <ele>2058.32</ele>
        <time>2018-09-09T11:06:40Z</time>
      </trkpt>
      <trkpt lat="44.7354" lon="6.85332">
        <ele>2058.32</ele>
        <time>2018-09-09T11:06:45Z</time>
      </trkpt>
      <trkpt lat="44.73531" lon="6.85361">
        <ele>2057.84</ele>
        <time>2018-09-09T11:07:03Z</time>
      </trkpt>
      <trkpt lat="44.73517" lon="6.85372">
        <ele>2057.84</ele>
        <time>2018-09-09T11:07:15Z</time>
      </trkpt>
      <trkpt lat="44.73514" lon="6.85373">
        <ele>2057.84</ele>
        <time>2018-09-09T11:07:18Z</time>
      </trkpt>
      <trkpt lat="44.73496" lon="6.85379">
        <ele>2057.84</ele>
        <time>2018-09-09T11:07:32Z</time>
      </trkpt>
      <trkpt lat="44.73483" lon="6.85384">
        <ele>2058.8</ele>
        <time>2018-09-09T11:07:44Z</time>
      </trkpt>
      <trkpt lat="44.73479" lon="6.85386">
        <ele>2059.76</ele>
        <time>2018-09-09T11:07:48Z</time>
      </trkpt>
      <trkpt lat="44.73473" lon="6.85391">
        <ele>2060.24</ele>
        <time>2018-09-09T11:07:54Z</time>
      </trkpt>
      <trkpt lat="44.7347" lon="6.8541">
        <ele>2061.2</ele>
        <time>2018-09-09T11:08:08Z</time>
      </trkpt>
      <trkpt lat="44.73468" lon="6.85422">
        <ele>2061.68</ele>
        <time>2018-09-09T11:08:15Z</time>
      </trkpt>
      <trkpt lat="44.73466" lon="6.85433">
        <ele>2061.68</ele>
        <time>2018-09-09T11:08:22Z</time>
      </trkpt>
      <trkpt lat="44.73464" lon="6.85437">
        <ele>2061.68</ele>
        <time>2018-09-09T11:08:25Z</time>
      </trkpt>
      <trkpt lat="44.73449" lon="6.8544">
        <ele>2061.68</ele>
        <time>2018-09-09T11:08:38Z</time>
      </trkpt>
      <trkpt lat="44.73432" lon="6.85436">
        <ele>2061.2</ele>
        <time>2018-09-09T11:08:51Z</time>
      </trkpt>
      <trkpt lat="44.73414" lon="6.85427">
        <ele>2061.2</ele>
        <time>2018-09-09T11:09:04Z</time>
      </trkpt>
      <trkpt lat="44.73403" lon="6.85431">
        <ele>2061.2</ele>
        <time>2018-09-09T11:09:14Z</time>
      </trkpt>
      <trkpt lat="44.73382" lon="6.85428">
        <ele>2061.2</ele>
        <time>2018-09-09T11:09:29Z</time>
      </trkpt>
      <trkpt lat="44.73379" lon="6.85427">
        <ele>2061.2</ele>
        <time>2018-09-09T11:09:33Z</time>
      </trkpt>
      <trkpt lat="44.73361" lon="6.85416">
        <ele>2060.72</ele>
        <time>2018-09-09T11:09:48Z</time>
      </trkpt>
      <trkpt lat="44.73358" lon="6.85415">
        <ele>2059.28</ele>
        <time>2018-09-09T11:09:50Z</time>
      </trkpt>
      <trkpt lat="44.73338" lon="6.85405">
        <ele>2058.32</ele>
        <time>2018-09-09T11:10:04Z</time>
      </trkpt>
      <trkpt lat="44.73337" lon="6.85405">
        <ele>2058.32</ele>
        <time>2018-09-09T11:10:05Z</time>
      </trkpt>
      <trkpt lat="44.73324" lon="6.85394">
        <ele>2056.4</ele>
        <time>2018-09-09T11:10:17Z</time>
      </trkpt>
      <trkpt lat="44.73322" lon="6.8539">
        <ele>2056.4</ele>
        <time>2018-09-09T11:10:19Z</time>
      </trkpt>
      <trkpt lat="44.73312" lon="6.85377">
        <ele>2055.92</ele>
        <time>2018-09-09T11:10:27Z</time>
      </trkpt>
      <trkpt lat="44.73294" lon="6.85358">
        <ele>2054.47</ele>
        <time>2018-09-09T11:10:42Z</time>
      </trkpt>
      <trkpt lat="44.73279" lon="6.85331">
        <ele>2052.55</ele>
        <time>2018-09-09T11:11:00Z</time>
      </trkpt>
      <trkpt lat="44.73265" lon="6.8531">
        <ele>2051.11</ele>
        <time>2018-09-09T11:11:15Z</time>
      </trkpt>
      <trkpt lat="44.73249" lon="6.85286">
        <ele>2048.71</ele>
        <time>2018-09-09T11:11:33Z</time>
      </trkpt>
      <trkpt lat="44.73245" lon="6.85277">
        <ele>2046.78</ele>
        <time>2018-09-09T11:11:40Z</time>
      </trkpt>
      <trkpt lat="44.7323" lon="6.85257">
        <ele>2043.9</ele>
        <time>2018-09-09T11:11:55Z</time>
      </trkpt>
      <trkpt lat="44.73227" lon="6.85254">
        <ele>2043.42</ele>
        <time>2018-09-09T11:11:59Z</time>
      </trkpt>
      <trkpt lat="44.7321" lon="6.85252">
        <ele>2040.54</ele>
        <time>2018-09-09T11:12:12Z</time>
      </trkpt>
      <trkpt lat="44.7319" lon="6.85258">
        <ele>2037.17</ele>
        <time>2018-09-09T11:12:28Z</time>
      </trkpt>
      <trkpt lat="44.73172" lon="6.85268">
        <ele>2035.25</ele>
        <time>2018-09-09T11:12:44Z</time>
      </trkpt>
      <trkpt lat="44.73153" lon="6.85285">
        <ele>2032.36</ele>
        <time>2018-09-09T11:13:00Z</time>
      </trkpt>
      <trkpt lat="44.73135" lon="6.85298">
        <ele>2029.96</ele>
        <time>2018-09-09T11:13:16Z</time>
      </trkpt>
      <trkpt lat="44.73113" lon="6.85312">
        <ele>2027.56</ele>
        <time>2018-09-09T11:13:33Z</time>
      </trkpt>
      <trkpt lat="44.7309" lon="6.85316">
        <ele>2025.15</ele>
        <time>2018-09-09T11:13:51Z</time>
      </trkpt>
      <trkpt lat="44.73072" lon="6.85323">
        <ele>2022.75</ele>
        <time>2018-09-09T11:14:06Z</time>
      </trkpt>
      <trkpt lat="44.73057" lon="6.85336">
        <ele>2020.83</ele>
        <time>2018-09-09T11:14:19Z</time>
      </trkpt>
      <trkpt lat="44.73038" lon="6.85349">
        <ele>2018.43</ele>
        <time>2018-09-09T11:14:34Z</time>
      </trkpt>
      <trkpt lat="44.7302" lon="6.85359">
        <ele>2016.98</ele>
        <time>2018-09-09T11:14:48Z</time>
      </trkpt>
      <trkpt lat="44.73" lon="6.85372">
        <ele>2014.58</ele>
        <time>2018-09-09T11:15:06Z</time>
      </trkpt>
      <trkpt lat="44.72981" lon="6.85383">
        <ele>2012.18</ele>
        <time>2018-09-09T11:15:21Z</time>
      </trkpt>
      <trkpt lat="44.7296" lon="6.85398">
        <ele>2009.77</ele>
        <time>2018-09-09T11:15:38Z</time>
      </trkpt>
      <trkpt lat="44.72942" lon="6.85411">
        <ele>2006.41</ele>
        <time>2018-09-09T11:15:53Z</time>
      </trkpt>
      <trkpt lat="44.7292" lon="6.85426">
        <ele>2004.01</ele>
        <time>2018-09-09T11:16:11Z</time>
      </trkpt>
      <trkpt lat="44.72902" lon="6.85439">
        <ele>2001.12</ele>
        <time>2018-09-09T11:16:26Z</time>
      </trkpt>
      <trkpt lat="44.72884" lon="6.85453">
        <ele>1998.72</ele>
        <time>2018-09-09T11:16:42Z</time>
      </trkpt>
      <trkpt lat="44.72865" lon="6.85462">
        <ele>1996.8</ele>
        <time>2018-09-09T11:16:58Z</time>
      </trkpt>
      <trkpt lat="44.72846" lon="6.85473">
        <ele>1993.91</ele>
        <time>2018-09-09T11:17:14Z</time>
      </trkpt>
      <trkpt lat="44.72826" lon="6.85483">
        <ele>1990.07</ele>
        <time>2018-09-09T11:17:30Z</time>
      </trkpt>
      <trkpt lat="44.72817" lon="6.85489">
        <ele>1987.66</ele>
        <time>2018-09-09T11:17:46Z</time>
      </trkpt>
      <trkpt lat="44.72806" lon="6.85494">
        <ele>1985.26</ele>
        <time>2018-09-09T11:17:59Z</time>
      </trkpt>
      <trkpt lat="44.72807" lon="6.85492">
        <ele>1984.3</ele>
        <time>2018-09-09T11:18:13Z</time>
      </trkpt>
      <trkpt lat="44.72806" lon="6.85491">
        <ele>1984.3</ele>
        <time>2018-09-09T11:18:38Z</time>
      </trkpt>
      <trkpt lat="44.72806" lon="6.85491">
        <ele>1984.3</ele>
        <time>2018-09-09T11:18:44Z</time>
      </trkpt>
      <trkpt lat="44.72806" lon="6.85497">
        <ele>1984.3</ele>
        <time>2018-09-09T11:18:48Z</time>
      </trkpt>
      <trkpt lat="44.72802" lon="6.85515">
        <ele>1983.82</ele>
        <time>2018-09-09T11:19:00Z</time>
      </trkpt>
      <trkpt lat="44.72801" lon="6.85528">
        <ele>1985.26</ele>
        <time>2018-09-09T11:19:08Z</time>
      </trkpt>
      <trkpt lat="44.72798" lon="6.85534">
        <ele>1985.74</ele>
        <time>2018-09-09T11:19:12Z</time>
      </trkpt>
      <trkpt lat="44.72794" lon="6.85545">
        <ele>1986.22</ele>
        <time>2018-09-09T11:19:19Z</time>
      </trkpt>
      <trkpt lat="44.72794" lon="6.85563">
        <ele>1988.14</ele>
        <time>2018-09-09T11:19:32Z</time>
      </trkpt>
      <trkpt lat="44.72793" lon="6.8557">
        <ele>1988.62</ele>
        <time>2018-09-09T11:19:37Z</time>
      </trkpt>
      <trkpt lat="44.72794" lon="6.85572">
        <ele>1989.1</ele>
        <time>2018-09-09T11:19:39Z</time>
      </trkpt>
      <trkpt lat="44.72793" lon="6.85587">
        <ele>1990.55</ele>
        <time>2018-09-09T11:19:51Z</time>
      </trkpt>
      <trkpt lat="44.72792" lon="6.85595">
        <ele>1991.51</ele>
        <time>2018-09-09T11:19:57Z</time>
      </trkpt>
      <trkpt lat="44.7279" lon="6.85607">
        <ele>1992.95</ele>
        <time>2018-09-09T11:20:09Z</time>
      </trkpt>
      <trkpt lat="44.72787" lon="6.8562">
        <ele>1995.35</ele>
        <time>2018-09-09T11:20:21Z</time>
      </trkpt>
      <trkpt lat="44.72784" lon="6.85637">
        <ele>1996.8</ele>
        <time>2018-09-09T11:20:33Z</time>
      </trkpt>
      <trkpt lat="44.72783" lon="6.85643">
        <ele>1997.28</ele>
        <time>2018-09-09T11:20:38Z</time>
      </trkpt>
      <trkpt lat="44.72776" lon="6.85656">
        <ele>1998.24</ele>
        <time>2018-09-09T11:20:48Z</time>
      </trkpt>
      <trkpt lat="44.72773" lon="6.85668">
        <ele>1998.72</ele>
        <time>2018-09-09T11:20:57Z</time>
      </trkpt>
      <trkpt lat="44.72771" lon="6.85674">
        <ele>1999.2</ele>
        <time>2018-09-09T11:21:01Z</time>
      </trkpt>
      <trkpt lat="44.72765" lon="6.85687">
        <ele>2000.16</ele>
        <time>2018-09-09T11:21:14Z</time>
      </trkpt>
      <trkpt lat="44.72765" lon="6.85688">
        <ele>2000.16</ele>
        <time>2018-09-09T11:21:18Z</time>
      </trkpt>
      <trkpt lat="44.72758" lon="6.85713">
        <ele>2000.16</ele>
        <time>2018-09-09T11:21:35Z</time>
      </trkpt>
      <trkpt lat="44.72756" lon="6.85718">
        <ele>2000.16</ele>
        <time>2018-09-09T11:21:38Z</time>
      </trkpt>
      <trkpt lat="44.72753" lon="6.85725">
        <ele>2000.16</ele>
        <time>2018-09-09T11:21:43Z</time>
      </trkpt>
      <trkpt lat="44.72751" lon="6.8575">
        <ele>2000.16</ele>
        <time>2018-09-09T11:21:58Z</time>
      </trkpt>
      <trkpt lat="44.72744" lon="6.85775">
        <ele>2000.64</ele>
        <time>2018-09-09T11:22:15Z</time>
      </trkpt>
      <trkpt lat="44.72743" lon="6.85784">
        <ele>2000.64</ele>
        <time>2018-09-09T11:22:38Z</time>
      </trkpt>
      <trkpt lat="44.7274" lon="6.85796">
        <ele>1999.68</ele>
        <time>2018-09-09T11:22:53Z</time>
      </trkpt>
      <trkpt lat="44.7274" lon="6.85797">
        <ele>1999.2</ele>
        <time>2018-09-09T11:22:57Z</time>
      </trkpt>
      <trkpt lat="44.7274" lon="6.85803">
        <ele>1999.2</ele>
        <time>2018-09-09T11:23:01Z</time>
      </trkpt>
      <trkpt lat="44.72741" lon="6.85813">
        <ele>1999.2</ele>
        <time>2018-09-09T11:23:18Z</time>
      </trkpt>
      <trkpt lat="44.72741" lon="6.85812">
        <ele>1998.24</ele>
        <time>2018-09-09T11:23:40Z</time>
      </trkpt>
      <trkpt lat="44.7274" lon="6.85829">
        <ele>1998.24</ele>
        <time>2018-09-09T11:24:00Z</time>
      </trkpt>
      <trkpt lat="44.72739" lon="6.85858">
        <ele>1997.28</ele>
        <time>2018-09-09T11:24:16Z</time>
      </trkpt>
      <trkpt lat="44.72736" lon="6.85885">
        <ele>1995.35</ele>
        <time>2018-09-09T11:24:31Z</time>
      </trkpt>
      <trkpt lat="44.72739" lon="6.85906">
        <ele>1995.35</ele>
        <time>2018-09-09T11:24:43Z</time>
      </trkpt>
      <trkpt lat="44.72739" lon="6.85934">
        <ele>1995.35</ele>
        <time>2018-09-09T11:24:58Z</time>
      </trkpt>
      <trkpt lat="44.72741" lon="6.85942">
        <ele>1995.35</ele>
        <time>2018-09-09T11:25:03Z</time>
      </trkpt>
      <trkpt lat="44.72745" lon="6.85973">
        <ele>1996.32</ele>
        <time>2018-09-09T11:25:20Z</time>
      </trkpt>
      <trkpt lat="44.72745" lon="6.86002">
        <ele>1996.32</ele>
        <time>2018-09-09T11:25:36Z</time>
      </trkpt>
      <trkpt lat="44.72747" lon="6.86028">
        <ele>1996.32</ele>
        <time>2018-09-09T11:25:51Z</time>
      </trkpt>
      <trkpt lat="44.72752" lon="6.86052">
        <ele>1996.32</ele>
        <time>2018-09-09T11:26:05Z</time>
      </trkpt>
      <trkpt lat="44.72752" lon="6.86057">
        <ele>1996.8</ele>
        <time>2018-09-09T11:26:08Z</time>
      </trkpt>
      <trkpt lat="44.72753" lon="6.86065">
        <ele>1997.28</ele>
        <time>2018-09-09T11:26:13Z</time>
      </trkpt>
      <trkpt lat="44.72753" lon="6.86085">
        <ele>1998.24</ele>
        <time>2018-09-09T11:26:24Z</time>
      </trkpt>
      <trkpt lat="44.72754" lon="6.86105">
        <ele>1998.24</ele>
        <time>2018-09-09T11:26:39Z</time>
      </trkpt>
      <trkpt lat="44.72755" lon="6.86115">
        <ele>1999.68</ele>
        <time>2018-09-09T11:26:46Z</time>
      </trkpt>
      <trkpt lat="44.72752" lon="6.86149">
        <ele>1999.68</ele>
        <time>2018-09-09T11:27:05Z</time>
      </trkpt>
      <trkpt lat="44.72744" lon="6.86172">
        <ele>1999.68</ele>
        <time>2018-09-09T11:27:18Z</time>
      </trkpt>
      <trkpt lat="44.72737" lon="6.86197">
        <ele>1999.68</ele>
        <time>2018-09-09T11:27:33Z</time>
      </trkpt>
      <trkpt lat="44.72731" lon="6.8622">
        <ele>1999.68</ele>
        <time>2018-09-09T11:27:46Z</time>
      </trkpt>
      <trkpt lat="44.72725" lon="6.86245">
        <ele>1999.68</ele>
        <time>2018-09-09T11:28:00Z</time>
      </trkpt>
      <trkpt lat="44.72725" lon="6.86248">
        <ele>1999.68</ele>
        <time>2018-09-09T11:28:01Z</time>
      </trkpt>
      <trkpt lat="44.72724" lon="6.86279">
        <ele>1998.24</ele>
        <time>2018-09-09T11:28:19Z</time>
      </trkpt>
      <trkpt lat="44.72724" lon="6.86288">
        <ele>1998.24</ele>
        <time>2018-09-09T11:28:24Z</time>
      </trkpt>
      <trkpt lat="44.72727" lon="6.86301">
        <ele>1998.24</ele>
        <time>2018-09-09T11:28:32Z</time>
      </trkpt>
      <trkpt lat="44.72728" lon="6.86308">
        <ele>1996.8</ele>
        <time>2018-09-09T11:28:48Z</time>
      </trkpt>
      <trkpt lat="44.72729" lon="6.86311">
        <ele>1996.8</ele>
        <time>2018-09-09T11:29:07Z</time>
      </trkpt>
      <trkpt lat="44.72734" lon="6.86336">
        <ele>1996.32</ele>
        <time>2018-09-09T11:29:21Z</time>
      </trkpt>
      <trkpt lat="44.72737" lon="6.86356">
        <ele>1995.83</ele>
        <time>2018-09-09T11:29:32Z</time>
      </trkpt>
      <trkpt lat="44.72741" lon="6.86362">
        <ele>1994.87</ele>
        <time>2018-09-09T11:29:39Z</time>
      </trkpt>
      <trkpt lat="44.72741" lon="6.86365">
        <ele>1994.87</ele>
        <time>2018-09-09T11:29:41Z</time>
      </trkpt>
      <trkpt lat="44.72738" lon="6.86388">
        <ele>1994.39</ele>
        <time>2018-09-09T11:29:55Z</time>
      </trkpt>
      <trkpt lat="44.72739" lon="6.86393">
        <ele>1994.39</ele>
        <time>2018-09-09T11:29:58Z</time>
      </trkpt>
      <trkpt lat="44.72735" lon="6.86426">
        <ele>1993.43</ele>
        <time>2018-09-09T11:30:16Z</time>
      </trkpt>
      <trkpt lat="44.7273" lon="6.86445">
        <ele>1992.95</ele>
        <time>2018-09-09T11:30:29Z</time>
      </trkpt>
      <trkpt lat="44.72729" lon="6.86444">
        <ele>1992.47</ele>
        <time>2018-09-09T11:30:40Z</time>
      </trkpt>
      <trkpt lat="44.72728" lon="6.86449">
        <ele>1991.51</ele>
        <time>2018-09-09T11:30:44Z</time>
      </trkpt>
      <trkpt lat="44.72728" lon="6.86457">
        <ele>1991.51</ele>
        <time>2018-09-09T11:30:49Z</time>
      </trkpt>
      <trkpt lat="44.72727" lon="6.86464">
        <ele>1991.03</ele>
        <time>2018-09-09T11:30:53Z</time>
      </trkpt>
      <trkpt lat="44.72728" lon="6.86496">
        <ele>1990.55</ele>
        <time>2018-09-09T11:31:09Z</time>
      </trkpt>
      <trkpt lat="44.72722" lon="6.86525">
        <ele>1989.1</ele>
        <time>2018-09-09T11:31:25Z</time>
      </trkpt>
      <trkpt lat="44.72716" lon="6.86552">
        <ele>1987.18</ele>
        <time>2018-09-09T11:31:40Z</time>
      </trkpt>
      <trkpt lat="44.72715" lon="6.86553">
        <ele>1986.7</ele>
        <time>2018-09-09T11:31:46Z</time>
      </trkpt>
      <trkpt lat="44.72716" lon="6.86562">
        <ele>1986.22</ele>
        <time>2018-09-09T11:31:52Z</time>
      </trkpt>
      <trkpt lat="44.72713" lon="6.86572">
        <ele>1985.74</ele>
        <time>2018-09-09T11:31:58Z</time>
      </trkpt>
      <trkpt lat="44.72713" lon="6.86596">
        <ele>1983.82</ele>
        <time>2018-09-09T11:32:10Z</time>
      </trkpt>
      <trkpt lat="44.72717" lon="6.86625">
        <ele>1983.34</ele>
        <time>2018-09-09T11:32:26Z</time>
      </trkpt>
      <trkpt lat="44.7272" lon="6.86656">
        <ele>1983.34</ele>
        <time>2018-09-09T11:32:42Z</time>
      </trkpt>
      <trkpt lat="44.72721" lon="6.86687">
        <ele>1983.34</ele>
        <time>2018-09-09T11:32:59Z</time>
      </trkpt>
      <trkpt lat="44.7272" lon="6.86718">
        <ele>1981.41</ele>
        <time>2018-09-09T11:33:15Z</time>
      </trkpt>
      <trkpt lat="44.72719" lon="6.86732">
        <ele>1980.93</ele>
        <time>2018-09-09T11:33:22Z</time>
      </trkpt>
      <trkpt lat="44.72718" lon="6.86736">
        <ele>1980.45</ele>
        <time>2018-09-09T11:33:31Z</time>
      </trkpt>
      <trkpt lat="44.72712" lon="6.86767">
        <ele>1979.49</ele>
        <time>2018-09-09T11:33:48Z</time>
      </trkpt>
      <trkpt lat="44.72708" lon="6.86795">
        <ele>1979.01</ele>
        <time>2018-09-09T11:34:03Z</time>
      </trkpt>
      <trkpt lat="44.72705" lon="6.86807">
        <ele>1979.01</ele>
        <time>2018-09-09T11:34:10Z</time>
      </trkpt>
      <trkpt lat="44.72695" lon="6.86832">
        <ele>1978.05</ele>
        <time>2018-09-09T11:34:26Z</time>
      </trkpt>
      <trkpt lat="44.72692" lon="6.86843">
        <ele>1977.09</ele>
        <time>2018-09-09T11:34:38Z</time>
      </trkpt>
      <trkpt lat="44.72693" lon="6.8685">
        <ele>1975.65</ele>
        <time>2018-09-09T11:34:54Z</time>
      </trkpt>
      <trkpt lat="44.72698" lon="6.86876">
        <ele>1975.65</ele>
        <time>2018-09-09T11:35:08Z</time>
      </trkpt>
      <trkpt lat="44.72703" lon="6.86906">
        <ele>1976.61</ele>
        <time>2018-09-09T11:35:24Z</time>
      </trkpt>
      <trkpt lat="44.72706" lon="6.86914">
        <ele>1977.09</ele>
        <time>2018-09-09T11:35:29Z</time>
      </trkpt>
      <trkpt lat="44.72713" lon="6.86941">
        <ele>1978.05</ele>
        <time>2018-09-09T11:35:45Z</time>
      </trkpt>
      <trkpt lat="44.72717" lon="6.8697">
        <ele>1978.05</ele>
        <time>2018-09-09T11:36:02Z</time>
      </trkpt>
      <trkpt lat="44.72719" lon="6.86979">
        <ele>1978.53</ele>
        <time>2018-09-09T11:36:07Z</time>
      </trkpt>
      <trkpt lat="44.72719" lon="6.8701">
        <ele>1978.05</ele>
        <time>2018-09-09T11:36:23Z</time>
      </trkpt>
      <trkpt lat="44.72716" lon="6.87038">
        <ele>1978.05</ele>
        <time>2018-09-09T11:36:39Z</time>
      </trkpt>
      <trkpt lat="44.72716" lon="6.8704">
        <ele>1978.05</ele>
        <time>2018-09-09T11:36:41Z</time>
      </trkpt>
      <trkpt lat="44.72713" lon="6.87053">
        <ele>1978.05</ele>
        <time>2018-09-09T11:36:48Z</time>
      </trkpt>
      <trkpt lat="44.7271" lon="6.87082">
        <ele>1978.53</ele>
        <time>2018-09-09T11:37:02Z</time>
      </trkpt>
      <trkpt lat="44.72707" lon="6.87094">
        <ele>1978.53</ele>
        <time>2018-09-09T11:37:09Z</time>
      </trkpt>
      <trkpt lat="44.72701" lon="6.87115">
        <ele>1978.53</ele>
        <time>2018-09-09T11:37:21Z</time>
      </trkpt>
      <trkpt lat="44.72694" lon="6.87138">
        <ele>1978.53</ele>
        <time>2018-09-09T11:37:34Z</time>
      </trkpt>
      <trkpt lat="44.72693" lon="6.87155">
        <ele>1978.05</ele>
        <time>2018-09-09T11:37:44Z</time>
      </trkpt>
      <trkpt lat="44.72693" lon="6.87172">
        <ele>1981.9</ele>
        <time>2018-09-09T11:37:54Z</time>
      </trkpt>
      <trkpt lat="44.72691" lon="6.87184">
        <ele>1957.38</ele>
        <time>2018-09-09T11:38:00Z</time>
      </trkpt>
      <trkpt lat="44.72691" lon="6.87185">
        <ele>1993.43</ele>
        <time>2018-09-09T11:38:01Z</time>
      </trkpt>
      <trkpt lat="44.72691" lon="6.87189">
        <ele>2122.73</ele>
        <time>2018-09-09T11:38:04Z</time>
      </trkpt>
      <trkpt lat="44.72691" lon="6.87193">
        <ele>1981.41</ele>
        <time>2018-09-09T11:38:06Z</time>
      </trkpt>
      <trkpt lat="44.72691" lon="6.87195">
        <ele>1981.9</ele>
        <time>2018-09-09T11:38:08Z</time>
      </trkpt>
      <trkpt lat="44.72685" lon="6.87213">
        <ele>1983.34</ele>
        <time>2018-09-09T11:38:19Z</time>
      </trkpt>
      <trkpt lat="44.7268" lon="6.87228">
        <ele>1983.82</ele>
        <time>2018-09-09T11:38:30Z</time>
      </trkpt>
      <trkpt lat="44.72672" lon="6.87246">
        <ele>1985.26</ele>
        <time>2018-09-09T11:38:45Z</time>
      </trkpt>
      <trkpt lat="44.72667" lon="6.87263">
        <ele>1986.22</ele>
        <time>2018-09-09T11:38:57Z</time>
      </trkpt>
      <trkpt lat="44.72664" lon="6.87272">
        <ele>1986.7</ele>
        <time>2018-09-09T11:39:03Z</time>
      </trkpt>
      <trkpt lat="44.7266" lon="6.87291">
        <ele>1988.62</ele>
        <time>2018-09-09T11:39:16Z</time>
      </trkpt>
      <trkpt lat="44.72655" lon="6.8731">
        <ele>1989.59</ele>
        <time>2018-09-09T11:39:28Z</time>
      </trkpt>
      <trkpt lat="44.72655" lon="6.87312">
        <ele>1990.07</ele>
        <time>2018-09-09T11:39:29Z</time>
      </trkpt>
      <trkpt lat="44.7265" lon="6.8733">
        <ele>1991.03</ele>
        <time>2018-09-09T11:39:41Z</time>
      </trkpt>
      <trkpt lat="44.72649" lon="6.87332">
        <ele>1991.51</ele>
        <time>2018-09-09T11:39:43Z</time>
      </trkpt>
      <trkpt lat="44.72645" lon="6.87343">
        <ele>1991.99</ele>
        <time>2018-09-09T11:39:51Z</time>
      </trkpt>
      <trkpt lat="44.72635" lon="6.87361">
        <ele>1993.43</ele>
        <time>2018-09-09T11:40:05Z</time>
      </trkpt>
      <trkpt lat="44.72631" lon="6.87376">
        <ele>1995.35</ele>
        <time>2018-09-09T11:40:17Z</time>
      </trkpt>
      <trkpt lat="44.72626" lon="6.87394">
        <ele>1997.28</ele>
        <time>2018-09-09T11:40:31Z</time>
      </trkpt>
      <trkpt lat="44.72621" lon="6.8741">
        <ele>1998.72</ele>
        <time>2018-09-09T11:40:42Z</time>
      </trkpt>
      <trkpt lat="44.7261" lon="6.87431">
        <ele>2000.16</ele>
        <time>2018-09-09T11:40:57Z</time>
      </trkpt>
      <trkpt lat="44.72604" lon="6.87443">
        <ele>2001.12</ele>
        <time>2018-09-09T11:41:06Z</time>
      </trkpt>
      <trkpt lat="44.72595" lon="6.8746">
        <ele>2003.52</ele>
        <time>2018-09-09T11:41:19Z</time>
      </trkpt>
      <trkpt lat="44.72595" lon="6.87462">
        <ele>2003.52</ele>
        <time>2018-09-09T11:41:20Z</time>
      </trkpt>
      <trkpt lat="44.72589" lon="6.87484">
        <ele>2004.49</ele>
        <time>2018-09-09T11:41:35Z</time>
      </trkpt>
      <trkpt lat="44.72587" lon="6.87491">
        <ele>2004.97</ele>
        <time>2018-09-09T11:41:40Z</time>
      </trkpt>
      <trkpt lat="44.72586" lon="6.87496">
        <ele>2005.93</ele>
        <time>2018-09-09T11:41:43Z</time>
      </trkpt>
      <trkpt lat="44.72585" lon="6.8751">
        <ele>2006.41</ele>
        <time>2018-09-09T11:41:51Z</time>
      </trkpt>
      <trkpt lat="44.72586" lon="6.8752">
        <ele>2007.37</ele>
        <time>2018-09-09T11:41:58Z</time>
      </trkpt>
      <trkpt lat="44.7259" lon="6.87525">
        <ele>2007.85</ele>
        <time>2018-09-09T11:42:03Z</time>
      </trkpt>
      <trkpt lat="44.72597" lon="6.87522">
        <ele>2008.33</ele>
        <time>2018-09-09T11:42:09Z</time>
      </trkpt>
      <trkpt lat="44.72599" lon="6.87513">
        <ele>2009.77</ele>
        <time>2018-09-09T11:42:16Z</time>
      </trkpt>
      <trkpt lat="44.72601" lon="6.87506">
        <ele>2009.77</ele>
        <time>2018-09-09T11:42:20Z</time>
      </trkpt>
      <trkpt lat="44.72604" lon="6.87495">
        <ele>2010.25</ele>
        <time>2018-09-09T11:42:28Z</time>
      </trkpt>
      <trkpt lat="44.72607" lon="6.87488">
        <ele>2011.22</ele>
        <time>2018-09-09T11:42:33Z</time>
      </trkpt>
      <trkpt lat="44.72618" lon="6.87475">
        <ele>2012.18</ele>
        <time>2018-09-09T11:42:45Z</time>
      </trkpt>
    </trkseg>
  </trk>
</gpx>